Provisional Data: Portage Creek near Emporium, PA


Please select a monitoring station.
Please select start date.
Please select start date.

Toggle Unit: C/F Toggle Unit: C/F
Sample Time Temperature (C) Temperature (F) Specific Conductivity (mS/cm) pH   Turbidity (NTU+) DO (mg/L)
2/4/2021 12:00:00 AM -0.11 31.802 0.081 7.35 2.36 14.14
2/4/2021 12:15:00 AM -0.11 31.802 0.081 7.35 2.26 14.16
2/4/2021 12:30:00 AM -0.11 31.802 0.081 7.31 2.27 14.17
2/4/2021 12:45:00 AM -0.11 31.802 0.082 7.34 2.2 14.16
2/4/2021 1:00:00 AM -0.11 31.802 0.082 7.34 2.24 14.15
2/4/2021 1:15:00 AM -0.11 31.802 0.082 7.34 2.29 14.16
2/4/2021 1:30:00 AM -0.11 31.802 0.082 7.31 2.28 14.17
2/4/2021 1:45:00 AM -0.11 31.802 0.082 7.34 2.26 14.15
2/4/2021 2:00:00 AM -0.11 31.802 0.082 7.34 2.25 14.17
2/4/2021 2:15:00 AM -0.1 31.82 0.082 7.3 2.22 14.16
2/4/2021 2:30:00 AM -0.1 31.82 0.083 7.33 2.27 14.16
2/4/2021 2:45:00 AM -0.1 31.82 0.083 7.33 2.27 14.16
2/4/2021 3:00:00 AM -0.11 31.802 0.083 7.3 2.25 14.18
2/4/2021 3:15:00 AM -0.11 31.802 0.083 7.33 2.25 14.16
2/4/2021 3:30:00 AM -0.1 31.82 0.083 7.3 2.26 14.15
2/4/2021 3:45:00 AM -0.1 31.82 0.083 7.33 2.27 14.15
2/4/2021 4:00:00 AM -0.1 31.82 0.084 7.32 2.58 14.15
2/4/2021 4:15:00 AM -0.1 31.82 0.084 7.33 2.29 14.16
2/4/2021 4:30:00 AM -0.1 31.82 0.084 7.32 2.24 14.15
2/4/2021 4:45:00 AM -0.1 31.82 0.084 7.31 2.18 14.14
2/4/2021 5:00:00 AM -0.1 31.82 0.084 7.32 2.16 14.14
2/4/2021 5:15:00 AM -0.1 31.82 0.085 7.31 2.23 14.14
2/4/2021 5:30:00 AM -0.09 31.838 0.085 7.32 2.2 14.14
2/4/2021 5:45:00 AM -0.1 31.82 0.085 7.31 2.28 14.13
2/4/2021 6:00:00 AM -0.1 31.82 0.085 7.3 2.22 14.13
2/4/2021 6:15:00 AM -0.1 31.82 0.086 7.32 2.47 14.14
2/4/2021 6:30:00 AM -0.1 31.82 0.086 7.31 2.22 14.13
2/4/2021 6:45:00 AM -0.09 31.838 0.086 7.3 2.11 14.11
2/4/2021 7:00:00 AM -0.09 31.838 0.086 7.3 2.17 14.1
2/4/2021 7:15:00 AM -0.09 31.838 0.086 7.28 2.13 14.09
2/4/2021 7:30:00 AM -0.09 31.838 0.087 7.3 2.13 14.06
2/4/2021 7:45:00 AM -0.09 31.838 0.087 7.27 2.15 14.06
2/4/2021 8:00:00 AM -0.09 31.838 0.087 7.29 2.19 14.08
2/4/2021 8:15:00 AM -0.09 31.838 0.087 7.31 2.12 14.13
2/4/2021 8:30:00 AM -0.08 31.856 0.087 7.28 2.22 14.14
2/4/2021 8:45:00 AM -0.08 31.856 0.089 7.28 2.17 14.18
2/4/2021 9:00:00 AM -0.08 31.856 0.089 7.3 2.14 14.25
2/4/2021 9:15:00 AM -0.08 31.856 0.088 7.33 2.13 14.32
2/4/2021 9:30:00 AM -0.09 31.838 0.088 7.36 2.14 14.42
2/4/2021 9:45:00 AM -0.08 31.856 0.088 7.38 2.16 14.46
2/4/2021 10:00:00 AM -0.09 31.838 0.088 7.4 2.15 14.56
2/4/2021 10:15:00 AM -0.09 31.838 0.087 7.43 2.1 14.69
2/4/2021 10:30:00 AM -0.09 31.838 0.087 7.45 2.13 14.65
2/4/2021 10:45:00 AM -0.09 31.838 0.086 7.47 2.14 14.78
2/4/2021 11:00:00 AM -0.09 31.838 0.086 7.49 2.18 14.87
2/4/2021 11:15:00 AM -0.09 31.838 0.086 7.52 2.16 14.91
2/4/2021 11:30:00 AM -0.08 31.856 0.085 7.53 2.19 14.91
2/4/2021 11:45:00 AM -0.08 31.856 0.085 7.52 2.29 14.9
2/4/2021 12:00:00 PM -0.07 31.874 0.084 7.56 2.18 14.88
2/4/2021 12:15:00 PM -0.07 31.874 0.084 7.58 2.41 14.91
2/4/2021 12:30:00 PM -0.07 31.874 0.083 7.61 2.63 14.96
2/4/2021 12:45:00 PM -0.06 31.892 0.082 7.64 2.28 14.98
2/4/2021 1:00:00 PM -0.03 31.946 0.082 7.65 2.36 14.95
2/4/2021 1:15:00 PM -0.01 31.982 0.082 7.63 2.28 14.91
2/4/2021 1:30:00 PM 0 32 0.082 7.66 2.37 14.9
2/4/2021 1:45:00 PM 0.01 32.018 0.082 7.66 2.34 14.86
2/4/2021 2:00:00 PM 0 32 0.082 7.67 2.65 14.85
2/4/2021 2:15:00 PM 0.01 32.018 0.082 7.64 2.4 14.8
2/4/2021 2:30:00 PM 0.01 32.018 0.082 7.67 2.37 14.79
2/4/2021 2:45:00 PM 0.01 32.018 0.082 7.68 2.31 14.77
2/4/2021 3:00:00 PM 0 32 0.083 7.68 2.54 14.8
2/4/2021 3:15:00 PM -0.01 31.982 0.083 7.69 2.42 14.83
2/4/2021 3:30:00 PM -0.04 31.928 0.083 7.69 2.63 14.84
2/4/2021 3:45:00 PM -0.07 31.874 0.083 7.7 2.54 14.87
2/4/2021 4:00:00 PM -0.08 31.856 0.083 7.69 2.46 14.88
2/4/2021 4:15:00 PM -0.09 31.838 0.082 7.68 2.5 14.85
2/4/2021 4:30:00 PM -0.09 31.838 0.081 7.65 2.38 14.82
2/4/2021 4:45:00 PM -0.1 31.82 0.081 7.61 2.39 14.78
2/4/2021 5:00:00 PM -0.11 31.802 0.08 7.61 2.36 14.73
2/4/2021 5:15:00 PM -0.11 31.802 0.079 7.59 2.44 14.7
2/4/2021 5:30:00 PM -0.12 31.784 0.079 7.57 2.41 14.65
2/4/2021 5:45:00 PM -0.12 31.784 0.079 7.54 2.69 14.57
2/4/2021 6:00:00 PM -0.12 31.784 0.078 7.51 2.75 14.5
2/4/2021 6:15:00 PM -0.12 31.784 0.078 7.46 2.6 14.45
2/4/2021 6:30:00 PM -0.12 31.784 0.078 7.46 2.34 14.4
2/4/2021 6:45:00 PM -0.12 31.784 0.078 7.45 2.37 14.37
2/4/2021 7:00:00 PM -0.11 31.802 0.078 7.42 2.38 14.32
2/4/2021 7:15:00 PM -0.11 31.802 0.078 7.42 2.33 14.29
2/4/2021 7:30:00 PM -0.11 31.802 0.078 7.41 2.35 14.26
2/4/2021 7:45:00 PM -0.11 31.802 0.078 7.4 2.36 14.23
2/4/2021 8:00:00 PM -0.11 31.802 0.078 7.39 2.31 14.21
2/4/2021 8:15:00 PM -0.11 31.802 0.078 7.35 2.35 14.19
2/4/2021 8:30:00 PM -0.11 31.802 0.078 7.37 2.32 14.17
2/4/2021 8:45:00 PM -0.11 31.802 0.079 7.37 2.36 14.16
2/4/2021 9:00:00 PM -0.11 31.802 0.079 7.37 2.34 14.14
2/4/2021 9:15:00 PM -0.11 31.802 0.079 7.37 2.35 14.12
2/4/2021 9:30:00 PM -0.11 31.802 0.079 7.37 2.35 14.12
2/4/2021 9:45:00 PM -0.11 31.802 0.079 7.35 2.36 14.11
2/4/2021 10:00:00 PM -0.11 31.802 0.079 7.36 2.32 14.1
2/4/2021 10:15:00 PM -0.11 31.802 0.08 7.35 2.3 14.08
2/4/2021 10:30:00 PM -0.11 31.802 0.08 7.35 2.32 14.08
2/4/2021 10:45:00 PM -0.11 31.802 0.08 7.32 2.36 14.07
2/4/2021 11:00:00 PM -0.11 31.802 0.08 7.35 2.36 14.06
2/4/2021 11:15:00 PM -0.11 31.802 0.08 7.35 2.29 14.06
2/4/2021 11:30:00 PM -0.1 31.82 0.08 7.35 2.28 14.05
2/4/2021 11:45:00 PM -0.1 31.82 0.08 7.35 2.45 14.04
2/5/2021 12:00:00 AM -0.11 31.802 0.08 7.33 2.27 14.05
2/5/2021 12:15:00 AM -0.11 31.802 0.08 7.35 2.29 14.05
2/5/2021 12:30:00 AM -0.1 31.82 0.081 7.33 2.33 14.04
2/5/2021 12:45:00 AM -0.1 31.82 0.081 7.35 2.3 14.02
2/5/2021 1:00:00 AM -0.11 31.802 0.081 7.35 2.33 14.02
2/5/2021 1:15:00 AM -0.1 31.82 0.081 7.35 2.32 14.01
2/5/2021 1:30:00 AM -0.1 31.82 0.081 7.35 2.3 14.01
2/5/2021 1:45:00 AM -0.1 31.82 0.081 7.32 2.27 14
2/5/2021 2:00:00 AM -0.1 31.82 0.081 7.33 2.22 14
2/5/2021 2:15:00 AM -0.1 31.82 0.081 7.35 2.31 13.99
2/5/2021 2:30:00 AM -0.1 31.82 0.081 7.35 2.28 13.99
2/5/2021 2:45:00 AM -0.1 31.82 0.081 7.35 2.25 13.98
2/5/2021 3:00:00 AM -0.1 31.82 0.08 7.32 2.43 13.97
2/5/2021 3:15:00 AM -0.1 31.82 0.08 7.35 2.29 13.96
2/5/2021 3:30:00 AM -0.1 31.82 0.08 7.35 2.3 13.95
2/5/2021 3:45:00 AM -0.1 31.82 0.08 7.35 2.29 13.94
2/5/2021 4:00:00 AM -0.1 31.82 0.08 7.35 2.23 13.93
2/5/2021 4:15:00 AM -0.1 31.82 0.08 7.34 2.26 13.92
2/5/2021 4:30:00 AM -0.09 31.838 0.08 7.34 2.28 13.9
2/5/2021 4:45:00 AM -0.09 31.838 0.08 7.35 2.25 13.89
2/5/2021 5:00:00 AM -0.09 31.838 0.08 7.33 2.83 13.88
2/5/2021 5:15:00 AM -0.09 31.838 0.08 7.35 2.38 13.89
2/5/2021 5:30:00 AM -0.09 31.838 0.08 7.35 4.16 13.87
2/5/2021 5:45:00 AM -0.09 31.838 0.08 7.35 2.26 13.88
2/5/2021 6:00:00 AM -0.08 31.856 0.08 7.35 2.25 13.88
2/5/2021 6:15:00 AM -0.08 31.856 0.08 7.32 2.21 13.88
2/5/2021 6:30:00 AM -0.08 31.856 0.08 7.34 2.24 13.87
2/5/2021 6:45:00 AM -0.08 31.856 0.081 7.35 2.28 13.88
2/5/2021 7:00:00 AM -0.08 31.856 0.084 7.34 2.24 13.87
2/5/2021 7:15:00 AM -0.08 31.856 0.085 7.32 2.26 13.88
2/5/2021 7:30:00 AM -0.08 31.856 0.086 7.34 2.3 13.89
2/5/2021 7:45:00 AM -0.08 31.856 0.085 7.35 2.36 13.91
2/5/2021 8:00:00 AM -0.08 31.856 0.084 7.36 2.31 13.96
2/5/2021 8:15:00 AM -0.07 31.874 0.082 7.36 2.29 14.06
2/5/2021 8:30:00 AM -0.06 31.892 0.082 7.41 2.2 14.18
2/5/2021 8:45:00 AM -0.04 31.928 0.082 7.44 2.25 14.29
2/5/2021 9:00:00 AM -0.05 31.91 0.082 7.46 2.27 14.35
2/5/2021 9:15:00 AM -0.05 31.91 0.083 7.48 2.2 14.41
2/5/2021 9:30:00 AM -0.05 31.91 0.083 7.46 2.29 14.45
2/5/2021 9:45:00 AM -0.03 31.946 0.083 7.51 2.22 14.52
2/5/2021 10:00:00 AM -0.02 31.964 0.083 7.55 2.25 14.58
2/5/2021 10:15:00 AM -0.01 31.982 0.082 7.56 2.33 14.63
2/5/2021 10:30:00 AM 0.01 32.018 0.082 7.59 2.57 14.67
2/5/2021 10:45:00 AM 0.02 32.036 0.081 7.61 2.29 14.69
2/5/2021 11:00:00 AM 0.03 32.054 0.081 7.63 2.28 14.72
2/5/2021 11:15:00 AM 0.02 32.036 0.081 7.64 2.3 14.73
2/5/2021 11:30:00 AM 0.02 32.036 0.081 7.64 2.31 14.73
2/5/2021 11:45:00 AM 0.04 32.072 0.081 7.67 2.31 14.75
2/5/2021 12:00:00 PM 0.05 32.09 0.08 7.68 2.36 14.75
2/5/2021 12:15:00 PM 0.05 32.09 0.08 7.69 2.43 14.75
2/5/2021 12:30:00 PM 0.05 32.09 0.08 7.68 2.4 14.74
2/5/2021 12:45:00 PM 0.05 32.09 0.079 7.69 2.46 14.74
2/5/2021 1:00:00 PM 0.07 32.126 0.079 7.71 2.43 14.74
2/5/2021 1:15:00 PM 0.07 32.126 0.079 7.69 2.31 14.73
2/5/2021 1:30:00 PM 0.06 32.108 0.079 7.7 2.58 14.72
2/5/2021 1:45:00 PM 0.06 32.108 0.079 7.71 2.33 14.72
2/5/2021 2:00:00 PM 0.07 32.126 0.078 7.7 2.24 14.73
2/5/2021 2:15:00 PM 0.09 32.162 0.078 7.72 2.28 14.72
2/5/2021 2:30:00 PM 0.1 32.18 0.078 7.72 2.27 14.72
2/5/2021 2:45:00 PM 0.1 32.18 0.078 7.72 2.27 14.71
2/5/2021 3:00:00 PM 0.11 32.198 0.078 7.72 2.28 14.71
2/5/2021 3:15:00 PM 0.11 32.198 0.078 7.72 2.29 14.69
2/5/2021 3:30:00 PM 0.1 32.18 0.078 7.7 2.32 14.69
2/5/2021 3:45:00 PM 0.08 32.144 0.078 7.72 2.29 14.68
2/5/2021 4:00:00 PM 0.06 32.108 0.078 7.71 2.31 14.67
2/5/2021 4:15:00 PM 0.04 32.072 0.078 7.7 2.35 14.65
2/5/2021 4:30:00 PM 0.02 32.036 0.078 7.68 2.32 14.64
2/5/2021 4:45:00 PM 0 32 0.078 7.66 2.31 14.61
2/5/2021 5:00:00 PM -0.02 31.964 0.078 7.65 2.31 14.57
2/5/2021 5:15:00 PM -0.03 31.946 0.078 7.62 2.3 14.53
2/5/2021 5:30:00 PM -0.06 31.892 0.078 7.57 2.32 14.46
2/5/2021 5:45:00 PM -0.07 31.874 0.079 7.55 2.32 14.39
2/5/2021 6:00:00 PM -0.09 31.838 0.079 7.52 2.43 14.32
2/5/2021 6:15:00 PM -0.11 31.802 0.079 7.49 2.39 14.26
2/5/2021 6:30:00 PM -0.13 31.766 0.079 7.47 2.35 14.23
2/5/2021 6:45:00 PM -0.12 31.784 0.079 7.44 2.32 14.2
2/5/2021 7:00:00 PM -0.11 31.802 0.079 7.44 2.39 14.19
2/5/2021 7:15:00 PM -0.11 31.802 0.079 7.4 2.32 14.16
2/5/2021 7:30:00 PM -0.11 31.802 0.079 7.41 2.34 14.14
2/5/2021 7:45:00 PM -0.11 31.802 0.08 7.41 2.31 14.13
2/5/2021 8:00:00 PM -0.11 31.802 0.08 7.4 2.45 14.11
2/5/2021 8:15:00 PM -0.11 31.802 0.08 7.4 2.44 14.11
2/5/2021 8:30:00 PM -0.11 31.802 0.08 7.39 2.29 14.1
2/5/2021 8:45:00 PM -0.11 31.802 0.08 7.38 2.27 14.1
2/5/2021 9:00:00 PM -0.11 31.802 0.081 7.39 2.31 14.09
2/5/2021 9:15:00 PM -0.11 31.802 0.081 7.38 2.34 14.08
2/5/2021 9:30:00 PM -0.1 31.82 0.081 7.38 2.38 14.07
2/5/2021 9:45:00 PM -0.11 31.802 0.081 7.35 2.29 14.08
2/5/2021 10:00:00 PM -0.11 31.802 0.081 7.37 2.36 14.07
2/5/2021 10:15:00 PM -0.11 31.802 0.082 7.36 2.24 14.06
2/5/2021 10:30:00 PM -0.11 31.802 0.082 7.37 2.27 14.06
2/5/2021 10:45:00 PM -0.11 31.802 0.082 7.35 2.27 14.06
2/5/2021 11:00:00 PM -0.11 31.802 0.082 7.37 2.29 14.05
2/5/2021 11:15:00 PM -0.11 31.802 0.082 7.36 2.27 14.07
2/5/2021 11:30:00 PM -0.11 31.802 0.082 7.36 2.3 14.06
2/5/2021 11:45:00 PM -0.11 31.802 0.082 7.33 2.34 14.05
2/6/2021 12:00:00 AM -0.11 31.802 0.083 7.36 2.29 14.06
2/6/2021 12:15:00 AM -0.11 31.802 0.083 7.35 2.28 14.06
2/6/2021 12:30:00 AM -0.1 31.82 0.083 7.36 2.29 14.05
2/6/2021 12:45:00 AM -0.1 31.82 0.083 7.34 2.29 14.05
2/6/2021 1:00:00 AM -0.1 31.82 0.083 7.36 2.27 14.05
2/6/2021 1:15:00 AM -0.1 31.82 0.083 7.36 2.28 14.04
2/6/2021 1:30:00 AM -0.1 31.82 0.083 7.32 2.31 14.05
2/6/2021 1:45:00 AM -0.1 31.82 0.083 7.35 2.29 14.05
2/6/2021 2:00:00 AM -0.1 31.82 0.083 7.35 2.29 14.04
2/6/2021 2:15:00 AM -0.1 31.82 0.083 7.35 2.28 14
2/6/2021 2:30:00 AM -0.1 31.82 0.083 7.35 2.3 14.03
2/6/2021 2:45:00 AM -0.1 31.82 0.083 7.35 2.27 14.03
2/6/2021 3:00:00 AM -0.1 31.82 0.083 7.35 2.31 14.04
2/6/2021 3:15:00 AM -0.1 31.82 0.083 7.35 2.3 14.04
2/6/2021 3:30:00 AM -0.11 31.802 0.083 7.33 2.32 14.04
2/6/2021 3:45:00 AM -0.1 31.82 0.083 7.35 2.24 14.04
2/6/2021 4:00:00 AM -0.1 31.82 0.083 7.35 2.28 14.04
2/6/2021 4:15:00 AM -0.11 31.802 0.083 7.34 2.24 14.05
2/6/2021 4:30:00 AM -0.1 31.82 0.083 7.31 2.27 14.05
2/6/2021 4:45:00 AM -0.1 31.82 0.083 7.35 2.3 14.06
2/6/2021 5:00:00 AM -0.1 31.82 0.083 7.31 2.25 14.07
2/6/2021 5:15:00 AM -0.1 31.82 0.083 7.34 2.33 14.06
2/6/2021 5:30:00 AM -0.1 31.82 0.083 7.33 2.25 14.05
2/6/2021 5:45:00 AM -0.1 31.82 0.083 7.34 2.28 14.06
2/6/2021 6:00:00 AM -0.1 31.82 0.083 7.34 2.25 14.07
2/6/2021 6:15:00 AM -0.1 31.82 0.083 7.34 2.32 14.09
2/6/2021 6:30:00 AM -0.1 31.82 0.083 7.34 2.29 14.09
2/6/2021 6:45:00 AM -0.11 31.802 0.083 7.34 2.28 14.1
2/6/2021 7:00:00 AM -0.1 31.82 0.084 7.34 2.25 14.1
2/6/2021 7:15:00 AM -0.1 31.82 0.084 7.34 2.28 14.11
2/6/2021 7:30:00 AM -0.11 31.802 0.084 7.34 2.25 14.14
2/6/2021 7:45:00 AM -0.11 31.802 0.084 7.35 2.25 14.17
2/6/2021 8:00:00 AM -0.1 31.82 0.084 7.36 2.57 14.21
2/6/2021 8:15:00 AM -0.1 31.82 0.084 7.37 2.23 14.28
2/6/2021 8:30:00 AM -0.1 31.82 0.084 7.39 2.24 14.35
2/6/2021 8:45:00 AM -0.1 31.82 0.084 7.37 2.24 14.44
2/6/2021 9:00:00 AM -0.1 31.82 0.084 7.42 2.25 14.53
2/6/2021 9:15:00 AM -0.1 31.82 0.084 7.45 2.27 14.58
2/6/2021 9:30:00 AM -0.1 31.82 0.084 7.47 2.24 14.66
2/6/2021 9:45:00 AM -0.1 31.82 0.084 7.49 2.23 14.74
2/6/2021 10:00:00 AM -0.1 31.82 0.084 7.51 2.23 14.8
2/6/2021 10:15:00 AM -0.1 31.82 0.084 7.5 2.25 14.85
2/6/2021 10:30:00 AM -0.1 31.82 0.083 7.55 2.23 14.91
2/6/2021 10:45:00 AM -0.1 31.82 0.083 7.57 2.29 14.95
2/6/2021 11:00:00 AM -0.1 31.82 0.083 7.58 2.31 14.94
2/6/2021 11:15:00 AM -0.09 31.838 0.083 7.61 2.27 15
2/6/2021 11:30:00 AM -0.09 31.838 0.082 7.64 2.28 15.02
2/6/2021 11:45:00 AM -0.07 31.874 0.082 7.64 2.63 15.04
2/6/2021 12:00:00 PM -0.05 31.91 0.082 7.66 2.31 15.03
2/6/2021 12:15:00 PM -0.03 31.946 0.081 7.67 2.29 15.01
2/6/2021 12:30:00 PM -0.02 31.964 0.081 7.66 2.24 14.99
2/6/2021 12:45:00 PM -0.01 31.982 0.08 7.68 2.27 14.97
2/6/2021 1:00:00 PM 0 32 0.08 7.68 2.26 14.95
2/6/2021 1:15:00 PM 0.02 32.036 0.08 7.68 2.3 14.91
2/6/2021 1:30:00 PM 0.05 32.09 0.079 7.68 2.26 14.86
2/6/2021 1:45:00 PM 0.12 32.216 0.079 7.67 2.25 14.81
2/6/2021 2:00:00 PM 0.17 32.306 0.079 7.66 2.51 14.76
2/6/2021 2:15:00 PM 0.21 32.378 0.079 7.67 2.21 14.73
2/6/2021 2:30:00 PM 0.25 32.45 0.079 7.68 2.29 14.73
2/6/2021 2:45:00 PM 0.25 32.45 0.079 7.67 2.28 14.72
2/6/2021 3:00:00 PM 0.2 32.36 0.08 7.66 2.31 14.72
2/6/2021 3:15:00 PM 0.15 32.27 0.08 7.67 2.33 14.73
2/6/2021 3:30:00 PM 0.1 32.18 0.08 7.67 2.42 14.75
2/6/2021 3:45:00 PM 0.05 32.09 0.079 7.67 2.7 14.77
2/6/2021 4:00:00 PM 0 32 0.08 7.66 2.69 14.8
2/6/2021 4:15:00 PM -0.04 31.928 0.079 7.64 2.74 14.81
2/6/2021 4:30:00 PM -0.07 31.874 0.079 7.63 2.74 14.81
2/6/2021 4:45:00 PM -0.11 31.802 0.079 7.61 2.75 14.8
2/6/2021 5:00:00 PM -0.13 31.766 0.079 7.6 2.77 14.77
2/6/2021 5:15:00 PM -0.12 31.784 0.079 7.58 2.8 14.74
2/6/2021 5:30:00 PM -0.12 31.784 0.079 7.53 2.67 14.71
2/6/2021 5:45:00 PM -0.11 31.802 0.079 7.53 2.76 14.64
2/6/2021 6:00:00 PM -0.11 31.802 0.079 7.51 2.74 14.57
2/6/2021 6:15:00 PM -0.11 31.802 0.079 7.45 2.69 14.53
2/6/2021 6:30:00 PM -0.11 31.802 0.08 7.46 2.76 14.49
2/6/2021 6:45:00 PM -0.12 31.784 0.08 7.45 2.77 14.46
2/6/2021 7:00:00 PM -0.11 31.802 0.08 7.43 2.74 14.4
2/6/2021 7:15:00 PM -0.12 31.784 0.08 7.42 2.85 14.39
2/6/2021 7:30:00 PM -0.12 31.784 0.08 7.42 2.82 14.38
2/6/2021 7:45:00 PM -0.12 31.784 0.08 7.37 2.74 14.37
2/6/2021 8:00:00 PM -0.12 31.784 0.081 7.39 2.79 14.34
2/6/2021 8:15:00 PM -0.11 31.802 0.081 7.38 2.72 14.34
2/6/2021 8:30:00 PM -0.12 31.784 0.081 7.38 2.74 14.33
2/6/2021 8:45:00 PM -0.12 31.784 0.081 7.39 2.67 14.34
2/6/2021 9:00:00 PM -0.12 31.784 0.082 7.38 2.69 14.32
2/6/2021 9:15:00 PM -0.11 31.802 0.082 7.33 2.9 14.3
2/6/2021 9:30:00 PM -0.11 31.802 0.082 7.37 2.88 14.3
2/6/2021 9:45:00 PM -0.11 31.802 0.083 7.37 2.88 14.3
2/6/2021 10:00:00 PM -0.11 31.802 0.083 7.35 2.84 14.27
2/6/2021 10:15:00 PM -0.11 31.802 0.084 7.36 2.83 14.28
2/6/2021 10:30:00 PM -0.11 31.802 0.084 7.36 2.76 14.27
2/6/2021 10:45:00 PM -0.1 31.82 0.085 7.33 2.75 14.26
2/6/2021 11:00:00 PM -0.11 31.802 0.086 7.35 2.58 14.25
2/6/2021 11:15:00 PM -0.1 31.82 0.086 7.35 2.77 14.23
2/6/2021 11:30:00 PM -0.1 31.82 0.087 7.34 2.74 14.21
2/6/2021 11:45:00 PM -0.1 31.82 0.087 7.3 2.77 14.19
2/7/2021 12:00:00 AM -0.1 31.82 0.088 7.34 2.77 14.17
2/7/2021 12:15:00 AM -0.09 31.838 0.088 7.33 2.76 14.17
2/7/2021 12:30:00 AM -0.09 31.838 0.088 7.34 2.65 14.11
2/7/2021 12:45:00 AM -0.09 31.838 0.088 7.33 2.8 14.16
2/7/2021 1:00:00 AM -0.09 31.838 0.088 7.34 2.96 14.1
2/7/2021 1:15:00 AM -0.09 31.838 0.089 7.31 2.78 14.08
2/7/2021 1:30:00 AM -0.09 31.838 0.089 7.34 2.64 14.06
2/7/2021 1:45:00 AM -0.08 31.856 0.089 7.33 2.64 14.08
2/7/2021 2:00:00 AM -0.09 31.838 0.09 7.28 2.88 14.06
2/7/2021 2:15:00 AM -0.09 31.838 0.09 7.3 4.42 14.02
2/7/2021 2:30:00 AM -0.1 31.82 0.091 7.3 2.8 14.04
2/7/2021 2:45:00 AM -0.1 31.82 0.092 7.23 2.8 13.85
2/7/2021 3:00:00 AM -0.1 31.82 0.092 7.23 2.72 13.62
2/7/2021 3:15:00 AM -0.08 31.856 0.093 7.26 2.72 13.87
2/7/2021 3:30:00 AM -0.08 31.856 0.095 7.24 2.83 13.73
2/7/2021 3:45:00 AM -0.07 31.874 0.095 7.22 2.67 13.82
2/7/2021 4:00:00 AM -0.07 31.874 0.096 7.14 2.64 13.74
2/7/2021 4:15:00 AM -0.07 31.874 0.097 7.21 2.82 13.76
2/7/2021 4:30:00 AM -0.07 31.874 0.096 7.22 2.68 13.44
2/7/2021 4:45:00 AM -0.03 31.946 0.098 7.18 2.81 13.39
2/7/2021 5:00:00 AM -0.02 31.964 0.099 7.12 2.78 13.34
2/7/2021 5:15:00 AM 0.02 32.036 0.099 7.13 2.8 13.63
2/7/2021 5:30:00 AM 0.04 32.072 0.099 7.13 2.8 13.24
2/7/2021 5:45:00 AM 0.04 32.072 0.099 7.18 2.78 13.55
2/7/2021 6:00:00 AM 0.06 32.108 0.1 7.16 2.78 13.38
2/7/2021 6:15:00 AM 0.07 32.126 0.1 7.15 2.75 13.26
2/7/2021 6:30:00 AM 0.1 32.18 0.103 7.09 2.85 13.46
2/7/2021 6:45:00 AM 0.09 32.162 0.106 7.08 2.88 13.22
2/7/2021 7:00:00 AM 0.06 32.108 0.103 7.12 2.81 13.22
2/7/2021 7:15:00 AM 0.1 32.18 0.104 7.08 2.87 13.09
2/7/2021 7:30:00 AM 0.12 32.216 0.104 7.08 2.84 13.11
2/7/2021 7:45:00 AM 0.08 32.144 0.102 7.09 2.84 12.99
2/7/2021 8:00:00 AM 0.11 32.198 0.104 7.12 2.83 12.96
2/7/2021 8:15:00 AM 0.1 32.18 0.106 7.13 3.03 13.18
2/7/2021 8:30:00 AM 0.1 32.18 0.105 7.08 2.9 13.08
2/7/2021 8:45:00 AM 0.13 32.234 0.107 7.12 2.91 13.1
2/7/2021 9:00:00 AM 0.1 32.18 0.103 7.12 2.83 13.14
2/7/2021 9:15:00 AM 0.13 32.234 0.107 7.11 2.93 13.29
2/7/2021 9:30:00 AM 0.17 32.306 0.108 7.01 3.16 13.03
2/7/2021 9:45:00 AM 0.09 32.162 0.107 7.13 2.99 13.49
2/7/2021 10:00:00 AM 0.11 32.198 0.109 7.15 3 13.44
2/7/2021 10:15:00 AM 0.07 32.126 0.105 7.14 2.94 13.46
2/7/2021 10:30:00 AM 0.03 32.054 0.103 7.24 2.86 13.97
2/7/2021 10:45:00 AM 0.01 32.018 0.104 7.25 2.81 14.1
2/7/2021 11:00:00 AM -0.03 31.946 0.101 7.31 2.73 14.07
2/7/2021 11:15:00 AM -0.04 31.928 0.103 7.37 2.84 14.56
2/7/2021 11:30:00 AM -0.04 31.928 0.1 7.38 2.96 14.62
2/7/2021 11:45:00 AM -0.05 31.91 0.1 7.39 2.89 14.57
2/7/2021 12:00:00 PM -0.05 31.91 0.099 7.38 2.97 14.46
2/7/2021 12:15:00 PM -0.06 31.892 0.099 7.42 2.93 14.81
2/7/2021 12:30:00 PM -0.05 31.91 0.097 7.44 2.94 14.58
2/7/2021 12:45:00 PM -0.07 31.874 0.096 7.51 2.81 14.76
2/7/2021 1:00:00 PM -0.06 31.892 0.096 7.55 2.89 14.89
2/7/2021 1:15:00 PM -0.06 31.892 0.094 7.56 2.94 14.93
2/7/2021 1:30:00 PM -0.06 31.892 0.094 7.6 2.89 15.02
2/7/2021 1:45:00 PM -0.07 31.874 0.093 7.66 2.82 15.11
2/7/2021 2:00:00 PM -0.07 31.874 0.093 7.67 2.87 15.09
2/7/2021 2:15:00 PM -0.07 31.874 0.092 7.65 3.38 15.14
2/7/2021 2:30:00 PM -0.07 31.874 0.092 7.65 2.88 15.06
2/7/2021 2:45:00 PM -0.08 31.856 0.091 7.71 2.98 15.04
2/7/2021 3:00:00 PM -0.09 31.838 0.092 7.7 3.08 15.03
2/7/2021 3:15:00 PM -0.1 31.82 0.093 7.73 2.9 15.02
2/7/2021 3:30:00 PM -0.1 31.82 0.095 7.72 2.97 15.02
2/7/2021 3:45:00 PM -0.1 31.82 0.095 7.69 3.04 15.01
2/7/2021 4:00:00 PM -0.1 31.82 0.094 7.73 3.15 15.02
2/7/2021 4:15:00 PM -0.1 31.82 0.093 7.7 2.89 14.99
2/7/2021 4:30:00 PM -0.1 31.82 0.092 7.74 2.96 14.99
2/7/2021 4:45:00 PM -0.11 31.802 0.091 7.71 2.92 14.98
2/7/2021 5:00:00 PM -0.11 31.802 0.09 7.7 3.14 14.95
2/7/2021 5:15:00 PM -0.11 31.802 0.09 7.65 3.01 14.91
2/7/2021 5:30:00 PM -0.11 31.802 0.089 7.65 2.95 14.87
2/7/2021 5:45:00 PM -0.11 31.802 0.088 7.62 2.93 14.82
2/7/2021 6:00:00 PM -0.11 31.802 0.088 7.57 2.9 14.73
2/7/2021 6:15:00 PM -0.11 31.802 0.088 7.56 2.87 14.67
2/7/2021 6:30:00 PM -0.11 31.802 0.087 7.52 2.93 14.6
2/7/2021 6:45:00 PM -0.11 31.802 0.087 7.51 2.92 14.56
2/7/2021 7:00:00 PM -0.11 31.802 0.087 7.5 2.96 14.53
2/7/2021 7:15:00 PM -0.1 31.82 0.087 7.44 2.9 14.48
2/7/2021 7:30:00 PM -0.11 31.802 0.087 7.46 3 14.48
2/7/2021 7:45:00 PM -0.11 31.802 0.087 7.46 2.82 14.47
2/7/2021 8:00:00 PM -0.11 31.802 0.086 7.45 2.96 14.44
2/7/2021 8:15:00 PM -0.11 31.802 0.086 7.44 2.8 14.45
2/7/2021 8:30:00 PM -0.11 31.802 0.086 7.43 2.86 14.42
2/7/2021 8:45:00 PM -0.11 31.802 0.086 7.42 2.8 14.39
2/7/2021 9:00:00 PM -0.1 31.82 0.086 7.37 2.86 14.38
2/7/2021 9:15:00 PM -0.1 31.82 0.086 7.4 2.83 14.39
2/7/2021 9:30:00 PM -0.1 31.82 0.086 7.4 2.83 14.35
2/7/2021 9:45:00 PM -0.09 31.838 0.086 7.39 3.06 14.3
2/7/2021 10:00:00 PM -0.1 31.82 0.087 7.38 2.83 14.3
2/7/2021 10:15:00 PM -0.08 31.856 0.087 7.38 2.83 14.28
2/7/2021 10:30:00 PM -0.1 31.82 0.087 7.37 2.79 14.3
2/7/2021 10:45:00 PM -0.1 31.82 0.087 7.37 2.85 14.28
2/7/2021 11:00:00 PM -0.09 31.838 0.087 7.37 2.84 14.25
2/7/2021 11:15:00 PM -0.1 31.82 0.087 7.37 2.77 14.27
2/7/2021 11:30:00 PM -0.09 31.838 0.088 7.36 2.8 14.23
2/7/2021 11:45:00 PM -0.1 31.82 0.088 7.35 2.79 14.26
2/8/2021 12:00:00 AM -0.09 31.838 0.088 7.34 2.79 14.22
2/8/2021 12:15:00 AM -0.1 31.82 0.088 7.33 2.8 14.24
2/8/2021 12:30:00 AM -0.1 31.82 0.089 7.33 2.8 14.23
2/8/2021 12:45:00 AM -0.09 31.838 0.089 7.33 2.8 14.21
2/8/2021 1:00:00 AM -0.09 31.838 0.089 7.33 2.78 14.19
2/8/2021 1:15:00 AM -0.09 31.838 0.089 7.34 2.79 14.23
2/8/2021 1:30:00 AM -0.09 31.838 0.089 7.33 2.88 14.2
2/8/2021 1:45:00 AM -0.09 31.838 0.09 7.33 2.8 14.23
2/8/2021 2:00:00 AM -0.1 31.82 0.09 7.33 2.81 14.25
2/8/2021 2:15:00 AM -0.09 31.838 0.09 7.33 2.8 14.26
2/8/2021 2:30:00 AM -0.1 31.82 0.09 7.29 2.83 14.25
2/8/2021 2:45:00 AM -0.1 31.82 0.09 7.33 2.82 14.25
2/8/2021 3:00:00 AM -0.11 31.802 0.091 7.33 2.78 14.24
2/8/2021 3:15:00 AM -0.1 31.82 0.091 7.33 2.79 14.27
2/8/2021 3:30:00 AM -0.1 31.82 0.091 7.31 2.77 14.27
2/8/2021 3:45:00 AM -0.11 31.802 0.091 7.32 2.76 14.23
2/8/2021 4:00:00 AM -0.11 31.802 0.091 7.29 2.89 14.25
2/8/2021 4:15:00 AM -0.11 31.802 0.092 7.32 2.85 14.23
2/8/2021 4:30:00 AM -0.11 31.802 0.092 7.31 2.77 14.23
2/8/2021 4:45:00 AM -0.11 31.802 0.092 7.32 2.78 14.18
2/8/2021 5:00:00 AM -0.11 31.802 0.092 7.27 2.74 14.14
2/8/2021 5:15:00 AM -0.11 31.802 0.092 7.3 2.74 14.09
2/8/2021 5:30:00 AM -0.1 31.82 0.093 7.31 2.8 14.08
2/8/2021 5:45:00 AM -0.1 31.82 0.093 7.31 2.76 14.21
2/8/2021 6:00:00 AM -0.1 31.82 0.093 7.31 2.75 14.05
2/8/2021 6:15:00 AM -0.1 31.82 0.093 7.32 2.74 14.12
2/8/2021 6:30:00 AM -0.1 31.82 0.093 7.27 2.78 14.05
2/8/2021 6:45:00 AM -0.1 31.82 0.093 7.3 2.75 14.2
2/8/2021 7:00:00 AM -0.1 31.82 0.094 7.3 2.8 14.24
2/8/2021 7:15:00 AM -0.1 31.82 0.094 7.28 2.8 14.27
2/8/2021 7:30:00 AM -0.1 31.82 0.094 7.3 2.73 14.29
2/8/2021 7:45:00 AM -0.1 31.82 0.094 7.32 2.74 14.29
2/8/2021 8:00:00 AM -0.09 31.838 0.094 7.31 2.73 14.04
2/8/2021 8:15:00 AM -0.1 31.82 0.094 7.32 2.74 14.24
2/8/2021 8:30:00 AM -0.09 31.838 0.094 7.33 2.75 14.3
2/8/2021 8:45:00 AM -0.09 31.838 0.094 7.33 2.74 14.43
2/8/2021 9:00:00 AM -0.1 31.82 0.094 7.37 2.7 14.6
2/8/2021 9:15:00 AM -0.09 31.838 0.094 7.35 2.73 14.72
2/8/2021 9:30:00 AM -0.09 31.838 0.094 7.4 2.73 14.78
2/8/2021 9:45:00 AM -0.1 31.82 0.094 7.44 2.74 14.93
2/8/2021 10:00:00 AM -0.1 31.82 0.094 7.47 2.7 15.06
2/8/2021 10:15:00 AM -0.1 31.82 0.094 7.5 2.7 15.1
2/8/2021 10:30:00 AM -0.1 31.82 0.094 7.48 2.68 15.1
2/8/2021 10:45:00 AM -0.09 31.838 0.094 7.54 2.79 15.26
2/8/2021 11:00:00 AM -0.09 31.838 0.094 7.59 2.72 15.37
2/8/2021 11:15:00 AM -0.09 31.838 0.093 7.56 2.71 15.4
2/8/2021 11:30:00 AM -0.08 31.856 0.093 7.62 2.73 15.44
2/8/2021 11:45:00 AM -0.07 31.874 0.092 7.64 2.8 15.43
2/8/2021 12:00:00 PM -0.07 31.874 0.092 7.64 2.78 15.46
2/8/2021 12:15:00 PM -0.08 31.856 0.092 7.68 2.79 15.43
2/8/2021 12:30:00 PM -0.09 31.838 0.091 7.73 2.78 15.49
2/8/2021 12:45:00 PM -0.08 31.856 0.091 7.74 2.78 15.48
2/8/2021 1:00:00 PM -0.09 31.838 0.09 7.76 2.77 15.49
2/8/2021 1:15:00 PM -0.09 31.838 0.09 7.72 2.81 15.5
2/8/2021 1:30:00 PM -0.08 31.856 0.09 7.75 2.77 15.49
2/8/2021 1:45:00 PM -0.08 31.856 0.089 7.78 2.77 15.51
2/8/2021 2:00:00 PM -0.08 31.856 0.089 7.79 2.76 15.54
2/8/2021 2:15:00 PM -0.09 31.838 0.089 7.81 2.81 15.55
2/8/2021 2:30:00 PM -0.09 31.838 0.089 7.82 2.79 15.55
2/8/2021 2:45:00 PM -0.09 31.838 0.089 7.85 2.85 15.58
2/8/2021 3:00:00 PM -0.09 31.838 0.089 7.85 2.75 15.59
2/8/2021 3:15:00 PM -0.09 31.838 0.089 7.88 2.79 15.6
2/8/2021 3:30:00 PM -0.09 31.838 0.089 7.89 2.8 15.61
2/8/2021 3:45:00 PM -0.09 31.838 0.088 7.91 2.84 15.62
2/8/2021 4:00:00 PM -0.1 31.82 0.088 7.91 2.95 15.61
2/8/2021 4:15:00 PM -0.1 31.82 0.088 7.91 2.9 15.6
2/8/2021 4:30:00 PM -0.11 31.802 0.088 7.87 2.88 15.58
2/8/2021 4:45:00 PM -0.11 31.802 0.088 7.89 2.83 15.55
2/8/2021 5:00:00 PM -0.11 31.802 0.088 7.86 2.96 15.5
2/8/2021 5:15:00 PM -0.11 31.802 0.088 7.83 2.96 15.43
2/8/2021 5:30:00 PM -0.11 31.802 0.088 7.79 2.91 15.35
2/8/2021 5:45:00 PM -0.11 31.802 0.088 7.76 3.07 15.28
2/8/2021 6:00:00 PM -0.11 31.802 0.088 7.69 2.93 15.19
2/8/2021 6:15:00 PM -0.11 31.802 0.088 7.68 2.75 15.1
2/8/2021 6:30:00 PM -0.11 31.802 0.089 7.64 2.83 15.03
2/8/2021 6:45:00 PM -0.11 31.802 0.089 7.61 2.78 14.96
2/8/2021 7:00:00 PM -0.11 31.802 0.089 7.59 2.8 14.89
2/8/2021 7:15:00 PM -0.11 31.802 0.089 7.57 2.72 14.84
2/8/2021 7:30:00 PM -0.11 31.802 0.088 7.53 2.82 14.78
2/8/2021 7:45:00 PM -0.11 31.802 0.088 7.52 2.73 14.74
2/8/2021 8:00:00 PM -0.11 31.802 0.088 7.5 2.76 14.68
2/8/2021 8:15:00 PM -0.11 31.802 0.088 7.49 2.73 14.63
2/8/2021 8:30:00 PM -0.11 31.802 0.088 7.48 2.72 14.58
2/8/2021 8:45:00 PM -0.11 31.802 0.088 7.47 2.72 14.55
2/8/2021 9:00:00 PM -0.11 31.802 0.088 7.44 2.76 14.51
2/8/2021 9:15:00 PM -0.11 31.802 0.088 7.44 2.66 14.48
2/8/2021 9:30:00 PM -0.11 31.802 0.088 7.43 2.73 14.44
2/8/2021 9:45:00 PM -0.11 31.802 0.088 7.42 2.8 14.4
2/8/2021 10:00:00 PM -0.11 31.802 0.088 7.41 2.68 14.38
2/8/2021 10:15:00 PM -0.11 31.802 0.089 7.39 2.71 14.35
2/8/2021 10:30:00 PM -0.11 31.802 0.089 7.39 2.67 14.32
2/8/2021 10:45:00 PM -0.11 31.802 0.089 7.38 2.67 14.31
2/8/2021 11:00:00 PM -0.11 31.802 0.089 7.38 2.73 14.28
2/8/2021 11:15:00 PM -0.11 31.802 0.089 7.37 2.71 14.29
2/8/2021 11:30:00 PM -0.11 31.802 0.089 7.37 2.87 14.26
2/8/2021 11:45:00 PM -0.11 31.802 0.089 7.38 2.7 14.26
2/9/2021 12:00:00 AM -0.11 31.802 0.089 7.37 2.69 14.23
2/9/2021 12:15:00 AM -0.11 31.802 0.089 7.34 2.69 14.25
2/9/2021 12:30:00 AM -0.11 31.802 0.089 7.36 2.67 14.24
2/9/2021 12:45:00 AM -0.11 31.802 0.089 7.36 2.69 14.23
2/9/2021 1:00:00 AM -0.11 31.802 0.089 7.34 2.67 14.22
2/9/2021 1:15:00 AM -0.11 31.802 0.089 7.33 2.76 14.21
2/9/2021 1:30:00 AM -0.11 31.802 0.089 7.35 3.11 14.21
2/9/2021 1:45:00 AM -0.11 31.802 0.089 7.35 2.66 14.21
2/9/2021 2:00:00 AM -0.11 31.802 0.089 7.34 2.68 14.19
2/9/2021 2:15:00 AM -0.11 31.802 0.089 7.34 2.64 14.19
2/9/2021 2:30:00 AM -0.11 31.802 0.089 7.34 2.65 14.18
2/9/2021 2:45:00 AM -0.11 31.802 0.089 7.33 2.66 14.16
2/9/2021 3:00:00 AM -0.11 31.802 0.089 7.33 2.68 14.17
2/9/2021 3:15:00 AM -0.11 31.802 0.089 7.33 2.66 14.17
2/9/2021 3:30:00 AM -0.11 31.802 0.089 7.31 2.69 14.16
2/9/2021 3:45:00 AM -0.11 31.802 0.089 7.32 2.68 14.15
2/9/2021 4:00:00 AM -0.11 31.802 0.089 7.29 2.69 14.14
2/9/2021 4:15:00 AM -0.11 31.802 0.089 7.32 2.67 14.14
2/9/2021 4:30:00 AM -0.11 31.802 0.088 7.31 2.68 14.14
2/9/2021 4:45:00 AM -0.11 31.802 0.088 7.32 2.64 14.14
2/9/2021 5:00:00 AM -0.11 31.802 0.088 7.32 2.67 14.13
2/9/2021 5:15:00 AM -0.11 31.802 0.088 7.28 2.86 14.14
2/9/2021 5:30:00 AM -0.11 31.802 0.088 7.32 2.7 14.13
2/9/2021 5:45:00 AM -0.11 31.802 0.088 7.31 2.68 14.12
2/9/2021 6:00:00 AM -0.11 31.802 0.088 7.31 2.72 14.13
2/9/2021 6:15:00 AM -0.11 31.802 0.088 7.3 2.69 14.12
2/9/2021 6:30:00 AM -0.11 31.802 0.088 7.3 2.67 14.11
2/9/2021 6:45:00 AM -0.11 31.802 0.088 7.31 2.65 14.12
2/9/2021 7:00:00 AM -0.11 31.802 0.088 7.3 2.69 14.11
2/9/2021 7:15:00 AM -0.11 31.802 0.088 7.28 2.77 14.12
2/9/2021 7:30:00 AM -0.11 31.802 0.088 7.31 2.7 14.12
2/9/2021 7:45:00 AM -0.11 31.802 0.088 7.31 2.7 14.13
2/9/2021 8:00:00 AM -0.11 31.802 0.088 7.31 2.65 14.16
2/9/2021 8:15:00 AM -0.11 31.802 0.088 7.31 2.65 14.2
2/9/2021 8:30:00 AM -0.11 31.802 0.088 7.33 2.64 14.28
2/9/2021 8:45:00 AM -0.11 31.802 0.088 7.35 2.73 14.38
2/9/2021 9:00:00 AM -0.11 31.802 0.088 7.35 2.66 14.47
2/9/2021 9:15:00 AM -0.11 31.802 0.088 7.39 2.65 14.54
2/9/2021 9:30:00 AM -0.1 31.82 0.087 7.39 2.65 14.62
2/9/2021 9:45:00 AM -0.1 31.82 0.087 7.42 2.65 14.7
2/9/2021 10:00:00 AM -0.1 31.82 0.087 7.45 2.84 14.78
2/9/2021 10:15:00 AM -0.1 31.82 0.087 7.46 2.66 14.86
2/9/2021 10:30:00 AM -0.1 31.82 0.086 7.49 2.64 14.92
2/9/2021 10:45:00 AM -0.1 31.82 0.086 7.53 2.68 15
2/9/2021 11:00:00 AM -0.09 31.838 0.086 7.55 2.64 15.05
2/9/2021 11:15:00 AM -0.09 31.838 0.086 7.57 2.7 15.11
2/9/2021 11:30:00 AM -0.09 31.838 0.085 7.57 2.7 15.16
2/9/2021 11:45:00 AM -0.08 31.856 0.085 7.62 2.71 15.22
2/9/2021 12:00:00 PM -0.08 31.856 0.085 7.64 2.71 15.25
2/9/2021 12:15:00 PM -0.08 31.856 0.084 7.66 2.73 15.28
2/9/2021 12:30:00 PM -0.08 31.856 0.084 7.68 2.7 15.31
2/9/2021 12:45:00 PM -0.09 31.838 0.084 7.69 2.7 15.33
2/9/2021 1:00:00 PM -0.08 31.856 0.083 7.71 2.67 15.34
2/9/2021 1:15:00 PM -0.08 31.856 0.083 7.74 2.67 15.36
2/9/2021 1:30:00 PM -0.09 31.838 0.083 7.75 2.72 15.36
2/9/2021 1:45:00 PM -0.09 31.838 0.083 7.76 2.7 15.35
2/9/2021 2:00:00 PM -0.09 31.838 0.083 7.73 2.7 15.36
2/9/2021 2:15:00 PM -0.09 31.838 0.082 7.78 2.71 15.36
2/9/2021 2:30:00 PM -0.09 31.838 0.082 7.77 2.73 15.36
2/9/2021 2:45:00 PM -0.08 31.856 0.082 7.8 2.72 15.37
2/9/2021 3:00:00 PM -0.09 31.838 0.082 7.81 2.75 15.37
2/9/2021 3:15:00 PM -0.09 31.838 0.082 7.82 2.71 15.36
2/9/2021 3:30:00 PM -0.09 31.838 0.082 7.8 2.76 15.36
2/9/2021 3:45:00 PM -0.09 31.838 0.082 7.82 2.73 15.34
2/9/2021 4:00:00 PM -0.1 31.82 0.082 7.81 2.75 15.34
2/9/2021 4:15:00 PM -0.1 31.82 0.082 7.81 2.75 15.3
2/9/2021 4:30:00 PM -0.1 31.82 0.082 7.78 2.67 15.28
2/9/2021 4:45:00 PM -0.1 31.82 0.082 7.77 2.72 15.24
2/9/2021 5:00:00 PM -0.1 31.82 0.082 7.75 2.7 15.19
2/9/2021 5:15:00 PM -0.11 31.802 0.082 7.72 2.67 15.12
2/9/2021 5:30:00 PM -0.11 31.802 0.082 7.69 2.69 15.05
2/9/2021 5:45:00 PM -0.11 31.802 0.082 7.62 2.72 14.95
2/9/2021 6:00:00 PM -0.11 31.802 0.082 7.61 2.76 14.85
2/9/2021 6:15:00 PM -0.11 31.802 0.082 7.58 2.69 14.77
2/9/2021 6:30:00 PM -0.11 31.802 0.083 7.55 2.77 14.69
2/9/2021 6:45:00 PM -0.11 31.802 0.083 7.52 2.69 14.62
2/9/2021 7:00:00 PM -0.11 31.802 0.083 7.49 2.72 14.58
2/9/2021 7:15:00 PM -0.11 31.802 0.083 7.48 2.72 14.53
2/9/2021 7:30:00 PM -0.11 31.802 0.083 7.46 2.73 14.5
2/9/2021 7:45:00 PM -0.11 31.802 0.083 7.44 2.7 14.47
2/9/2021 8:00:00 PM -0.11 31.802 0.083 7.44 2.71 14.44
2/9/2021 8:15:00 PM -0.11 31.802 0.083 7.43 2.84 14.41
2/9/2021 8:30:00 PM -0.11 31.802 0.083 7.42 2.76 14.38
2/9/2021 8:45:00 PM -0.11 31.802 0.084 7.41 2.76 14.35
2/9/2021 9:00:00 PM -0.11 31.802 0.084 7.4 2.76 14.32
2/9/2021 9:15:00 PM -0.11 31.802 0.084 7.4 2.82 14.31
2/9/2021 9:30:00 PM -0.11 31.802 0.084 7.39 3.13 14.29
2/9/2021 9:45:00 PM -0.11 31.802 0.084 7.38 2.81 14.28
2/9/2021 10:00:00 PM -0.11 31.802 0.084 7.37 2.89 14.25
2/9/2021 10:15:00 PM -0.11 31.802 0.084 7.37 2.97 14.25
2/9/2021 10:30:00 PM -0.11 31.802 0.085 7.37 2.77 14.25
2/9/2021 10:45:00 PM -0.11 31.802 0.085 7.35 3.56 14.24
2/9/2021 11:00:00 PM -0.11 31.802 0.085 7.36 2.94 14.25
2/9/2021 11:15:00 PM -0.11 31.802 0.085 7.36 2.83 14.24
2/9/2021 11:30:00 PM -0.11 31.802 0.085 7.36 3.03 14.24
2/9/2021 11:45:00 PM -0.11 31.802 0.085 7.32 2.79 14.23
2/10/2021 12:00:00 AM -0.11 31.802 0.085 7.35 2.75 14.23
2/10/2021 12:15:00 AM -0.11 31.802 0.085 7.35 2.82 14.21
2/10/2021 12:30:00 AM -0.11 31.802 0.085 7.34 3.45 14.22
2/10/2021 12:45:00 AM -0.11 31.802 0.085 7.34 3.04 14.22
2/10/2021 1:00:00 AM -0.11 31.802 0.085 7.34 2.87 14.22
2/10/2021 1:15:00 AM -0.11 31.802 0.085 7.34 2.74 14.22
2/10/2021 1:30:00 AM -0.11 31.802 0.085 7.34 2.77 14.22
2/10/2021 1:45:00 AM -0.11 31.802 0.085 7.31 2.96 14.22
2/10/2021 2:00:00 AM -0.11 31.802 0.085 7.34 2.96 14.21
2/10/2021 2:15:00 AM -0.11 31.802 0.086 7.34 2.76 14.22
2/10/2021 2:30:00 AM -0.11 31.802 0.086 7.33 2.75 14.21
2/10/2021 2:45:00 AM -0.11 31.802 0.086 7.33 3.03 14.21
2/10/2021 3:00:00 AM -0.11 31.802 0.086 7.28 2.72 14.21
2/10/2021 3:15:00 AM -0.11 31.802 0.086 7.33 2.82 14.21
2/10/2021 3:30:00 AM -0.11 31.802 0.086 7.33 2.78 14.21
2/10/2021 3:45:00 AM -0.11 31.802 0.086 7.32 2.74 14.21
2/10/2021 4:00:00 AM -0.11 31.802 0.086 7.33 2.73 14.21
2/10/2021 4:15:00 AM -0.11 31.802 0.086 7.33 2.73 14.22
2/10/2021 4:30:00 AM -0.12 31.784 0.086 7.31 2.72 14.23
2/10/2021 4:45:00 AM -0.12 31.784 0.086 7.32 2.68 14.23
2/10/2021 5:00:00 AM -0.12 31.784 0.086 7.33 2.74 14.24
2/10/2021 5:15:00 AM -0.11 31.802 0.086 7.32 2.75 14.23
2/10/2021 5:30:00 AM -0.12 31.784 0.086 7.3 2.73 14.24
2/10/2021 5:45:00 AM -0.12 31.784 0.086 7.32 2.71 14.25
2/10/2021 6:00:00 AM -0.12 31.784 0.086 7.32 2.7 14.26
2/10/2021 6:15:00 AM -0.12 31.784 0.086 7.31 2.78 14.24
2/10/2021 6:30:00 AM -0.11 31.802 0.086 7.3 2.75 14.25
2/10/2021 6:45:00 AM -0.11 31.802 0.086 7.31 2.78 14.27
2/10/2021 7:00:00 AM -0.11 31.802 0.086 7.3 2.74 14.26
2/10/2021 7:15:00 AM -0.12 31.784 0.086 7.32 2.78 14.27
2/10/2021 7:30:00 AM -0.12 31.784 0.087 7.32 2.78 14.29
2/10/2021 7:45:00 AM -0.11 31.802 0.087 7.32 2.72 14.33
2/10/2021 8:00:00 AM -0.11 31.802 0.087 7.34 2.74 14.4
2/10/2021 8:15:00 AM -0.11 31.802 0.087 7.36 2.88 14.49
2/10/2021 8:30:00 AM -0.11 31.802 0.086 7.38 2.77 14.59
2/10/2021 8:45:00 AM -0.11 31.802 0.086 7.39 2.79 14.68
2/10/2021 9:00:00 AM -0.11 31.802 0.086 7.41 2.79 14.76
2/10/2021 9:15:00 AM -0.11 31.802 0.086 7.44 2.76 14.85
2/10/2021 9:30:00 AM -0.1 31.82 0.086 7.46 2.76 14.95
2/10/2021 9:45:00 AM -0.09 31.838 0.086 7.49 2.77 15.03
2/10/2021 10:00:00 AM -0.08 31.856 0.086 7.52 2.77 15.13
2/10/2021 10:15:00 AM -0.08 31.856 0.085 7.52 2.78 15.21
2/10/2021 10:30:00 AM -0.08 31.856 0.085 7.58 2.73 15.27
2/10/2021 10:45:00 AM -0.08 31.856 0.085 7.6 2.73 15.3
2/10/2021 11:00:00 AM -0.08 31.856 0.085 7.63 2.77 15.36
2/10/2021 11:15:00 AM -0.07 31.874 0.084 7.65 2.77 15.4
2/10/2021 11:30:00 AM -0.06 31.892 0.084 7.69 2.86 15.44
2/10/2021 11:45:00 AM -0.06 31.892 0.084 7.71 2.8 15.45
2/10/2021 12:00:00 PM -0.06 31.892 0.084 7.7 2.92 15.48
2/10/2021 12:15:00 PM -0.07 31.874 0.084 7.76 2.77 15.48
2/10/2021 12:30:00 PM -0.07 31.874 0.084 7.77 2.9 15.49
2/10/2021 12:45:00 PM -0.06 31.892 0.084 7.76 2.81 15.48
2/10/2021 1:00:00 PM -0.06 31.892 0.083 7.8 2.82 15.49
2/10/2021 1:15:00 PM -0.06 31.892 0.083 7.81 3.12 15.49
2/10/2021 1:30:00 PM -0.06 31.892 0.083 7.79 4.53 15.46
2/10/2021 1:45:00 PM -0.07 31.874 0.082 7.82 3.13 15.44
2/10/2021 2:00:00 PM -0.07 31.874 0.082 7.82 3.15 15.45
2/10/2021 2:15:00 PM -0.07 31.874 0.082 7.84 3.24 15.44
2/10/2021 2:30:00 PM -0.07 31.874 0.082 7.84 3.13 15.38
2/10/2021 2:45:00 PM -0.07 31.874 0.082 7.84 3.02 15.41
2/10/2021 3:00:00 PM -0.08 31.856 0.082 7.85 3.12 15.4
2/10/2021 3:15:00 PM -0.08 31.856 0.081 7.85 3.01 15.4
2/10/2021 3:30:00 PM -0.08 31.856 0.081 7.86 2.96 15.38
2/10/2021 3:45:00 PM -0.08 31.856 0.081 7.81 3.06 15.36
2/10/2021 4:00:00 PM -0.09 31.838 0.081 7.84 3.12 15.35
2/10/2021 4:15:00 PM -0.09 31.838 0.081 7.83 3.08 15.3
2/10/2021 4:30:00 PM -0.09 31.838 0.081 7.8 3.11 15.27
2/10/2021 4:45:00 PM -0.09 31.838 0.081 7.79 3.33 15.24
2/10/2021 5:00:00 PM -0.1 31.82 0.081 7.76 3.02 15.18
2/10/2021 5:15:00 PM -0.1 31.82 0.082 7.72 3.56 15.11
2/10/2021 5:30:00 PM -0.1 31.82 0.082 7.66 3.01 15.02
2/10/2021 5:45:00 PM -0.1 31.82 0.082 7.64 3.1 14.92
2/10/2021 6:00:00 PM -0.1 31.82 0.082 7.61 2.99 14.82
2/10/2021 6:15:00 PM -0.11 31.802 0.082 7.56 3.02 14.74
2/10/2021 6:30:00 PM -0.11 31.802 0.082 7.54 3.03 14.68
2/10/2021 6:45:00 PM -0.1 31.82 0.082 7.51 3.11 14.61
2/10/2021 7:00:00 PM -0.1 31.82 0.082 7.5 3.04 14.55
2/10/2021 7:15:00 PM -0.11 31.802 0.083 7.49 3.03 14.53
2/10/2021 7:30:00 PM -0.11 31.802 0.083 7.47 3.02 14.49
2/10/2021 7:45:00 PM -0.1 31.82 0.083 7.46 3.07 14.45
2/10/2021 8:00:00 PM -0.11 31.802 0.083 7.45 3.07 14.42
2/10/2021 8:15:00 PM -0.11 31.802 0.083 7.44 3.18 14.4
2/10/2021 8:30:00 PM -0.11 31.802 0.083 7.43 3.08 14.38
2/10/2021 8:45:00 PM -0.11 31.802 0.084 7.42 3.11 14.34
2/10/2021 9:00:00 PM -0.11 31.802 0.084 7.41 3.13 14.33
2/10/2021 9:15:00 PM -0.11 31.802 0.084 7.4 3.02 14.31
2/10/2021 9:30:00 PM -0.11 31.802 0.084 7.39 3.14 14.29
2/10/2021 9:45:00 PM -0.1 31.82 0.084 7.38 3.04 14.28
2/10/2021 10:00:00 PM -0.1 31.82 0.085 7.39 3.21 14.25
2/10/2021 10:15:00 PM -0.1 31.82 0.085 7.37 2.97 14.26
2/10/2021 10:30:00 PM -0.1 31.82 0.085 7.38 2.96 14.25
2/10/2021 10:45:00 PM -0.1 31.82 0.085 7.38 3.08 14.24
2/10/2021 11:00:00 PM -0.11 31.802 0.085 7.38 3 14.24
2/10/2021 11:15:00 PM -0.1 31.82 0.085 7.36 3 14.22
2/10/2021 11:30:00 PM -0.11 31.802 0.085 7.36 2.97 14.21
2/10/2021 11:45:00 PM -0.11 31.802 0.086 7.36 3.04 14.2
2/11/2021 12:00:00 AM -0.11 31.802 0.086 7.31 15.65 14.18
2/11/2021 12:15:00 AM -0.11 31.802 0.086 7.35 2.33 14.2
2/11/2021 12:30:00 AM -0.11 31.802 0.086 7.36 2.29 14.18
2/11/2021 12:45:00 AM -0.1 31.82 0.086 7.33 2.35 14.17
2/11/2021 1:00:00 AM -0.1 31.82 0.086 7.35 2.31 14.17
2/11/2021 1:15:00 AM -0.11 31.802 0.086 7.35 2.29 14.17
2/11/2021 1:30:00 AM -0.1 31.82 0.086 7.35 2.29 14.16
2/11/2021 1:45:00 AM -0.1 31.82 0.086 7.35 2.33 14.16
2/11/2021 2:00:00 AM -0.1 31.82 0.086 7.35 2.28 14.15
2/11/2021 2:15:00 AM -0.1 31.82 0.086 7.32 2.98 14.15
2/11/2021 2:30:00 AM -0.1 31.82 0.086 7.34 2.32 14.15
2/11/2021 2:45:00 AM -0.11 31.802 0.086 7.3 2.45 14.14
2/11/2021 3:00:00 AM -99999.99 -179968 -99999.99 -99999.99 -99999.99 -99999.99
2/11/2021 3:15:00 AM -99999.99 -179968 -99999.99 -99999.99 -99999.99 -99999.99
2/11/2021 3:30:00 AM -99999.99 -179968 -99999.99 -99999.99 -99999.99 -99999.99
2/11/2021 3:45:00 AM -99999.99 -179968 -99999.99 -99999.99 -99999.99 -99999.99
2/11/2021 4:00:00 AM -99999.99 -179968 -99999.99 -99999.99 -99999.99 -99999.99
2/11/2021 4:15:00 AM -99999.99 -179968 -99999.99 -99999.99 -99999.99 -99999.99
2/11/2021 4:30:00 AM -0.11 31.802 0.086 7.5 2.32 14.14
2/11/2021 4:45:00 AM -0.11 31.802 0.086 7.33 2.31 14.13
2/11/2021 5:00:00 AM -0.11 31.802 0.086 7.25 2.26 14.14
2/11/2021 5:15:00 AM -0.1 31.82 0.086 7.33 2.29 14.13
2/11/2021 5:30:00 AM -0.11 31.802 0.086 7.32 2.25 14.14
2/11/2021 5:45:00 AM -0.1 31.82 0.086 7.32 2.26 14.13
2/11/2021 6:00:00 AM -0.11 31.802 0.086 7.33 2.29 14.14
2/11/2021 6:15:00 AM -0.1 31.82 0.086 7.31 2.23 14.13
2/11/2021 6:30:00 AM -0.11 31.802 0.086 7.29 2.26 14.14
2/11/2021 6:45:00 AM -0.1 31.82 0.086 7.32 2.45 14.13
2/11/2021 7:00:00 AM -0.1 31.82 0.086 7.31 2.23 14.15
2/11/2021 7:15:00 AM -0.1 31.82 0.086 7.32 2.24 14.14
2/11/2021 7:30:00 AM -0.1 31.82 0.086 7.32 2.27 14.14
2/11/2021 7:45:00 AM -0.11 31.802 0.085 7.32 2.23 14.16
2/11/2021 8:00:00 AM -0.11 31.802 0.085 7.33 2.32 14.2
2/11/2021 8:15:00 AM -0.1 31.82 0.085 7.34 2.28 14.25
2/11/2021 8:30:00 AM -0.1 31.82 0.085 7.35 2.26 14.31
2/11/2021 8:45:00 AM -0.1 31.82 0.085 7.36 2.23 14.38
2/11/2021 9:00:00 AM -0.1 31.82 0.085 7.38 2.24 14.46
2/11/2021 9:15:00 AM -0.1 31.82 0.085 7.39 2.27 14.52
2/11/2021 9:30:00 AM -0.1 31.82 0.085 7.41 2.27 14.59
2/11/2021 9:45:00 AM -0.1 31.82 0.085 7.38 2.26 14.64
2/11/2021 10:00:00 AM -0.1 31.82 0.085 7.44 2.4 14.7
2/11/2021 10:15:00 AM -0.1 31.82 0.085 7.44 2.25 14.75
2/11/2021 10:30:00 AM -0.09 31.838 0.085 7.48 2.25 14.8
2/11/2021 10:45:00 AM -0.09 31.838 0.085 7.46 2.22 14.89
2/11/2021 11:00:00 AM -0.08 31.856 0.085 7.52 2.29 14.97
2/11/2021 11:15:00 AM -0.07 31.874 0.084 7.55 2.32 15.03
2/11/2021 11:30:00 AM -0.06 31.892 0.084 7.57 2.27 15.07
2/11/2021 11:45:00 AM -0.06 31.892 0.084 7.59 2.34 15.1
2/11/2021 12:00:00 PM -0.05 31.91 0.083 7.6 2.31 15.12
2/11/2021 12:15:00 PM -0.05 31.91 0.083 7.62 2.29 15.15
2/11/2021 12:30:00 PM -0.05 31.91 0.083 7.64 2.52 15.14
2/11/2021 12:45:00 PM -0.05 31.91 0.083 7.65 2.33 15.15
2/11/2021 1:00:00 PM -0.04 31.928 0.082 7.63 2.73 15.17
2/11/2021 1:15:00 PM -0.04 31.928 0.082 7.69 2.32 15.18
2/11/2021 1:30:00 PM -0.05 31.91 0.082 7.7 2.28 15.17
2/11/2021 1:45:00 PM -0.04 31.928 0.082 7.67 2.35 15.16
2/11/2021 2:00:00 PM -0.04 31.928 0.082 7.72 2.29 15.16
2/11/2021 2:15:00 PM -0.05 31.91 0.081 7.72 2.27 15.15
2/11/2021 2:30:00 PM -0.05 31.91 0.081 7.73 2.28 15.12
2/11/2021 2:45:00 PM -0.06 31.892 0.081 7.73 2.25 15.12
2/11/2021 3:00:00 PM -0.06 31.892 0.081 7.71 2.27 15.11
2/11/2021 3:15:00 PM -0.07 31.874 0.081 7.72 2.43 15.09
2/11/2021 3:30:00 PM -0.07 31.874 0.081 7.71 2.32 15.07
2/11/2021 3:45:00 PM -0.07 31.874 0.081 7.69 2.28 15.05
2/11/2021 4:00:00 PM -0.08 31.856 0.081 7.69 2.28 15.04
2/11/2021 4:15:00 PM -0.08 31.856 0.081 7.68 2.27 15.01
2/11/2021 4:30:00 PM -0.08 31.856 0.081 7.66 2.4 14.97
2/11/2021 4:45:00 PM -0.09 31.838 0.081 7.66 2.25 14.96
2/11/2021 5:00:00 PM -0.1 31.82 0.081 7.65 2.36 14.93
2/11/2021 5:15:00 PM -0.1 31.82 0.081 7.61 2.25 14.9
2/11/2021 5:30:00 PM -0.1 31.82 0.081 7.6 2.3 14.85
2/11/2021 5:45:00 PM -0.11 31.802 0.082 7.58 2.29 14.78
2/11/2021 6:00:00 PM -0.11 31.802 0.082 7.55 2.34 14.7
2/11/2021 6:15:00 PM -0.11 31.802 0.082 7.53 2.25 14.64
2/11/2021 6:30:00 PM -0.11 31.802 0.082 7.51 2.26 14.58
2/11/2021 6:45:00 PM -0.11 31.802 0.082 7.49 2.4 14.54
2/11/2021 7:00:00 PM -0.11 31.802 0.082 7.47 2.25 14.48
2/11/2021 7:15:00 PM -0.11 31.802 0.082 7.45 2.27 14.46
2/11/2021 7:30:00 PM -0.11 31.802 0.082 7.43 2.26 14.43
2/11/2021 7:45:00 PM -0.11 31.802 0.082 7.43 2.22 14.42
2/11/2021 8:00:00 PM -0.11 31.802 0.083 7.42 2.26 14.38
2/11/2021 8:15:00 PM -0.11 31.802 0.083 7.41 2.24 14.36
2/11/2021 8:30:00 PM -0.11 31.802 0.083 7.41 2.27 14.35
2/11/2021 8:45:00 PM -0.11 31.802 0.083 7.4 2.29 14.33
2/11/2021 9:00:00 PM -0.1 31.82 0.083 7.4 2.29 14.31
2/11/2021 9:15:00 PM -0.11 31.802 0.084 7.4 2.31 14.32
2/11/2021 9:30:00 PM -0.1 31.82 0.084 7.39 2.19 14.29
2/11/2021 9:45:00 PM -0.11 31.802 0.084 7.39 2.28 14.29
2/11/2021 10:00:00 PM -0.11 31.802 0.084 7.38 2.24 14.29
2/11/2021 10:15:00 PM -0.11 31.802 0.084 7.31 2.22 14.28
2/11/2021 10:30:00 PM -0.11 31.802 0.084 7.37 2.2 14.27
2/11/2021 10:45:00 PM -0.11 31.802 0.084 7.37 2.31 14.26
2/11/2021 11:00:00 PM -0.11 31.802 0.084 7.37 2.2 14.26
2/11/2021 11:15:00 PM -0.11 31.802 0.084 7.37 2.16 14.26
2/11/2021 11:30:00 PM -0.11 31.802 0.085 7.36 2.2 14.26
2/11/2021 11:45:00 PM -0.11 31.802 0.085 7.34 2.21 14.26
2/12/2021 12:00:00 AM -0.11 31.802 0.085 7.36 2.17 14.25
2/12/2021 12:15:00 AM -0.11 31.802 0.085 7.36 2.19 14.25
2/12/2021 12:30:00 AM -0.11 31.802 0.086 7.31 2.37 14.24
2/12/2021 12:45:00 AM -0.11 31.802 0.086 7.35 2.21 14.26
2/12/2021 1:00:00 AM -0.11 31.802 0.086 7.33 2.2 14.25
2/12/2021 1:15:00 AM -0.11 31.802 0.086 7.36 2.19 14.26
2/12/2021 1:30:00 AM -0.11 31.802 0.087 7.35 2.21 14.27
2/12/2021 1:45:00 AM -0.11 31.802 0.087 7.35 2.17 14.28
2/12/2021 2:00:00 AM -0.11 31.802 0.087 7.35 2.17 14.27
2/12/2021 2:15:00 AM -0.11 31.802 0.087 7.34 2.23 14.26
2/12/2021 2:30:00 AM -0.11 31.802 0.088 7.32 2.17 14.28
2/12/2021 2:45:00 AM -0.11 31.802 0.088 7.34 2.19 14.28
2/12/2021 3:00:00 AM -0.11 31.802 0.088 7.34 2.16 14.27
2/12/2021 3:15:00 AM -0.11 31.802 0.088 7.34 2.23 14.25
2/12/2021 3:30:00 AM -0.11 31.802 0.089 7.34 2.21 14.27
2/12/2021 3:45:00 AM -0.11 31.802 0.089 7.33 2.21 14.26
2/12/2021 4:00:00 AM -0.11 31.802 0.089 7.34 2.17 14.26
2/12/2021 4:15:00 AM -0.11 31.802 0.089 7.33 2.16 14.26
2/12/2021 4:30:00 AM -0.11 31.802 0.089 7.29 2.19 14.26
2/12/2021 4:45:00 AM -0.11 31.802 0.089 7.33 2.19 14.27
2/12/2021 5:00:00 AM -0.11 31.802 0.089 7.33 2.19 14.27
2/12/2021 5:15:00 AM -0.11 31.802 0.089 7.3 2.18 14.25
2/12/2021 5:30:00 AM -0.11 31.802 0.09 7.33 2.18 14.26
2/12/2021 5:45:00 AM -0.1 31.82 0.09 7.33 2.16 14.24
2/12/2021 6:00:00 AM -0.11 31.802 0.09 7.33 2.16 14.24
2/12/2021 6:15:00 AM -0.1 31.82 0.09 7.33 2.16 14.23
2/12/2021 6:30:00 AM -0.11 31.802 0.09 7.33 2.18 14.23
2/12/2021 6:45:00 AM -0.11 31.802 0.09 7.32 2.15 14.24
2/12/2021 7:00:00 AM -0.11 31.802 0.09 7.33 2.15 14.24
2/12/2021 7:15:00 AM -0.11 31.802 0.09 7.32 2.15 14.25
2/12/2021 7:30:00 AM -0.11 31.802 0.09 7.33 2.19 14.24
2/12/2021 7:45:00 AM -0.11 31.802 0.09 7.33 2.23 14.26
2/12/2021 8:00:00 AM -0.1 31.82 0.09 7.33 2.19 14.29
2/12/2021 8:15:00 AM -0.1 31.82 0.09 7.35 2.18 14.36
2/12/2021 8:30:00 AM -0.1 31.82 0.09 7.36 2.16 14.42
2/12/2021 8:45:00 AM -0.1 31.82 0.09 7.37 2.17 14.48
2/12/2021 9:00:00 AM -0.1 31.82 0.09 7.39 2.18 14.56
2/12/2021 9:15:00 AM -0.1 31.82 0.09 7.38 2.16 14.65
2/12/2021 9:30:00 AM -0.09 31.838 0.09 7.43 2.18 14.72
2/12/2021 9:45:00 AM -0.09 31.838 0.09 7.46 2.24 14.81
2/12/2021 10:00:00 AM -0.09 31.838 0.09 7.46 2.19 14.88
2/12/2021 10:15:00 AM -0.08 31.856 0.09 7.5 2.19 14.95
2/12/2021 10:30:00 AM -0.09 31.838 0.09 7.52 2.2 15.01
2/12/2021 10:45:00 AM -0.09 31.838 0.09 7.54 2.24 15.05
2/12/2021 11:00:00 AM -0.08 31.856 0.09 7.55 2.22 15.07
2/12/2021 11:15:00 AM -0.09 31.838 0.089 7.57 2.25 15.13
2/12/2021 11:30:00 AM -0.08 31.856 0.089 7.59 2.25 15.14
2/12/2021 11:45:00 AM -0.08 31.856 0.089 7.61 2.21 15.21
2/12/2021 12:00:00 PM -0.08 31.856 0.089 7.62 2.2 15.24
2/12/2021 12:15:00 PM -0.08 31.856 0.089 7.65 2.22 15.27
2/12/2021 12:30:00 PM -0.08 31.856 0.089 7.66 2.21 15.27
2/12/2021 12:45:00 PM -0.08 31.856 0.088 7.67 2.24 15.28
2/12/2021 1:00:00 PM -0.09 31.838 0.088 7.68 2.22 15.28
2/12/2021 1:15:00 PM -0.09 31.838 0.088 7.68 2.24 15.26
2/12/2021 1:30:00 PM -0.09 31.838 0.088 7.68 2.24 15.25
2/12/2021 1:45:00 PM -0.09 31.838 0.088 7.68 2.26 15.24
2/12/2021 2:00:00 PM -0.09 31.838 0.087 7.7 2.21 15.24
2/12/2021 2:15:00 PM -0.09 31.838 0.087 7.7 2.25 15.24
2/12/2021 2:30:00 PM -0.09 31.838 0.087 7.7 2.24 15.23
2/12/2021 2:45:00 PM -0.09 31.838 0.087 7.71 2.26 15.22
2/12/2021 3:00:00 PM -0.09 31.838 0.087 7.66 2.22 15.22
2/12/2021 3:15:00 PM -0.09 31.838 0.087 7.7 2.25 15.2
2/12/2021 3:30:00 PM -0.09 31.838 0.087 7.71 2.25 15.2
2/12/2021 3:45:00 PM -0.09 31.838 0.086 7.71 2.27 15.19
2/12/2021 4:00:00 PM -0.09 31.838 0.086 7.71 2.26 15.18
2/12/2021 4:15:00 PM -0.09 31.838 0.086 7.71 2.24 15.17
2/12/2021 4:30:00 PM -0.1 31.82 0.086 7.7 2.23 15.14
2/12/2021 4:45:00 PM -0.1 31.82 0.086 7.66 2.25 15.09
2/12/2021 5:00:00 PM -0.1 31.82 0.087 7.63 2.23 15.01
2/12/2021 5:15:00 PM -0.1 31.82 0.087 7.63 2.23 14.92
2/12/2021 5:30:00 PM -0.1 31.82 0.087 7.6 2.25 14.89
2/12/2021 5:45:00 PM -0.1 31.82 0.086 7.56 2.34 14.82
2/12/2021 6:00:00 PM -0.1 31.82 0.086 7.56 2.29 14.76
2/12/2021 6:15:00 PM -0.1 31.82 0.086 7.54 2.24 14.69
2/12/2021 6:30:00 PM -0.1 31.82 0.086 7.51 2.24 14.64
2/12/2021 6:45:00 PM -0.1 31.82 0.086 7.5 2.22 14.6
2/12/2021 7:00:00 PM -0.1 31.82 0.086 7.49 2.22 14.56
2/12/2021 7:15:00 PM -0.1 31.82 0.086 7.47 2.26 14.52
2/12/2021 7:30:00 PM -0.1 31.82 0.086 7.46 2.24 14.49
2/12/2021 7:45:00 PM -0.1 31.82 0.086 7.44 2.27 14.45
2/12/2021 8:00:00 PM -0.1 31.82 0.086 7.43 2.27 14.41
2/12/2021 8:15:00 PM -0.1 31.82 0.086 7.43 2.3 14.4
2/12/2021 8:30:00 PM -0.1 31.82 0.086 7.42 2.29 14.37
2/12/2021 8:45:00 PM -0.1 31.82 0.086 7.41 2.32 14.34
2/12/2021 9:00:00 PM -0.1 31.82 0.086 7.4 2.32 14.32
2/12/2021 9:15:00 PM -0.1 31.82 0.086 7.4 2.27 14.31
2/12/2021 9:30:00 PM -0.11 31.802 0.086 7.39 2.39 14.33
2/12/2021 9:45:00 PM -0.1 31.82 0.086 7.38 2.33 14.28
2/12/2021 10:00:00 PM -0.1 31.82 0.086 7.36 2.26 14.28
2/12/2021 10:15:00 PM -0.1 31.82 0.086 7.36 2.27 14.26
2/12/2021 10:30:00 PM -0.1 31.82 0.086 7.37 2.25 14.24
2/12/2021 10:45:00 PM -0.11 31.802 0.086 7.36 2.27 14.25
2/12/2021 11:00:00 PM -0.11 31.802 0.086 7.35 2.24 14.21
2/12/2021 11:15:00 PM -0.11 31.802 0.087 7.36 2.21 14.24
2/12/2021 11:30:00 PM -0.11 31.802 0.087 7.36 2.24 14.23
2/12/2021 11:45:00 PM -0.11 31.802 0.087 7.34 2.22 14.22
2/13/2021 12:00:00 AM -0.11 31.802 0.087 7.35 2.21 14.23
2/13/2021 12:15:00 AM -0.11 31.802 0.087 7.33 2.2 14.22
2/13/2021 12:30:00 AM -0.11 31.802 0.087 7.34 2.22 14.22
2/13/2021 12:45:00 AM -0.11 31.802 0.087 7.34 2.22 14.22
2/13/2021 1:00:00 AM -0.11 31.802 0.087 7.35 2.24 14.21
2/13/2021 1:15:00 AM -0.11 31.802 0.087 7.35 2.25 14.17
2/13/2021 1:30:00 AM -0.11 31.802 0.087 7.34 2.22 14.21
2/13/2021 1:45:00 AM -0.11 31.802 0.087 7.34 2.23 14.21
2/13/2021 2:00:00 AM -0.11 31.802 0.087 7.34 2.2 14.21
2/13/2021 2:15:00 AM -0.11 31.802 0.087 7.34 2.2 14.22
2/13/2021 2:30:00 AM -0.11 31.802 0.087 7.33 2.22 14.21
2/13/2021 2:45:00 AM -0.11 31.802 0.087 7.34 2.23 14.21
2/13/2021 3:00:00 AM -0.11 31.802 0.088 7.32 2.23 14.21
2/13/2021 3:15:00 AM -0.11 31.802 0.088 7.33 2.24 14.22
2/13/2021 3:30:00 AM -0.11 31.802 0.088 7.3 2.17 14.21
2/13/2021 3:45:00 AM -0.11 31.802 0.088 7.33 2.2 14.21
2/13/2021 4:00:00 AM -0.11 31.802 0.088 7.29 2.19 14.21
2/13/2021 4:15:00 AM -0.11 31.802 0.088 7.33 2.2 14.19
2/13/2021 4:30:00 AM -0.11 31.802 0.088 7.32 2.31 14.19
2/13/2021 4:45:00 AM -0.11 31.802 0.088 7.32 2.2 14.2
2/13/2021 5:00:00 AM -0.11 31.802 0.089 7.32 2.22 14.19
2/13/2021 5:15:00 AM -0.11 31.802 0.089 7.32 2.21 14.2
2/13/2021 5:30:00 AM -0.11 31.802 0.089 7.32 2.21 14.2
2/13/2021 5:45:00 AM -0.11 31.802 0.089 7.32 2.19 14.2
2/13/2021 6:00:00 AM -0.11 31.802 0.089 7.32 2.2 14.19
2/13/2021 6:15:00 AM -0.11 31.802 0.089 7.32 2.17 14.19
2/13/2021 6:30:00 AM -0.11 31.802 0.089 7.31 2.18 14.2
2/13/2021 6:45:00 AM -0.11 31.802 0.089 7.32 2.27 14.2
2/13/2021 7:00:00 AM -0.11 31.802 0.089 7.32 2.22 14.19
2/13/2021 7:15:00 AM -0.11 31.802 0.089 7.26 2.26 14.2
2/13/2021 7:30:00 AM -0.11 31.802 0.089 7.32 2.2 14.21
2/13/2021 7:45:00 AM -0.11 31.802 0.089 7.32 2.2 14.23
2/13/2021 8:00:00 AM -0.11 31.802 0.089 7.33 2.22 14.29
2/13/2021 8:15:00 AM -0.11 31.802 0.089 7.3 2.19 14.33
2/13/2021 8:30:00 AM -0.11 31.802 0.089 7.34 2.2 14.43
2/13/2021 8:45:00 AM -0.1 31.82 0.089 7.37 2.19 14.52
2/13/2021 9:00:00 AM -0.1 31.82 0.089 7.39 2.19 14.61
2/13/2021 9:15:00 AM -0.1 31.82 0.089 7.42 2.2 14.71
2/13/2021 9:30:00 AM -0.09 31.838 0.089 7.44 2.22 14.82
2/13/2021 9:45:00 AM -0.09 31.838 0.088 7.42 2.19 14.91
2/13/2021 10:00:00 AM -0.09 31.838 0.088 7.49 2.22 15.01
2/13/2021 10:15:00 AM -0.08 31.856 0.088 7.52 2.22 15.1
2/13/2021 10:30:00 AM -0.09 31.838 0.088 7.56 2.21 15.18
2/13/2021 10:45:00 AM -0.09 31.838 0.088 7.59 2.26 15.23
2/13/2021 11:00:00 AM -0.08 31.856 0.087 7.61 2.23 15.29
2/13/2021 11:15:00 AM -0.08 31.856 0.087 7.64 2.27 15.35
2/13/2021 11:30:00 AM -0.08 31.856 0.087 7.67 2.21 15.4
2/13/2021 11:45:00 AM -0.08 31.856 0.086 7.65 2.2 15.43
2/13/2021 12:00:00 PM -0.08 31.856 0.086 7.71 2.23 15.46
2/13/2021 12:15:00 PM -0.08 31.856 0.086 7.73 2.24 15.47
2/13/2021 12:30:00 PM -0.08 31.856 0.086 7.75 2.27 15.49
2/13/2021 12:45:00 PM -0.08 31.856 0.086 7.78 2.24 15.51
2/13/2021 1:00:00 PM -0.08 31.856 0.086 7.79 2.25 15.53
2/13/2021 1:15:00 PM -0.07 31.874 0.086 7.82 2.23 15.54
2/13/2021 1:30:00 PM -0.07 31.874 0.086 7.84 2.24 15.55
2/13/2021 1:45:00 PM -0.07 31.874 0.086 7.86 2.24 15.55
2/13/2021 2:00:00 PM -0.08 31.856 0.085 7.85 2.24 15.54
2/13/2021 2:15:00 PM -0.08 31.856 0.085 7.87 2.25 15.51
2/13/2021 2:30:00 PM -0.09 31.838 0.085 7.87 2.36 15.48
2/13/2021 2:45:00 PM -0.09 31.838 0.085 7.87 2.25 15.47
2/13/2021 3:00:00 PM -0.09 31.838 0.085 7.87 2.26 15.46
2/13/2021 3:15:00 PM -0.09 31.838 0.085 7.85 2.35 15.43
2/13/2021 3:30:00 PM -0.09 31.838 0.085 7.85 2.29 15.41
2/13/2021 3:45:00 PM -0.09 31.838 0.085 7.84 2.29 15.38
2/13/2021 4:00:00 PM -0.09 31.838 0.085 7.83 2.28 15.34
2/13/2021 4:15:00 PM -0.1 31.82 0.085 7.82 2.28 15.32
2/13/2021 4:30:00 PM -0.1 31.82 0.085 7.81 2.26 15.29
2/13/2021 4:45:00 PM -0.1 31.82 0.085 7.79 2.26 15.25
2/13/2021 5:00:00 PM -0.1 31.82 0.085 7.76 2.3 15.18
2/13/2021 5:15:00 PM -0.1 31.82 0.084 7.72 2.26 15.11
2/13/2021 5:30:00 PM -0.1 31.82 0.084 7.69 2.25 15.03
2/13/2021 5:45:00 PM -0.1 31.82 0.084 7.66 2.25 14.96
2/13/2021 6:00:00 PM -0.1 31.82 0.084 7.58 2.22 14.88
2/13/2021 6:15:00 PM -0.1 31.82 0.085 7.6 2.23 14.79
2/13/2021 6:30:00 PM -0.1 31.82 0.085 7.57 2.25 14.72
2/13/2021 6:45:00 PM -0.11 31.802 0.085 7.55 2.23 14.67
2/13/2021 7:00:00 PM -0.1 31.82 0.085 7.51 2.22 14.61
2/13/2021 7:15:00 PM -0.11 31.802 0.085 7.51 2.25 14.56
2/13/2021 7:30:00 PM -0.1 31.82 0.085 7.49 2.32 14.5
2/13/2021 7:45:00 PM -0.1 31.82 0.085 7.48 2.27 14.46
2/13/2021 8:00:00 PM -0.11 31.802 0.085 7.47 2.26 14.43
2/13/2021 8:15:00 PM -0.11 31.802 0.085 7.46 2.31 14.39
2/13/2021 8:30:00 PM -0.11 31.802 0.086 7.41 2.3 14.36
2/13/2021 8:45:00 PM -0.11 31.802 0.086 7.43 2.23 14.33
2/13/2021 9:00:00 PM -0.1 31.82 0.086 7.43 2.22 14.3
2/13/2021 9:15:00 PM -0.1 31.82 0.086 7.42 2.27 14.27
2/13/2021 9:30:00 PM -0.1 31.82 0.086 7.4 2.26 14.25
2/13/2021 9:45:00 PM -0.11 31.802 0.086 7.41 2.24 14.24
2/13/2021 10:00:00 PM -0.1 31.82 0.087 7.4 2.22 14.22
2/13/2021 10:15:00 PM -0.1 31.82 0.087 7.38 2.27 14.2
2/13/2021 10:30:00 PM -0.1 31.82 0.087 7.38 2.29 14.18
2/13/2021 10:45:00 PM -0.1 31.82 0.087 7.39 2.25 14.18
2/13/2021 11:00:00 PM -0.1 31.82 0.087 7.38 2.26 14.15
2/13/2021 11:15:00 PM -0.1 31.82 0.087 7.38 2.2 14.15
2/13/2021 11:30:00 PM -0.1 31.82 0.088 7.33 2.24 14.14
2/13/2021 11:45:00 PM -0.1 31.82 0.088 7.38 2.25 14.14
2/14/2021 12:00:00 AM -0.1 31.82 0.088 7.37 2.29 14.14
2/14/2021 12:15:00 AM -0.1 31.82 0.088 7.37 2.19 14.12
2/14/2021 12:30:00 AM -0.11 31.802 0.088 7.34 2.27 14.12
2/14/2021 12:45:00 AM -0.11 31.802 0.088 7.36 2.24 14.12
2/14/2021 1:00:00 AM -0.1 31.82 0.088 7.36 2.3 14.11
2/14/2021 1:15:00 AM -0.11 31.802 0.088 7.33 2.27 14.1
2/14/2021 1:30:00 AM -0.1 31.82 0.088 7.36 2.2 14.09
2/14/2021 1:45:00 AM -0.1 31.82 0.088 7.35 2.24 14.1
2/14/2021 2:00:00 AM -0.1 31.82 0.088 7.35 2.2 14.1
2/14/2021 2:15:00 AM -0.1 31.82 0.088 7.35 2.18 14.09
2/14/2021 2:30:00 AM -0.11 31.802 0.088 7.34 2.24 14.09
2/14/2021 2:45:00 AM -0.1 31.82 0.088 7.34 2.19 14.08
2/14/2021 3:00:00 AM -0.1 31.82 0.088 7.34 2.23 14.07
2/14/2021 3:15:00 AM -0.1 31.82 0.088 7.34 2.19 14.07
2/14/2021 3:30:00 AM -0.1 31.82 0.088 7.34 2.19 14.07
2/14/2021 3:45:00 AM -0.1 31.82 0.088 7.29 2.24 14.06
2/14/2021 4:00:00 AM -0.1 31.82 0.088 7.33 2.16 14.07
2/14/2021 4:15:00 AM -0.1 31.82 0.088 7.33 2.21 14.07
2/14/2021 4:30:00 AM -0.1 31.82 0.088 7.33 2.28 14.05
2/14/2021 4:45:00 AM -0.1 31.82 0.088 7.33 2.31 14.05
2/14/2021 5:00:00 AM -0.1 31.82 0.088 7.33 2.3 14.06
2/14/2021 5:15:00 AM -0.1 31.82 0.088 7.33 2.22 14.06
2/14/2021 5:30:00 AM -0.1 31.82 0.088 7.33 2.29 14.06
2/14/2021 5:45:00 AM -0.1 31.82 0.088 7.33 2.31 14.06
2/14/2021 6:00:00 AM -0.1 31.82 0.088 7.26 2.27 14.06
2/14/2021 6:15:00 AM -0.1 31.82 0.088 7.32 2.2 14.06
2/14/2021 6:30:00 AM -0.1 31.82 0.088 7.32 2.33 14.05
2/14/2021 6:45:00 AM -0.1 31.82 0.088 7.28 2.24 14.07
2/14/2021 7:00:00 AM -0.1 31.82 0.088 7.32 2.28 14.07
2/14/2021 7:15:00 AM -0.1 31.82 0.088 7.29 2.3 14.06
2/14/2021 7:30:00 AM -0.1 31.82 0.088 7.32 2.22 14.08
2/14/2021 7:45:00 AM -0.1 31.82 0.087 7.32 2.19 14.09
2/14/2021 8:00:00 AM -0.1 31.82 0.087 7.29 2.34 14.15
2/14/2021 8:15:00 AM -0.1 31.82 0.087 7.33 2.25 14.21
2/14/2021 8:30:00 AM -0.1 31.82 0.087 7.35 2.2 14.28
2/14/2021 8:45:00 AM -0.1 31.82 0.087 7.36 2.23 14.37
2/14/2021 9:00:00 AM -0.1 31.82 0.087 7.38 2.2 14.45
2/14/2021 9:15:00 AM -0.09 31.838 0.087 7.4 2.22 14.53
2/14/2021 9:30:00 AM -0.09 31.838 0.086 7.43 2.22 14.63
2/14/2021 9:45:00 AM -0.09 31.838 0.086 7.45 2.24 14.71
2/14/2021 10:00:00 AM -0.09 31.838 0.086 7.44 2.26 14.79
2/14/2021 10:15:00 AM -0.09 31.838 0.086 7.48 2.21 14.86
2/14/2021 10:30:00 AM -0.08 31.856 0.085 7.52 2.2 14.96
2/14/2021 10:45:00 AM -0.08 31.856 0.085 7.56 2.24 15.04
2/14/2021 11:00:00 AM -0.08 31.856 0.085 7.58 2.26 15.1
2/14/2021 11:15:00 AM -0.08 31.856 0.085 7.61 2.21 15.17
2/14/2021 11:30:00 AM -0.08 31.856 0.084 7.63 2.22 15.22
2/14/2021 11:45:00 AM -0.08 31.856 0.084 7.67 2.26 15.28
2/14/2021 12:00:00 PM -0.07 31.874 0.084 7.64 2.28 15.32
2/14/2021 12:15:00 PM -0.07 31.874 0.084 7.72 2.21 15.37
2/14/2021 12:30:00 PM -0.07 31.874 0.084 7.71 2.46 15.41
2/14/2021 12:45:00 PM -0.07 31.874 0.084 7.77 2.28 15.43
2/14/2021 1:00:00 PM -0.07 31.874 0.083 7.78 2.26 15.43
2/14/2021 1:15:00 PM -0.07 31.874 0.083 7.8 2.22 15.45
2/14/2021 1:30:00 PM -0.07 31.874 0.083 7.82 2.23 15.44
2/14/2021 1:45:00 PM -0.07 31.874 0.083 7.83 2.22 15.44
2/14/2021 2:00:00 PM -0.06 31.892 0.083 7.85 2.26 15.45
2/14/2021 2:15:00 PM -0.07 31.874 0.082 7.86 2.23 15.43
2/14/2021 2:30:00 PM -0.07 31.874 0.082 7.85 2.34 15.42
2/14/2021 2:45:00 PM -0.07 31.874 0.082 7.85 2.25 15.4
2/14/2021 3:00:00 PM -0.07 31.874 0.082 7.85 2.38 15.37
2/14/2021 3:15:00 PM -0.08 31.856 0.082 7.86 2.27 15.37
2/14/2021 3:30:00 PM -0.08 31.856 0.082 7.85 2.35 15.32
2/14/2021 3:45:00 PM -0.08 31.856 0.082 7.85 2.45 15.33
2/14/2021 4:00:00 PM -0.08 31.856 0.082 7.84 2.22 15.32
2/14/2021 4:15:00 PM -0.08 31.856 0.082 7.84 2.24 15.31
2/14/2021 4:30:00 PM -0.08 31.856 0.082 7.83 2.22 15.26
2/14/2021 4:45:00 PM -0.09 31.838 0.082 7.8 2.3 15.2
2/14/2021 5:00:00 PM -0.09 31.838 0.081 7.79 2.26 15.18
2/14/2021 5:15:00 PM -0.09 31.838 0.081 7.76 2.3 15.1
2/14/2021 5:30:00 PM -0.09 31.838 0.082 7.73 2.29 15.04
2/14/2021 5:45:00 PM -0.1 31.82 0.082 7.69 2.28 14.96
2/14/2021 6:00:00 PM -0.1 31.82 0.082 7.65 2.26 14.86
2/14/2021 6:15:00 PM -0.09 31.838 0.082 7.57 2.28 14.76
2/14/2021 6:30:00 PM -0.1 31.82 0.083 7.58 2.34 14.69
2/14/2021 6:45:00 PM -0.1 31.82 0.083 7.56 2.28 14.64
2/14/2021 7:00:00 PM -0.1 31.82 0.083 7.53 2.28 14.57
2/14/2021 7:15:00 PM -0.09 31.838 0.083 7.51 2.29 14.51
2/14/2021 7:30:00 PM -0.1 31.82 0.083 7.5 2.27 14.48
2/14/2021 7:45:00 PM -0.1 31.82 0.083 7.48 2.22 14.44
2/14/2021 8:00:00 PM -0.1 31.82 0.083 7.44 2.24 14.41
2/14/2021 8:15:00 PM -0.1 31.82 0.083 7.46 2.24 14.37
2/14/2021 8:30:00 PM -0.1 31.82 0.083 7.4 2.24 14.35
2/14/2021 8:45:00 PM -0.1 31.82 0.084 7.44 2.23 14.33
2/14/2021 9:00:00 PM -0.1 31.82 0.084 7.43 2.22 14.3
2/14/2021 9:15:00 PM -0.1 31.82 0.084 7.42 2.24 14.27
2/14/2021 9:30:00 PM -0.1 31.82 0.084 7.4 2.23 14.25
2/14/2021 9:45:00 PM -0.1 31.82 0.084 7.41 2.26 14.24
2/14/2021 10:00:00 PM -0.1 31.82 0.084 7.4 2.19 14.23
2/14/2021 10:15:00 PM -0.1 31.82 0.085 7.4 2.22 14.21
2/14/2021 10:30:00 PM -0.1 31.82 0.085 7.39 2.23 14.2
2/14/2021 10:45:00 PM -0.1 31.82 0.085 7.39 2.19 14.2
2/14/2021 11:00:00 PM -0.1 31.82 0.085 7.38 2.22 14.2
2/14/2021 11:15:00 PM -0.1 31.82 0.086 7.38 2.26 14.18
2/14/2021 11:30:00 PM -0.1 31.82 0.086 7.33 3.2 14.15
2/14/2021 11:45:00 PM -0.1 31.82 0.086 7.37 2.24 14.16
2/15/2021 12:00:00 AM -0.09 31.838 0.086 7.37 2.23 14.15
2/15/2021 12:15:00 AM -0.09 31.838 0.086 7.37 2.21 14.14
2/15/2021 12:30:00 AM -0.09 31.838 0.086 7.36 2.2 14.14
2/15/2021 12:45:00 AM -0.09 31.838 0.086 7.36 2.23 14.13
2/15/2021 1:00:00 AM -0.1 31.82 0.086 7.31 2.21 14.12
2/15/2021 1:15:00 AM -0.09 31.838 0.086 7.36 2.2 14.13
2/15/2021 1:30:00 AM -0.09 31.838 0.086 7.35 2.25 14.11
2/15/2021 1:45:00 AM -0.09 31.838 0.086 7.35 2.15 14.12
2/15/2021 2:00:00 AM -0.09 31.838 0.086 7.35 2.19 14.09
2/15/2021 2:15:00 AM -0.09 31.838 0.086 7.35 2.17 14.11
2/15/2021 2:30:00 AM -0.09 31.838 0.086 7.35 2.19 14.1
2/15/2021 2:45:00 AM -0.09 31.838 0.086 7.29 2.2 14.1
2/15/2021 3:00:00 AM -0.09 31.838 0.086 7.35 2.2 14.09
2/15/2021 3:15:00 AM -0.1 31.82 0.086 7.35 2.21 14.1
2/15/2021 3:30:00 AM -0.09 31.838 0.086 7.29 2.2 14.09
2/15/2021 3:45:00 AM -0.09 31.838 0.086 7.33 2.24 14.09
2/15/2021 4:00:00 AM -0.09 31.838 0.086 7.34 2.2 14.09
2/15/2021 4:15:00 AM -0.09 31.838 0.086 7.32 2.18 14.09
2/15/2021 4:30:00 AM -0.1 31.82 0.086 7.34 2.15 14.11
2/15/2021 4:45:00 AM -0.1 31.82 0.086 7.34 2.18 14.09
2/15/2021 5:00:00 AM -0.1 31.82 0.086 7.34 2.21 14.1
2/15/2021 5:15:00 AM -0.1 31.82 0.087 7.34 2.18 14.1
2/15/2021 5:30:00 AM -0.1 31.82 0.087 7.33 2.19 14.09
2/15/2021 5:45:00 AM -0.1 31.82 0.087 7.34 2.18 14.09
2/15/2021 6:00:00 AM -0.1 31.82 0.087 7.33 2.2 14.09
2/15/2021 6:15:00 AM -0.1 31.82 0.087 7.33 2.24 14.08
2/15/2021 6:30:00 AM -0.1 31.82 0.087 7.33 2.15 14.08
2/15/2021 6:45:00 AM -0.1 31.82 0.087 7.33 2.2 14.08
2/15/2021 7:00:00 AM -0.1 31.82 0.087 7.33 2.2 14.07
2/15/2021 7:15:00 AM -0.1 31.82 0.087 7.33 2.18 14.08
2/15/2021 7:30:00 AM -0.09 31.838 0.087 7.32 2.18 14.08
2/15/2021 7:45:00 AM -0.1 31.82 0.087 7.3 2.19 14.1
2/15/2021 8:00:00 AM -0.09 31.838 0.087 7.34 2.18 14.15
2/15/2021 8:15:00 AM -0.09 31.838 0.087 7.35 2.17 14.24
2/15/2021 8:30:00 AM -0.09 31.838 0.087 7.38 2.22 14.33
2/15/2021 8:45:00 AM -0.09 31.838 0.086 7.4 2.19 14.4
2/15/2021 9:00:00 AM -0.09 31.838 0.086 7.42 2.19 14.5
2/15/2021 9:15:00 AM -0.09 31.838 0.086 7.44 2.2 14.57
2/15/2021 9:30:00 AM -0.08 31.856 0.086 7.46 2.19 14.65
2/15/2021 9:45:00 AM -0.08 31.856 0.086 7.47 2.19 14.7
2/15/2021 10:00:00 AM -0.09 31.838 0.086 7.45 2.17 14.72
2/15/2021 10:15:00 AM -0.09 31.838 0.085 7.49 2.18 14.73
2/15/2021 10:30:00 AM -0.09 31.838 0.085 7.5 2.21 14.75
2/15/2021 10:45:00 AM -0.09 31.838 0.085 7.51 2.25 14.77
2/15/2021 11:00:00 AM -0.09 31.838 0.085 7.5 2.17 14.78
2/15/2021 11:15:00 AM -0.09 31.838 0.085 7.5 2.23 14.81
2/15/2021 11:30:00 AM -0.09 31.838 0.085 7.54 2.19 14.84
2/15/2021 11:45:00 AM -0.08 31.856 0.085 7.54 2.24 14.89
2/15/2021 12:00:00 PM -0.08 31.856 0.084 7.56 2.21 14.91
2/15/2021 12:15:00 PM -0.08 31.856 0.084 7.58 2.18 14.94
2/15/2021 12:30:00 PM -0.07 31.874 0.084 7.56 2.22 14.94
2/15/2021 12:45:00 PM -0.06 31.892 0.084 7.6 2.36 14.99
2/15/2021 1:00:00 PM -0.06 31.892 0.084 7.62 2.35 15.02
2/15/2021 1:15:00 PM -0.06 31.892 0.084 7.64 2.36 15.03
2/15/2021 1:30:00 PM -0.06 31.892 0.084 7.6 2.35 15.05
2/15/2021 1:45:00 PM -0.05 31.91 0.084 7.66 2.39 15.06
2/15/2021 2:00:00 PM -0.05 31.91 0.084 7.68 2.39 15.07
2/15/2021 2:15:00 PM -0.05 31.91 0.083 7.69 2.37 15.08
2/15/2021 2:30:00 PM -0.05 31.91 0.084 7.68 2.42 15.07
2/15/2021 2:45:00 PM -0.06 31.892 0.085 7.68 2.37 15.04
2/15/2021 3:00:00 PM -0.07 31.874 0.086 7.68 2.32 14.98
2/15/2021 3:15:00 PM -0.07 31.874 0.087 7.67 2.42 14.95
2/15/2021 3:30:00 PM -0.08 31.856 0.087 7.65 2.38 14.9
2/15/2021 3:45:00 PM -0.08 31.856 0.087 7.64 2.33 14.83
2/15/2021 4:00:00 PM -0.08 31.856 0.086 7.58 2.33 14.79
2/15/2021 4:15:00 PM -0.08 31.856 0.085 7.6 2.26 14.75
2/15/2021 4:30:00 PM -0.08 31.856 0.085 7.59 2.33 14.72
2/15/2021 4:45:00 PM -0.09 31.838 0.084 7.54 2.39 14.68
2/15/2021 5:00:00 PM -0.09 31.838 0.084 7.56 2.4 14.62
2/15/2021 5:15:00 PM -0.09 31.838 0.084 7.55 2.31 14.59
2/15/2021 5:30:00 PM -0.09 31.838 0.084 7.53 2.32 14.53
2/15/2021 5:45:00 PM -0.09 31.838 0.084 7.51 2.36 14.48
2/15/2021 6:00:00 PM -0.09 31.838 0.084 7.49 2.38 14.42
2/15/2021 6:15:00 PM -0.09 31.838 0.084 7.48 2.33 14.38
2/15/2021 6:30:00 PM -0.09 31.838 0.084 7.43 2.37 14.33
2/15/2021 6:45:00 PM -0.09 31.838 0.084 7.45 2.34 14.29
2/15/2021 7:00:00 PM -0.09 31.838 0.084 7.44 2.38 14.25
2/15/2021 7:15:00 PM -0.09 31.838 0.084 7.38 2.35 14.23
2/15/2021 7:30:00 PM -0.09 31.838 0.084 7.42 2.34 14.2
2/15/2021 7:45:00 PM -0.09 31.838 0.084 7.41 2.36 14.17
2/15/2021 8:00:00 PM -0.09 31.838 0.084 7.41 2.37 14.15
2/15/2021 8:15:00 PM -0.09 31.838 0.084 7.38 2.35 14.13
2/15/2021 8:30:00 PM -0.09 31.838 0.085 7.4 2.39 14.1
2/15/2021 8:45:00 PM -0.1 31.82 0.085 7.39 2.34 14.09
2/15/2021 9:00:00 PM -0.1 31.82 0.085 7.38 2.32 14.09
2/15/2021 9:15:00 PM -0.1 31.82 0.085 7.39 2.35 14.08
2/15/2021 9:30:00 PM -0.1 31.82 0.085 7.37 2.31 14.07
2/15/2021 9:45:00 PM -0.1 31.82 0.085 7.37 2.27 14.05
2/15/2021 10:00:00 PM -0.1 31.82 0.085 7.36 2.3 14.02
2/15/2021 10:15:00 PM -0.1 31.82 0.085 7.37 2.32 14.02
2/15/2021 10:30:00 PM -0.1 31.82 0.085 7.33 2.35 14
2/15/2021 10:45:00 PM -0.1 31.82 0.085 7.35 2.32 14
2/15/2021 11:00:00 PM -0.1 31.82 0.085 7.35 2.3 13.99
2/15/2021 11:15:00 PM -0.1 31.82 0.085 7.34 2.31 13.98
2/15/2021 11:30:00 PM -0.1 31.82 0.085 7.34 2.33 13.95
2/15/2021 11:45:00 PM -0.1 31.82 0.085 7.33 2.72 13.94
2/16/2021 12:00:00 AM -0.1 31.82 0.085 7.33 2.3 13.93
2/16/2021 12:15:00 AM -0.1 31.82 0.085 7.34 2.34 13.89
2/16/2021 12:30:00 AM -0.1 31.82 0.085 7.34 2.33 13.91
2/16/2021 12:45:00 AM -0.1 31.82 0.085 7.3 2.35 13.9
2/16/2021 1:00:00 AM -0.1 31.82 0.085 7.33 2.42 13.88
2/16/2021 1:15:00 AM -0.1 31.82 0.085 7.33 2.33 13.87
2/16/2021 1:30:00 AM -0.1 31.82 0.085 7.32 2.32 13.86
2/16/2021 1:45:00 AM -0.1 31.82 0.085 7.32 2.34 13.85
2/16/2021 2:00:00 AM -0.1 31.82 0.085 7.32 2.32 13.85
2/16/2021 2:15:00 AM -0.1 31.82 0.085 7.32 2.34 13.82
2/16/2021 2:30:00 AM -0.1 31.82 0.085 7.3 2.34 13.82
2/16/2021 2:45:00 AM -0.1 31.82 0.085 7.31 2.4 13.8
2/16/2021 3:00:00 AM -0.1 31.82 0.085 7.31 2.33 13.8
2/16/2021 3:15:00 AM -0.1 31.82 0.085 7.31 2.34 13.79
2/16/2021 3:30:00 AM -0.1 31.82 0.085 7.28 2.34 13.77
2/16/2021 3:45:00 AM -0.1 31.82 0.085 7.3 2.37 13.77
2/16/2021 4:00:00 AM -0.1 31.82 0.085 7.3 2.37 13.78
2/16/2021 4:15:00 AM -0.1 31.82 0.085 7.31 2.47 13.77
2/16/2021 4:30:00 AM -0.1 31.82 0.085 7.3 2.36 13.77
2/16/2021 4:45:00 AM -0.1 31.82 0.084 7.3 2.46 13.76
2/16/2021 5:00:00 AM -0.1 31.82 0.084 7.3 2.35 13.77
2/16/2021 5:15:00 AM -0.1 31.82 0.084 7.28 2.32 13.77
2/16/2021 5:30:00 AM -0.1 31.82 0.084 7.3 2.36 13.75
2/16/2021 5:45:00 AM -0.1 31.82 0.084 7.3 2.38 13.74
2/16/2021 6:00:00 AM -0.1 31.82 0.084 7.25 2.33 13.75
2/16/2021 6:15:00 AM -0.1 31.82 0.084 7.29 2.39 13.74
2/16/2021 6:30:00 AM -0.1 31.82 0.084 7.29 2.35 13.75
2/16/2021 6:45:00 AM -0.1 31.82 0.084 7.3 2.35 13.74
2/16/2021 7:00:00 AM -0.1 31.82 0.084 7.26 2.37 13.73
2/16/2021 7:15:00 AM -0.1 31.82 0.084 7.28 2.4 13.74
2/16/2021 7:30:00 AM -0.1 31.82 0.084 7.28 2.38 13.74
2/16/2021 7:45:00 AM -0.1 31.82 0.084 7.3 2.38 13.73
2/16/2021 8:00:00 AM -0.1 31.82 0.084 7.3 2.37 13.79
2/16/2021 8:15:00 AM -0.1 31.82 0.084 7.3 2.35 13.83
2/16/2021 8:30:00 AM -0.1 31.82 0.085 7.31 2.38 13.88
2/16/2021 8:45:00 AM -0.1 31.82 0.085 7.32 2.4 13.96
2/16/2021 9:00:00 AM -0.1 31.82 0.085 7.33 2.36 14.05
2/16/2021 9:15:00 AM -0.1 31.82 0.084 7.36 2.39 14.13
2/16/2021 9:30:00 AM -0.09 31.838 0.084 7.36 2.39 14.18
2/16/2021 9:45:00 AM -0.09 31.838 0.084 7.37 2.4 14.26
2/16/2021 10:00:00 AM -0.1 31.82 0.083 7.41 2.4 14.33
2/16/2021 10:15:00 AM -0.1 31.82 0.083 7.42 2.4 14.38
2/16/2021 10:30:00 AM -0.09 31.838 0.083 7.4 2.43 14.44
2/16/2021 10:45:00 AM -0.08 31.856 0.083 7.46 2.39 14.52
2/16/2021 11:00:00 AM -0.08 31.856 0.083 7.49 2.4 14.64
2/16/2021 11:15:00 AM -0.08 31.856 0.083 7.53 2.44 14.73
2/16/2021 11:30:00 AM -0.09 31.838 0.083 7.55 2.44 14.77
2/16/2021 11:45:00 AM -0.09 31.838 0.083 7.56 2.48 14.77
2/16/2021 12:00:00 PM -0.09 31.838 0.084 7.57 2.46 14.8
2/16/2021 12:15:00 PM -0.09 31.838 0.084 7.58 2.46 14.81
2/16/2021 12:30:00 PM -0.09 31.838 0.085 7.59 2.49 14.82
2/16/2021 12:45:00 PM -0.09 31.838 0.085 7.55 2.43 14.85
2/16/2021 1:00:00 PM -0.09 31.838 0.085 7.61 2.41 14.89
2/16/2021 1:15:00 PM -0.09 31.838 0.084 7.63 2.39 14.93
2/16/2021 1:30:00 PM -0.09 31.838 0.083 7.65 2.42 14.96
2/16/2021 1:45:00 PM -0.09 31.838 0.083 7.66 2.42 14.98
2/16/2021 2:00:00 PM -0.09 31.838 0.082 7.65 2.42 15
2/16/2021 2:15:00 PM -0.09 31.838 0.082 7.69 2.4 15.03
2/16/2021 2:30:00 PM -0.09 31.838 0.082 7.72 2.43 15.07
2/16/2021 2:45:00 PM -0.09 31.838 0.081 7.74 2.4 15.11
2/16/2021 3:00:00 PM -0.09 31.838 0.081 7.77 2.5 15.15
2/16/2021 3:15:00 PM -0.09 31.838 0.081 7.79 2.5 15.18
2/16/2021 3:30:00 PM -0.09 31.838 0.08 7.76 2.45 15.19
2/16/2021 3:45:00 PM -0.09 31.838 0.08 7.82 2.46 15.2
2/16/2021 4:00:00 PM -0.09 31.838 0.08 7.8 2.42 15.2
2/16/2021 4:15:00 PM -0.1 31.82 0.08 7.81 2.4 15.16
2/16/2021 4:30:00 PM -0.1 31.82 0.08 7.8 2.41 15.13
2/16/2021 4:45:00 PM -0.1 31.82 0.081 7.78 2.49 15.1
2/16/2021 5:00:00 PM -0.1 31.82 0.081 7.75 2.44 15.06
2/16/2021 5:15:00 PM -0.1 31.82 0.081 7.74 2.4 15.02
2/16/2021 5:30:00 PM -0.1 31.82 0.081 7.71 2.44 14.96
2/16/2021 5:45:00 PM -0.1 31.82 0.081 7.66 2.44 14.88
2/16/2021 6:00:00 PM -0.1 31.82 0.081 7.64 2.45 14.78
2/16/2021 6:15:00 PM -0.11 31.802 0.081 7.61 2.4 14.7
2/16/2021 6:30:00 PM -0.11 31.802 0.081 7.57 2.42 14.64
2/16/2021 6:45:00 PM -0.11 31.802 0.082 7.51 2.41 14.56
2/16/2021 7:00:00 PM -0.11 31.802 0.082 7.53 2.4 14.52
2/16/2021 7:15:00 PM -0.11 31.802 0.082 7.51 2.4 14.47
2/16/2021 7:30:00 PM -0.11 31.802 0.082 7.48 2.42 14.43
2/16/2021 7:45:00 PM -0.11 31.802 0.082 7.47 2.45 14.39
2/16/2021 8:00:00 PM -0.11 31.802 0.082 7.43 2.4 14.35
2/16/2021 8:15:00 PM -0.11 31.802 0.083 7.45 2.42 14.32
2/16/2021 8:30:00 PM -0.11 31.802 0.083 7.44 2.38 14.29
2/16/2021 8:45:00 PM -0.11 31.802 0.083 7.43 2.43 14.27
2/16/2021 9:00:00 PM -0.11 31.802 0.083 7.42 2.39 14.24
2/16/2021 9:15:00 PM -0.11 31.802 0.084 7.41 2.4 14.22
2/16/2021 9:30:00 PM -0.11 31.802 0.084 7.39 2.45 14.2
2/16/2021 9:45:00 PM -0.11 31.802 0.084 7.39 2.42 14.18
2/16/2021 10:00:00 PM -0.11 31.802 0.084 7.38 2.4 14.16
2/16/2021 10:15:00 PM -0.11 31.802 0.085 7.32 2.35 14.14
2/16/2021 10:30:00 PM -0.11 31.802 0.085 7.36 2.38 14.13
2/16/2021 10:45:00 PM -0.11 31.802 0.086 7.36 2.39 14.12
2/16/2021 11:00:00 PM -0.11 31.802 0.086 7.35 2.37 14.11
2/16/2021 11:15:00 PM -0.11 31.802 0.086 7.3 2.39 14.1
2/16/2021 11:30:00 PM -0.11 31.802 0.087 7.34 2.4 14.09
2/16/2021 11:45:00 PM -0.11 31.802 0.087 7.34 2.35 14.08
2/17/2021 12:00:00 AM -0.11 31.802 0.088 7.31 2.34 14.07
2/17/2021 12:15:00 AM -0.11 31.802 0.088 7.33 2.36 14.07
2/17/2021 12:30:00 AM -0.11 31.802 0.089 7.32 2.39 14.06
2/17/2021 12:45:00 AM -0.11 31.802 0.089 7.32 2.35 14.06
2/17/2021 1:00:00 AM -0.11 31.802 0.09 7.32 2.36 14.06
2/17/2021 1:15:00 AM -0.11 31.802 0.09 7.31 2.35 14.05
2/17/2021 1:30:00 AM -0.11 31.802 0.09 7.3 2.32 14.05
2/17/2021 1:45:00 AM -0.11 31.802 0.091 7.26 2.36 14.05
2/17/2021 2:00:00 AM -0.11 31.802 0.091 7.29 2.37 14.05
2/17/2021 2:15:00 AM -0.11 31.802 0.091 7.3 2.36 14.05
2/17/2021 2:30:00 AM -0.11 31.802 0.091 7.28 2.37 14.05
2/17/2021 2:45:00 AM -0.11 31.802 0.091 7.3 2.31 14.04
2/17/2021 3:00:00 AM -0.11 31.802 0.091 7.26 2.31 14.05
2/17/2021 3:15:00 AM -0.11 31.802 0.091 7.3 2.33 14.04
2/17/2021 3:30:00 AM -0.11 31.802 0.091 7.29 2.29 14.04
2/17/2021 3:45:00 AM -0.11 31.802 0.092 7.27 2.36 14.04
2/17/2021 4:00:00 AM -0.11 31.802 0.092 7.29 2.34 14.04
2/17/2021 4:15:00 AM -0.11 31.802 0.092 7.25 2.35 14.04
2/17/2021 4:30:00 AM -0.11 31.802 0.092 7.28 2.32 14.04
2/17/2021 4:45:00 AM -0.11 31.802 0.092 7.28 2.34 14.05
2/17/2021 5:00:00 AM -0.11 31.802 0.092 7.28 2.33 14.04
2/17/2021 5:15:00 AM -0.11 31.802 0.092 7.28 2.33 14.05
2/17/2021 5:30:00 AM -0.11 31.802 0.093 7.28 2.36 14.04
2/17/2021 5:45:00 AM -0.11 31.802 0.093 7.27 2.33 14.05
2/17/2021 6:00:00 AM -0.11 31.802 0.093 7.27 2.4 14.06
2/17/2021 6:15:00 AM -0.11 31.802 0.093 7.27 2.35 14.04
2/17/2021 6:30:00 AM -0.11 31.802 0.093 7.27 2.36 14.05
2/17/2021 6:45:00 AM -0.11 31.802 0.093 7.27 2.37 14.07
2/17/2021 7:00:00 AM -0.11 31.802 0.093 7.22 2.43 14.07
2/17/2021 7:15:00 AM -0.11 31.802 0.093 7.27 2.39 14.08
2/17/2021 7:30:00 AM -0.11 31.802 0.093 7.27 2.39 14.11
2/17/2021 7:45:00 AM -0.1 31.82 0.093 7.28 2.62 14.17
2/17/2021 8:00:00 AM -0.11 31.802 0.093 7.3 3.4 14.28
2/17/2021 8:15:00 AM -0.11 31.802 0.092 7.27 2.36 14.4
2/17/2021 8:30:00 AM -0.1 31.82 0.092 7.32 2.35 14.51
2/17/2021 8:45:00 AM -0.1 31.82 0.092 7.35 2.35 14.6
2/17/2021 9:00:00 AM -0.1 31.82 0.092 7.35 2.35 14.69
2/17/2021 9:15:00 AM -0.1 31.82 0.092 7.4 2.37 14.8
2/17/2021 9:30:00 AM -0.1 31.82 0.092 7.4 2.36 14.91
2/17/2021 9:45:00 AM -0.1 31.82 0.092 7.44 2.35 15.02
2/17/2021 10:00:00 AM -0.09 31.838 0.091 7.48 2.35 15.13
2/17/2021 10:15:00 AM -0.09 31.838 0.091 7.51 2.42 15.21
2/17/2021 10:30:00 AM -0.08 31.856 0.091 7.51 2.41 15.32
2/17/2021 10:45:00 AM -0.08 31.856 0.091 7.59 2.37 15.41
2/17/2021 11:00:00 AM -0.08 31.856 0.09 7.62 2.37 15.47
2/17/2021 11:15:00 AM -0.06 31.892 0.09 7.65 2.37 15.51
2/17/2021 11:30:00 AM -0.05 31.91 0.09 7.64 2.36 15.51
2/17/2021 11:45:00 AM -0.06 31.892 0.09 7.7 2.39 15.56
2/17/2021 12:00:00 PM -0.04 31.928 0.089 7.73 2.4 15.58
2/17/2021 12:15:00 PM -0.04 31.928 0.089 7.77 3.32 15.59
2/17/2021 12:30:00 PM -0.04 31.928 0.089 7.78 2.36 15.6
2/17/2021 12:45:00 PM -0.04 31.928 0.088 7.76 2.38 15.6
2/17/2021 1:00:00 PM -0.03 31.946 0.088 7.82 2.39 15.6
2/17/2021 1:15:00 PM -0.04 31.928 0.087 7.8 2.39 15.58
2/17/2021 1:30:00 PM -0.05 31.91 0.087 7.84 2.37 15.55
2/17/2021 1:45:00 PM -0.02 31.964 0.087 7.84 2.4 15.55
2/17/2021 2:00:00 PM -0.03 31.946 0.086 7.89 2.39 15.53
2/17/2021 2:15:00 PM -0.05 31.91 0.086 7.88 2.4 15.48
2/17/2021 2:30:00 PM -0.05 31.91 0.086 7.87 2.42 15.47
2/17/2021 2:45:00 PM -0.05 31.91 0.087 7.9 2.42 15.48
2/17/2021 3:00:00 PM -0.05 31.91 0.087 7.92 2.61 15.46
2/17/2021 3:15:00 PM -0.06 31.892 0.088 7.97 3.09 15.45
2/17/2021 3:30:00 PM -0.07 31.874 0.088 8 3.25 15.44
2/17/2021 3:45:00 PM -0.08 31.856 0.088 8.01 3.06 15.43
2/17/2021 4:00:00 PM -0.08 31.856 0.088 7.96 2.95 15.44
2/17/2021 4:15:00 PM -0.09 31.838 0.088 7.98 2.81 15.44
2/17/2021 4:30:00 PM -0.09 31.838 0.088 7.96 2.74 15.4
2/17/2021 4:45:00 PM -0.09 31.838 0.088 7.92 2.64 15.39
2/17/2021 5:00:00 PM -0.1 31.82 0.087 7.87 2.57 15.32
2/17/2021 5:15:00 PM -0.1 31.82 0.087 7.82 2.52 15.29
2/17/2021 5:30:00 PM -0.1 31.82 0.087 7.78 2.43 15.26
2/17/2021 5:45:00 PM -0.1 31.82 0.087 7.76 2.45 15.2
2/17/2021 6:00:00 PM -0.1 31.82 0.086 7.7 2.36 15.14
2/17/2021 6:15:00 PM -0.1 31.82 0.086 7.68 2.43 15.06
2/17/2021 6:30:00 PM -0.1 31.82 0.086 7.65 2.37 14.97
2/17/2021 6:45:00 PM -0.1 31.82 0.086 7.61 2.41 14.89
2/17/2021 7:00:00 PM -0.1 31.82 0.086 7.59 2.44 14.83
2/17/2021 7:15:00 PM -0.1 31.82 0.086 7.56 2.39 14.76
2/17/2021 7:30:00 PM -0.1 31.82 0.086 7.49 2.38 14.7
2/17/2021 7:45:00 PM -0.1 31.82 0.086 7.52 2.36 14.65
2/17/2021 8:00:00 PM -0.1 31.82 0.086 7.5 2.37 14.6
2/17/2021 8:15:00 PM -0.1 31.82 0.086 7.48 2.41 14.56
2/17/2021 8:30:00 PM -0.1 31.82 0.087 7.42 2.51 14.51
2/17/2021 8:45:00 PM -0.1 31.82 0.087 7.45 2.42 14.46
2/17/2021 9:00:00 PM -0.1 31.82 0.087 7.44 2.38 14.42
2/17/2021 9:15:00 PM -0.1 31.82 0.087 7.43 2.37 14.4
2/17/2021 9:30:00 PM -0.1 31.82 0.087 7.42 2.37 14.36
2/17/2021 9:45:00 PM -0.1 31.82 0.088 7.41 2.36 14.34
2/17/2021 10:00:00 PM -0.1 31.82 0.088 7.4 2.39 14.32
2/17/2021 10:15:00 PM -0.1 31.82 0.088 7.4 2.35 14.3
2/17/2021 10:30:00 PM -0.1 31.82 0.088 7.39 2.37 14.28
2/17/2021 10:45:00 PM -0.1 31.82 0.088 7.35 2.32 14.27
2/17/2021 11:00:00 PM -0.1 31.82 0.089 7.38 2.31 14.26
2/17/2021 11:15:00 PM -0.1 31.82 0.089 7.38 2.31 14.25
2/17/2021 11:30:00 PM -0.1 31.82 0.089 7.37 2.35 14.23
2/17/2021 11:45:00 PM -0.1 31.82 0.089 7.35 2.36 14.23
2/18/2021 12:00:00 AM -0.1 31.82 0.089 7.36 2.28 14.23
2/18/2021 12:15:00 AM -0.1 31.82 0.089 7.36 2.34 14.22
2/18/2021 12:30:00 AM -0.1 31.82 0.089 7.36 2.35 14.22
2/18/2021 12:45:00 AM -0.1 31.82 0.089 7.35 2.3 14.21
2/18/2021 1:00:00 AM -0.1 31.82 0.089 7.35 2.32 14.2
2/18/2021 1:15:00 AM -0.1 31.82 0.089 7.34 2.34 14.2
2/18/2021 1:30:00 AM -0.1 31.82 0.089 7.34 2.38 14.2
2/18/2021 1:45:00 AM -0.1 31.82 0.089 7.35 2.33 14.2
2/18/2021 2:00:00 AM -0.1 31.82 0.089 7.35 2.36 14.19
2/18/2021 2:15:00 AM -0.1 31.82 0.089 7.33 2.31 14.19
2/18/2021 2:30:00 AM -0.1 31.82 0.089 7.34 2.33 14.19
2/18/2021 2:45:00 AM -0.1 31.82 0.089 7.34 2.31 14.18
2/18/2021 3:00:00 AM -0.1 31.82 0.089 7.34 2.34 14.18
2/18/2021 3:15:00 AM -0.1 31.82 0.089 7.34 9.29 14.18
2/18/2021 3:30:00 AM -0.1 31.82 0.089 7.32 2.57 14.18
2/18/2021 3:45:00 AM -0.1 31.82 0.09 7.34 2.46 14.18
2/18/2021 4:00:00 AM -0.11 31.802 0.09 7.32 2.34 14.22
2/18/2021 4:15:00 AM -0.11 31.802 0.09 7.34 2.36 14.21
2/18/2021 4:30:00 AM -0.11 31.802 0.09 7.33 2.34 14.22
2/18/2021 4:45:00 AM -0.11 31.802 0.09 7.33 2.38 14.21
2/18/2021 5:00:00 AM -0.11 31.802 0.09 7.33 2.35 14.19
2/18/2021 5:15:00 AM -0.11 31.802 0.09 7.33 2.36 14.21
2/18/2021 5:30:00 AM -0.11 31.802 0.09 7.29 2.33 14.21
2/18/2021 5:45:00 AM -0.11 31.802 0.09 7.33 2.39 14.2
2/18/2021 6:00:00 AM -0.11 31.802 0.09 7.33 2.34 14.2
2/18/2021 6:15:00 AM -0.11 31.802 0.09 7.32 2.37 14.19
2/18/2021 6:30:00 AM -0.11 31.802 0.09 7.3 2.34 14.19
2/18/2021 6:45:00 AM -0.11 31.802 0.09 7.32 2.3 14.18
2/18/2021 7:00:00 AM -0.11 31.802 0.09 7.31 2.33 14.19
2/18/2021 7:15:00 AM -0.11 31.802 0.09 7.32 2.35 14.18
2/18/2021 7:30:00 AM -0.11 31.802 0.09 7.3 2.37 14.2
2/18/2021 7:45:00 AM -0.11 31.802 0.09 7.32 2.34 14.22
2/18/2021 8:00:00 AM -0.11 31.802 0.09 7.32 2.68 14.24
2/18/2021 8:15:00 AM -0.1 31.82 0.09 7.32 2.39 14.26
2/18/2021 8:30:00 AM -0.1 31.82 0.09 7.33 2.31 14.29
2/18/2021 8:45:00 AM -0.1 31.82 0.089 7.35 2.35 14.34
2/18/2021 9:00:00 AM -0.1 31.82 0.089 7.34 2.4 14.4
2/18/2021 9:15:00 AM -0.1 31.82 0.089 7.38 2.29 14.48
2/18/2021 9:30:00 AM -0.1 31.82 0.089 7.4 2.33 14.54
2/18/2021 9:45:00 AM -0.1 31.82 0.089 7.41 2.36 14.6
2/18/2021 10:00:00 AM -0.1 31.82 0.089 7.38 2.34 14.65
2/18/2021 10:15:00 AM -0.1 31.82 0.089 7.43 2.29 14.72
2/18/2021 10:30:00 AM -0.1 31.82 0.089 7.45 2.32 14.77
2/18/2021 10:45:00 AM -0.09 31.838 0.089 7.48 2.33 14.84
2/18/2021 11:00:00 AM -0.09 31.838 0.088 7.5 2.38 14.89
2/18/2021 11:15:00 AM -0.08 31.856 0.088 7.52 2.37 14.96
2/18/2021 11:30:00 AM -0.08 31.856 0.088 7.51 2.33 15.03
2/18/2021 11:45:00 AM -0.08 31.856 0.088 7.56 2.34 15.05
2/18/2021 12:00:00 PM -0.09 31.838 0.088 7.58 2.37 15.08
2/18/2021 12:15:00 PM -0.09 31.838 0.088 7.55 2.33 15.1
2/18/2021 12:30:00 PM -0.09 31.838 0.088 7.61 2.32 15.13
2/18/2021 12:45:00 PM -0.08 31.856 0.087 7.6 2.36 15.14
2/18/2021 1:00:00 PM -0.09 31.838 0.087 7.63 2.32 15.15
2/18/2021 1:15:00 PM -0.09 31.838 0.087 7.61 2.38 15.15
2/18/2021 1:30:00 PM -0.09 31.838 0.087 7.65 2.39 15.14
2/18/2021 1:45:00 PM -0.09 31.838 0.087 7.65 2.35 15.15
2/18/2021 2:00:00 PM -0.09 31.838 0.087 7.65 2.4 15.12
2/18/2021 2:15:00 PM -0.09 31.838 0.087 7.66 2.4 15.13
2/18/2021 2:30:00 PM -0.09 31.838 0.086 7.66 2.37 15.12
2/18/2021 2:45:00 PM -0.09 31.838 0.086 7.64 2.42 15.08
2/18/2021 3:00:00 PM -0.1 31.82 0.086 7.65 2.47 15.05
2/18/2021 3:15:00 PM -0.09 31.838 0.086 7.6 2.37 15.02
2/18/2021 3:30:00 PM -0.09 31.838 0.086 7.63 2.43 15.02
2/18/2021 3:45:00 PM -0.09 31.838 0.086 7.64 2.45 15.01
2/18/2021 4:00:00 PM -0.09 31.838 0.086 7.64 2.44 14.99
2/18/2021 4:15:00 PM -0.09 31.838 0.086 7.63 2.38 14.96
2/18/2021 4:30:00 PM -0.09 31.838 0.086 7.61 2.4 14.92
2/18/2021 4:45:00 PM -0.09 31.838 0.086 7.61 2.45 14.89
2/18/2021 5:00:00 PM -0.09 31.838 0.086 7.57 2.36 14.86
2/18/2021 5:15:00 PM -0.09 31.838 0.086 7.58 2.51 14.81
2/18/2021 5:30:00 PM -0.09 31.838 0.086 7.57 2.43 14.76
2/18/2021 5:45:00 PM -0.1 31.82 0.086 7.55 2.41 14.7
2/18/2021 6:00:00 PM -0.1 31.82 0.086 7.53 2.39 14.63
2/18/2021 6:15:00 PM -0.1 31.82 0.087 7.51 2.4 14.57
2/18/2021 6:30:00 PM -0.1 31.82 0.087 7.47 2.38 14.52
2/18/2021 6:45:00 PM -0.1 31.82 0.087 7.47 2.42 14.46
2/18/2021 7:00:00 PM -0.1 31.82 0.087 7.45 2.45 14.41
2/18/2021 7:15:00 PM -0.1 31.82 0.087 7.45 2.39 14.38
2/18/2021 7:30:00 PM -0.1 31.82 0.087 7.41 2.4 14.35
2/18/2021 7:45:00 PM -0.1 31.82 0.087 7.43 2.39 14.33
2/18/2021 8:00:00 PM -0.1 31.82 0.087 7.42 2.37 14.29
2/18/2021 8:15:00 PM -0.1 31.82 0.087 7.37 2.4 14.28
2/18/2021 8:30:00 PM -0.1 31.82 0.087 7.39 2.39 14.26
2/18/2021 8:45:00 PM -0.1 31.82 0.087 7.39 2.4 14.25
2/18/2021 9:00:00 PM -0.1 31.82 0.087 7.39 2.44 14.23
2/18/2021 9:15:00 PM -0.1 31.82 0.088 7.38 2.41 14.21
2/18/2021 9:30:00 PM -0.1 31.82 0.088 7.38 2.36 14.21
2/18/2021 9:45:00 PM -0.1 31.82 0.088 7.35 2.37 14.2
2/18/2021 10:00:00 PM -0.1 31.82 0.088 7.36 2.38 14.17
2/18/2021 10:15:00 PM -0.1 31.82 0.088 7.37 2.38 14.19
2/18/2021 10:30:00 PM -0.1 31.82 0.088 7.36 2.38 14.17
2/18/2021 10:45:00 PM -0.1 31.82 0.088 7.34 2.39 14.16
2/18/2021 11:00:00 PM -0.1 31.82 0.088 7.36 2.95 14.15
2/18/2021 11:15:00 PM -0.1 31.82 0.088 7.33 2.37 14.14
2/18/2021 11:30:00 PM -0.1 31.82 0.088 7.35 2.42 14.14
2/18/2021 11:45:00 PM -0.1 31.82 0.088 7.35 2.42 14.13
2/19/2021 12:00:00 AM -0.1 31.82 0.088 7.35 2.4 14.12
2/19/2021 12:15:00 AM -0.1 31.82 0.088 7.34 2.38 14.13
2/19/2021 12:30:00 AM -0.1 31.82 0.088 7.33 2.39 14.12
2/19/2021 12:45:00 AM -0.1 31.82 0.088 7.34 2.41 14.11
2/19/2021 1:00:00 AM -0.1 31.82 0.088 7.31 2.37 14.11
2/19/2021 1:15:00 AM -0.1 31.82 0.088 7.34 2.36 14.11
2/19/2021 1:30:00 AM -0.1 31.82 0.088 7.34 2.39 14.1
2/19/2021 1:45:00 AM -0.1 31.82 0.088 7.33 2.36 14.1
2/19/2021 2:00:00 AM -0.1 31.82 0.088 7.29 2.38 14.1
2/19/2021 2:15:00 AM -0.1 31.82 0.088 7.33 2.34 14.09
2/19/2021 2:30:00 AM -0.1 31.82 0.088 7.33 2.34 14.09
2/19/2021 2:45:00 AM -0.1 31.82 0.088 7.32 2.36 14.08
2/19/2021 3:00:00 AM -0.1 31.82 0.088 7.32 2.42 14.07
2/19/2021 3:15:00 AM -0.1 31.82 0.088 7.32 2.36 14.07
2/19/2021 3:30:00 AM -0.1 31.82 0.088 7.32 2.34 14.07
2/19/2021 3:45:00 AM -0.1 31.82 0.088 7.32 2.39 14.06
2/19/2021 4:00:00 AM -0.1 31.82 0.088 7.3 2.37 14.07
2/19/2021 4:15:00 AM -0.1 31.82 0.088 7.32 2.35 14.06
2/19/2021 4:30:00 AM -0.1 31.82 0.088 7.32 2.37 14.05
2/19/2021 4:45:00 AM -0.1 31.82 0.088 7.31 2.39 14.04
2/19/2021 5:00:00 AM -0.1 31.82 0.088 7.3 2.34 14.04
2/19/2021 5:15:00 AM -0.1 31.82 0.088 7.31 2.4 14.04
2/19/2021 5:30:00 AM -0.1 31.82 0.088 7.28 2.33 14.05
2/19/2021 5:45:00 AM -0.1 31.82 0.088 7.3 2.4 14.05
2/19/2021 6:00:00 AM -0.1 31.82 0.088 7.31 2.36 14.04
2/19/2021 6:15:00 AM -0.1 31.82 0.088 7.31 2.37 14.04
2/19/2021 6:30:00 AM -0.1 31.82 0.088 7.31 2.41 14.04
2/19/2021 6:45:00 AM -0.1 31.82 0.088 7.31 2.33 14.04
2/19/2021 7:00:00 AM -0.1 31.82 0.088 7.3 2.36 14.04
2/19/2021 7:15:00 AM -0.1 31.82 0.088 7.3 2.39 14.03
2/19/2021 7:30:00 AM -0.1 31.82 0.088 7.31 2.35 14.05
2/19/2021 7:45:00 AM -0.1 31.82 0.088 7.28 2.35 14.07
2/19/2021 8:00:00 AM -0.1 31.82 0.088 7.32 2.35 14.1
2/19/2021 8:15:00 AM -0.09 31.838 0.088 7.28 2.35 14.15
2/19/2021 8:30:00 AM -0.09 31.838 0.088 7.33 2.33 14.19
2/19/2021 8:45:00 AM -0.09 31.838 0.087 7.35 2.34 14.25
2/19/2021 9:00:00 AM -0.09 31.838 0.087 7.34 2.36 14.34
2/19/2021 9:15:00 AM -0.08 31.856 0.087 7.38 2.32 14.4
2/19/2021 9:30:00 AM -0.08 31.856 0.087 7.38 2.34 14.46
2/19/2021 9:45:00 AM -0.08 31.856 0.087 7.4 2.36 14.52
2/19/2021 10:00:00 AM -0.08 31.856 0.087 7.41 2.4 14.57
2/19/2021 10:15:00 AM -0.08 31.856 0.087 7.44 2.36 14.6
2/19/2021 10:30:00 AM -0.08 31.856 0.087 7.45 2.36 14.64
2/19/2021 10:45:00 AM -0.08 31.856 0.087 7.44 2.38 14.7
2/19/2021 11:00:00 AM -0.07 31.874 0.087 7.49 2.37 14.75
2/19/2021 11:15:00 AM -0.07 31.874 0.086 7.51 2.38 14.79
2/19/2021 11:30:00 AM -0.08 31.856 0.086 7.51 2.36 14.8
2/19/2021 11:45:00 AM -0.08 31.856 0.086 7.52 2.36 14.81
2/19/2021 12:00:00 PM -0.08 31.856 0.086 7.52 2.41 14.8
2/19/2021 12:15:00 PM -0.08 31.856 0.086 7.52 2.42 14.78
2/19/2021 12:30:00 PM -0.08 31.856 0.086 7.52 2.39 14.77
2/19/2021 12:45:00 PM -0.08 31.856 0.086 7.52 2.4 14.77
2/19/2021 1:00:00 PM -0.08 31.856 0.086 7.53 2.37 14.76
2/19/2021 1:15:00 PM -0.08 31.856 0.086 7.53 2.39 14.75
2/19/2021 1:30:00 PM -0.08 31.856 0.086 7.52 2.39 14.77
2/19/2021 1:45:00 PM -0.08 31.856 0.085 7.54 2.34 14.78
2/19/2021 2:00:00 PM -0.07 31.874 0.085 7.55 2.41 14.78
2/19/2021 2:15:00 PM -0.07 31.874 0.085 7.53 2.39 14.83
2/19/2021 2:30:00 PM -0.07 31.874 0.085 7.57 2.49 14.82
2/19/2021 2:45:00 PM -0.08 31.856 0.085 7.57 2.41 14.79
2/19/2021 3:00:00 PM -0.08 31.856 0.085 7.57 2.43 14.79
2/19/2021 3:15:00 PM -0.08 31.856 0.085 7.53 2.36 14.78
2/19/2021 3:30:00 PM -0.08 31.856 0.085 7.56 2.39 14.76
2/19/2021 3:45:00 PM -0.08 31.856 0.085 7.56 2.4 14.74
2/19/2021 4:00:00 PM -0.08 31.856 0.085 7.55 2.37 14.71
2/19/2021 4:15:00 PM -0.08 31.856 0.085 7.55 2.4 14.68
2/19/2021 4:30:00 PM -0.08 31.856 0.085 7.54 2.38 14.65
2/19/2021 4:45:00 PM -0.09 31.838 0.085 7.53 2.38 14.63
2/19/2021 5:00:00 PM -0.09 31.838 0.085 7.49 2.36 14.59
2/19/2021 5:15:00 PM -0.09 31.838 0.085 7.49 2.35 14.54
2/19/2021 5:30:00 PM -0.09 31.838 0.085 7.49 2.37 14.51
2/19/2021 5:45:00 PM -0.09 31.838 0.086 7.48 2.36 14.47
2/19/2021 6:00:00 PM -0.09 31.838 0.086 7.47 2.33 14.42
2/19/2021 6:15:00 PM -0.09 31.838 0.086 7.45 2.41 14.38
2/19/2021 6:30:00 PM -0.09 31.838 0.086 7.44 2.36 14.34
2/19/2021 6:45:00 PM -0.09 31.838 0.086 7.4 2.37 14.3
2/19/2021 7:00:00 PM -0.1 31.82 0.086 7.42 2.62 14.28
2/19/2021 7:15:00 PM -0.1 31.82 0.086 7.41 2.36 14.25
2/19/2021 7:30:00 PM -0.1 31.82 0.086 7.39 2.34 14.25
2/19/2021 7:45:00 PM -0.1 31.82 0.086 7.39 2.39 14.22
2/19/2021 8:00:00 PM -0.1 31.82 0.086 7.38 2.36 14.21
2/19/2021 8:15:00 PM -0.1 31.82 0.086 7.39 2.33 14.2
2/19/2021 8:30:00 PM -0.1 31.82 0.086 7.38 2.38 14.19
2/19/2021 8:45:00 PM -0.1 31.82 0.086 7.34 2.39 14.17
2/19/2021 9:00:00 PM -0.1 31.82 0.086 7.37 2.35 14.17
2/19/2021 9:15:00 PM -0.1 31.82 0.086 7.36 2.5 14.16
2/19/2021 9:30:00 PM -0.1 31.82 0.086 7.37 2.34 14.14
2/19/2021 9:45:00 PM -0.1 31.82 0.086 7.36 2.36 14.14
2/19/2021 10:00:00 PM -0.1 31.82 0.086 7.36 2.39 14.15
2/19/2021 10:15:00 PM -0.1 31.82 0.086 7.36 2.37 14.13
2/19/2021 10:30:00 PM -0.1 31.82 0.087 7.32 2.43 14.12
2/19/2021 10:45:00 PM -0.1 31.82 0.087 7.34 2.42 14.14
2/19/2021 11:00:00 PM -0.1 31.82 0.087 7.34 10.07 14.11
2/19/2021 11:15:00 PM -0.1 31.82 0.087 7.31 2.62 14.12
2/19/2021 11:30:00 PM -0.1 31.82 0.087 7.33 2.52 14.12
2/19/2021 11:45:00 PM -0.1 31.82 0.087 7.33 2.85 14.13
2/20/2021 12:00:00 AM -0.1 31.82 0.087 7.34 2.93 14.11
2/20/2021 12:15:00 AM -0.1 31.82 0.087 7.3 2.83 14.12
2/20/2021 12:30:00 AM -0.1 31.82 0.087 7.33 2.94 14.11
2/20/2021 12:45:00 AM -0.1 31.82 0.087 7.32 2.85 14.11
2/20/2021 1:00:00 AM -0.1 31.82 0.087 7.33 2.86 14.1
2/20/2021 1:15:00 AM -0.1 31.82 0.088 7.32 3 14.11
2/20/2021 1:30:00 AM -0.1 31.82 0.088 7.29 2.84 14.11
2/20/2021 1:45:00 AM -0.1 31.82 0.088 7.32 2.85 14.1
2/20/2021 2:00:00 AM -0.1 31.82 0.088 7.33 2.83 14.11
2/20/2021 2:15:00 AM -0.1 31.82 0.088 7.32 2.83 14.1
2/20/2021 2:30:00 AM -0.1 31.82 0.089 7.32 2.84 14.1
2/20/2021 2:45:00 AM -0.1 31.82 0.089 7.32 2.86 14.1
2/20/2021 3:00:00 AM -0.1 31.82 0.089 7.32 2.86 14.1
2/20/2021 3:15:00 AM -0.1 31.82 0.089 7.28 2.85 14.1
2/20/2021 3:30:00 AM -0.1 31.82 0.089 7.3 2.86 14.1
2/20/2021 3:45:00 AM -0.1 31.82 0.089 7.31 2.84 14.09
2/20/2021 4:00:00 AM -0.1 31.82 0.09 7.32 2.87 14.1
2/20/2021 4:15:00 AM -0.1 31.82 0.09 7.31 2.83 14.06
2/20/2021 4:30:00 AM -0.1 31.82 0.09 7.3 2.82 14.05
2/20/2021 4:45:00 AM -0.1 31.82 0.09 7.26 2.85 14.04
2/20/2021 5:00:00 AM -0.1 31.82 0.09 7.29 2.93 14.05
2/20/2021 5:15:00 AM -0.1 31.82 0.09 7.29 2.86 14.06
2/20/2021 5:30:00 AM -0.1 31.82 0.09 7.29 2.85 14.05
2/20/2021 5:45:00 AM -0.1 31.82 0.09 7.29 2.83 14.05
2/20/2021 6:00:00 AM -0.1 31.82 0.09 7.3 2.84 14.05
2/20/2021 6:15:00 AM -0.1 31.82 0.09 7.3 2.85 14.05
2/20/2021 6:30:00 AM -0.1 31.82 0.09 7.29 2.89 14.04
2/20/2021 6:45:00 AM -0.1 31.82 0.09 7.29 2.88 14.04
2/20/2021 7:00:00 AM -0.1 31.82 0.09 7.29 2.87 14.03
2/20/2021 7:15:00 AM -0.1 31.82 0.089 7.29 2.95 14.05
2/20/2021 7:30:00 AM -0.1 31.82 0.089 7.29 2.89 14.08
2/20/2021 7:45:00 AM -0.1 31.82 0.089 7.27 2.92 14.09
2/20/2021 8:00:00 AM -0.1 31.82 0.089 7.31 2.85 14.16
2/20/2021 8:15:00 AM -0.1 31.82 0.089 7.28 2.82 14.21
2/20/2021 8:30:00 AM -0.1 31.82 0.089 7.33 2.89 14.29
2/20/2021 8:45:00 AM -0.1 31.82 0.088 7.35 2.91 14.38
2/20/2021 9:00:00 AM -0.1 31.82 0.088 7.36 2.86 14.44
2/20/2021 9:15:00 AM -0.1 31.82 0.088 7.38 2.87 14.53
2/20/2021 9:30:00 AM -0.1 31.82 0.088 7.4 2.89 14.61
2/20/2021 9:45:00 AM -0.09 31.838 0.088 7.4 2.89 14.68
2/20/2021 10:00:00 AM -0.09 31.838 0.088 7.43 2.85 14.74
2/20/2021 10:15:00 AM -0.09 31.838 0.087 7.45 2.88 14.81
2/20/2021 10:30:00 AM -0.08 31.856 0.087 7.48 2.86 14.91
2/20/2021 10:45:00 AM -0.08 31.856 0.087 7.5 2.9 14.97
2/20/2021 11:00:00 AM -0.08 31.856 0.087 7.54 2.89 15.04
2/20/2021 11:15:00 AM -0.07 31.874 0.086 7.52 2.92 15.07
2/20/2021 11:30:00 AM -0.07 31.874 0.086 7.56 2.99 15.11
2/20/2021 11:45:00 AM -0.07 31.874 0.086 7.59 2.92 15.14
2/20/2021 12:00:00 PM -0.07 31.874 0.086 7.61 2.94 15.18
2/20/2021 12:15:00 PM -0.07 31.874 0.086 7.63 2.84 15.21
2/20/2021 12:30:00 PM -0.07 31.874 0.086 7.63 2.92 15.21
2/20/2021 12:45:00 PM -0.07 31.874 0.086 7.66 2.93 15.23
2/20/2021 1:00:00 PM -0.07 31.874 0.086 7.68 2.9 15.25
2/20/2021 1:15:00 PM -0.07 31.874 0.086 7.68 2.93 15.25
2/20/2021 1:30:00 PM -0.07 31.874 0.085 7.71 2.89 15.27
2/20/2021 1:45:00 PM -0.07 31.874 0.085 7.69 2.83 15.27
2/20/2021 2:00:00 PM -0.07 31.874 0.085 7.72 2.86 15.27
2/20/2021 2:15:00 PM -0.07 31.874 0.085 7.71 2.89 15.26
2/20/2021 2:30:00 PM -0.06 31.892 0.085 7.75 2.89 15.29
2/20/2021 2:45:00 PM -0.06 31.892 0.085 7.76 2.91 15.28
2/20/2021 3:00:00 PM -0.06 31.892 0.084 7.77 2.89 15.29
2/20/2021 3:15:00 PM -0.06 31.892 0.084 7.79 2.88 15.31
2/20/2021 3:30:00 PM -0.07 31.874 0.084 7.78 2.9 15.25
2/20/2021 3:45:00 PM -0.07 31.874 0.084 7.77 2.89 15.22
2/20/2021 4:00:00 PM -0.08 31.856 0.084 7.75 2.95 15.19
2/20/2021 4:15:00 PM -0.08 31.856 0.084 7.75 2.9 15.15
2/20/2021 4:30:00 PM -0.09 31.838 0.084 7.72 2.88 15.11
2/20/2021 4:45:00 PM -0.09 31.838 0.084 7.71 2.9 15.06
2/20/2021 5:00:00 PM -0.09 31.838 0.084 7.67 2.91 15.02
2/20/2021 5:15:00 PM -0.09 31.838 0.084 7.67 2.91 14.98
2/20/2021 5:30:00 PM -0.09 31.838 0.084 7.63 3.04 14.87
2/20/2021 5:45:00 PM -0.09 31.838 0.084 7.61 3.1 14.81
2/20/2021 6:00:00 PM -0.1 31.82 0.085 7.58 3.1 14.72
2/20/2021 6:15:00 PM -0.1 31.82 0.085 7.55 2.92 14.66
2/20/2021 6:30:00 PM -0.1 31.82 0.086 7.49 2.92 14.61
2/20/2021 6:45:00 PM -0.1 31.82 0.086 7.5 2.94 14.55
2/20/2021 7:00:00 PM -0.11 31.802 0.086 7.5 2.91 14.53
2/20/2021 7:15:00 PM -0.1 31.82 0.086 7.47 2.92 14.49
2/20/2021 7:30:00 PM -0.1 31.82 0.086 7.46 2.93 14.44
2/20/2021 7:45:00 PM -0.1 31.82 0.086 7.42 2.9 14.41
2/20/2021 8:00:00 PM -0.1 31.82 0.086 7.43 2.9 14.38
2/20/2021 8:15:00 PM -0.1 31.82 0.086 7.43 2.87 14.34
2/20/2021 8:30:00 PM -0.1 31.82 0.087 7.42 2.9 14.32
2/20/2021 8:45:00 PM -0.1 31.82 0.087 7.41 2.91 14.33
2/20/2021 9:00:00 PM -0.1 31.82 0.087 7.41 3.13 14.3
2/20/2021 9:15:00 PM -0.1 31.82 0.087 7.37 2.88 14.33
2/20/2021 9:30:00 PM -0.11 31.802 0.087 7.39 2.88 14.31
2/20/2021 9:45:00 PM -0.11 31.802 0.087 7.39 2.85 14.29
2/20/2021 10:00:00 PM -0.11 31.802 0.088 7.39 2.92 14.29
2/20/2021 10:15:00 PM -0.1 31.82 0.088 7.38 2.86 14.26
2/20/2021 10:30:00 PM -0.1 31.82 0.088 7.34 2.86 14.26
2/20/2021 10:45:00 PM -0.11 31.802 0.088 7.36 2.87 14.26
2/20/2021 11:00:00 PM -0.1 31.82 0.088 7.37 2.84 14.26
2/20/2021 11:15:00 PM -0.1 31.82 0.088 7.37 2.87 14.26
2/20/2021 11:30:00 PM -0.1 31.82 0.088 7.36 2.87 14.24
2/20/2021 11:45:00 PM -0.11 31.802 0.089 7.32 2.87 14.25
2/21/2021 12:00:00 AM -0.11 31.802 0.089 7.35 2.86 14.23
2/21/2021 12:15:00 AM -0.11 31.802 0.089 7.34 2.89 14.24
2/21/2021 12:30:00 AM -0.1 31.82 0.089 7.35 2.89 14.23
2/21/2021 12:45:00 AM -0.11 31.802 0.089 7.32 2.87 14.24
2/21/2021 1:00:00 AM -0.1 31.82 0.089 7.34 2.89 14.24
2/21/2021 1:15:00 AM -0.1 31.82 0.089 7.31 2.86 14.22
2/21/2021 1:30:00 AM -0.1 31.82 0.089 7.34 2.82 14.23
2/21/2021 1:45:00 AM -0.11 31.802 0.09 7.33 2.84 14.23
2/21/2021 2:00:00 AM -0.1 31.82 0.09 7.33 2.86 14.23
2/21/2021 2:15:00 AM -0.11 31.802 0.09 7.33 2.85 14.23
2/21/2021 2:30:00 AM -0.11 31.802 0.09 7.33 2.85 14.22
2/21/2021 2:45:00 AM -0.1 31.82 0.09 7.32 2.88 14.22
2/21/2021 3:00:00 AM -0.1 31.82 0.09 7.28 3 14.22
2/21/2021 3:15:00 AM -0.1 31.82 0.09 7.3 2.86 14.22
2/21/2021 3:30:00 AM -0.11 31.802 0.09 7.32 2.87 14.23
2/21/2021 3:45:00 AM -0.11 31.802 0.09 7.32 2.84 14.23
2/21/2021 4:00:00 AM -0.1 31.82 0.09 7.28 2.9 14.21
2/21/2021 4:15:00 AM -0.11 31.802 0.09 7.31 2.87 14.23
2/21/2021 4:30:00 AM -0.11 31.802 0.09 7.31 2.93 14.21
2/21/2021 4:45:00 AM -0.1 31.82 0.09 7.31 2.83 14.21
2/21/2021 5:00:00 AM -0.11 31.802 0.09 7.31 2.85 14.21
2/21/2021 5:15:00 AM -0.1 31.82 0.09 7.26 2.85 14.21
2/21/2021 5:30:00 AM -0.1 31.82 0.091 7.3 2.87 14.21
2/21/2021 5:45:00 AM -0.1 31.82 0.091 7.26 2.87 14.22
2/21/2021 6:00:00 AM -0.11 31.802 0.091 7.29 2.86 14.24
2/21/2021 6:15:00 AM -0.11 31.802 0.091 7.29 2.95 14.23
2/21/2021 6:30:00 AM -0.1 31.82 0.091 7.28 2.83 14.22
2/21/2021 6:45:00 AM -0.11 31.802 0.091 7.28 2.86 14.23
2/21/2021 7:00:00 AM -0.1 31.82 0.091 7.28 2.83 14.23
2/21/2021 7:15:00 AM -0.1 31.82 0.091 7.28 2.85 14.22
2/21/2021 7:30:00 AM -0.1 31.82 0.091 7.28 2.85 14.23
2/21/2021 7:45:00 AM -0.1 31.82 0.091 7.3 2.83 14.27
2/21/2021 8:00:00 AM -0.1 31.82 0.091 7.27 2.83 14.32
2/21/2021 8:15:00 AM -0.1 31.82 0.092 7.32 2.85 14.41
2/21/2021 8:30:00 AM -0.1 31.82 0.092 7.33 2.84 14.47
2/21/2021 8:45:00 AM -0.1 31.82 0.092 7.32 2.85 14.56
2/21/2021 9:00:00 AM -0.1 31.82 0.092 7.36 2.87 14.66
2/21/2021 9:15:00 AM -0.09 31.838 0.091 7.36 2.86 14.69
2/21/2021 9:30:00 AM -0.08 31.856 0.092 7.35 2.86 14.78
2/21/2021 9:45:00 AM -0.09 31.838 0.091 7.4 2.86 14.89
2/21/2021 10:00:00 AM -0.09 31.838 0.091 7.44 2.84 14.98
2/21/2021 10:15:00 AM -0.08 31.856 0.091 7.47 2.87 15.09
2/21/2021 10:30:00 AM -0.08 31.856 0.09 7.49 2.85 15.14
2/21/2021 10:45:00 AM -0.07 31.874 0.09 7.52 2.86 15.23
2/21/2021 11:00:00 AM -0.07 31.874 0.09 7.54 2.85 15.3
2/21/2021 11:15:00 AM -0.06 31.892 0.09 7.57 2.9 15.35
2/21/2021 11:30:00 AM -0.05 31.91 0.089 7.6 2.85 15.39
2/21/2021 11:45:00 AM -0.03 31.946 0.089 7.62 2.86 15.41
2/21/2021 12:00:00 PM -0.03 31.946 0.089 7.61 2.89 15.44
2/21/2021 12:15:00 PM -0.02 31.964 0.089 7.67 2.89 15.46
2/21/2021 12:30:00 PM -0.02 31.964 0.088 7.7 2.91 15.49
2/21/2021 12:45:00 PM -0.02 31.964 0.088 7.74 2.87 15.53
2/21/2021 1:00:00 PM -0.01 31.982 0.088 7.74 2.93 15.49
2/21/2021 1:15:00 PM -0.01 31.982 0.088 7.77 2.87 15.5
2/21/2021 1:30:00 PM 0 32 0.088 7.79 2.9 15.52
2/21/2021 1:45:00 PM 0 32 0.087 7.81 2.88 15.48
2/21/2021 2:00:00 PM 0 32 0.087 7.8 2.88 15.47
2/21/2021 2:15:00 PM 0 32 0.087 7.85 2.86 15.44
2/21/2021 2:30:00 PM 0 32 0.087 7.87 2.94 15.44
2/21/2021 2:45:00 PM -0.01 31.982 0.088 7.88 3.03 15.4
2/21/2021 3:00:00 PM -0.02 31.964 0.088 7.89 3.04 15.39
2/21/2021 3:15:00 PM -0.03 31.946 0.088 7.89 3.08 15.37
2/21/2021 3:30:00 PM -0.04 31.928 0.088 7.89 3.05 15.34
2/21/2021 3:45:00 PM -0.05 31.91 0.088 7.9 3.03 15.32
2/21/2021 4:00:00 PM -0.07 31.874 0.089 7.86 3.02 15.32
2/21/2021 4:15:00 PM -0.08 31.856 0.089 7.88 3.03 15.29
2/21/2021 4:30:00 PM -0.08 31.856 0.089 7.85 3.08 15.24
2/21/2021 4:45:00 PM -0.09 31.838 0.089 7.82 3.06 15.21
2/21/2021 5:00:00 PM -0.09 31.838 0.089 7.75 3.04 15.15
2/21/2021 5:15:00 PM -0.09 31.838 0.088 7.76 3.02 15.12
2/21/2021 5:30:00 PM -0.09 31.838 0.088 7.73 3.06 15.1
2/21/2021 5:45:00 PM -0.09 31.838 0.087 7.68 3 15.05
2/21/2021 6:00:00 PM -0.1 31.82 0.087 7.68 2.99 15.01
2/21/2021 6:15:00 PM -0.1 31.82 0.086 7.62 3.03 14.96
2/21/2021 6:30:00 PM -0.1 31.82 0.086 7.62 2.99 14.89
2/21/2021 6:45:00 PM -0.1 31.82 0.085 7.59 3.01 14.84
2/21/2021 7:00:00 PM -0.1 31.82 0.085 7.56 3.11 14.76
2/21/2021 7:15:00 PM -0.1 31.82 0.085 7.54 3.06 14.71
2/21/2021 7:30:00 PM -0.1 31.82 0.085 7.52 3.03 14.63
2/21/2021 7:45:00 PM -0.1 31.82 0.085 7.47 3.02 14.59
2/21/2021 8:00:00 PM -0.1 31.82 0.085 7.49 3.01 14.56
2/21/2021 8:15:00 PM -0.1 31.82 0.086 7.47 2.99 14.49
2/21/2021 8:30:00 PM -0.09 31.838 0.086 7.45 3.03 14.44
2/21/2021 8:45:00 PM -0.09 31.838 0.086 7.44 3.01 14.39
2/21/2021 9:00:00 PM -0.1 31.82 0.086 7.43 3.04 14.35
2/21/2021 9:15:00 PM -0.1 31.82 0.086 7.42 3.02 14.33
2/21/2021 9:30:00 PM -0.1 31.82 0.086 7.41 3.03 14.29
2/21/2021 9:45:00 PM -0.1 31.82 0.087 7.4 3.02 14.29
2/21/2021 10:00:00 PM -0.1 31.82 0.087 7.4 2.99 14.26
2/21/2021 10:15:00 PM -0.1 31.82 0.087 7.39 3.02 14.22
2/21/2021 10:30:00 PM -0.09 31.838 0.087 7.36 2.99 14.22
2/21/2021 10:45:00 PM -0.09 31.838 0.088 7.38 3.07 14.21
2/21/2021 11:00:00 PM -0.1 31.82 0.088 7.37 3.01 14.19
2/21/2021 11:15:00 PM -0.09 31.838 0.088 7.37 3.02 14.18
2/21/2021 11:30:00 PM -0.1 31.82 0.089 7.37 3.03 14.16
2/21/2021 11:45:00 PM -0.1 31.82 0.089 7.36 2.99 14.15
2/22/2021 12:00:00 AM -0.1 31.82 0.089 7.36 2.99 14.15
2/22/2021 12:15:00 AM -0.09 31.838 0.089 7.36 2.96 14.13
2/22/2021 12:30:00 AM -0.09 31.838 0.089 7.32 2.99 14.12
2/22/2021 12:45:00 AM -0.09 31.838 0.09 7.35 2.97 14.11
2/22/2021 1:00:00 AM -0.09 31.838 0.09 7.36 2.94 14.11
2/22/2021 1:15:00 AM -0.1 31.82 0.09 7.34 2.98 14.11
2/22/2021 1:30:00 AM -0.1 31.82 0.09 7.34 2.99 14.08
2/22/2021 1:45:00 AM -0.09 31.838 0.09 7.34 2.98 14.07
2/22/2021 2:00:00 AM -0.1 31.82 0.09 7.34 3.01 14.06
2/22/2021 2:15:00 AM -0.1 31.82 0.09 7.34 2.99 14.06
2/22/2021 2:30:00 AM -0.1 31.82 0.09 7.34 2.97 14.06
2/22/2021 2:45:00 AM -0.09 31.838 0.09 7.34 2.96 14.04
2/22/2021 3:00:00 AM -0.09 31.838 0.09 7.34 3.01 14.05
2/22/2021 3:15:00 AM -0.09 31.838 0.09 7.34 3 14.03
2/22/2021 3:30:00 AM -0.1 31.82 0.09 7.34 3.01 14.04
2/22/2021 3:45:00 AM -0.09 31.838 0.09 7.31 2.97 14.03
2/22/2021 4:00:00 AM -0.09 31.838 0.09 7.33 2.99 14.02
2/22/2021 4:15:00 AM -0.09 31.838 0.09 7.33 2.95 14
2/22/2021 4:30:00 AM -0.09 31.838 0.09 7.33 2.99 14
2/22/2021 4:45:00 AM -0.09 31.838 0.09 7.3 2.96 13.99
2/22/2021 5:00:00 AM -0.09 31.838 0.09 7.32 2.97 13.98
2/22/2021 5:15:00 AM -0.09 31.838 0.09 7.33 3 13.98
2/22/2021 5:30:00 AM -0.09 31.838 0.09 7.33 2.97 13.97
2/22/2021 5:45:00 AM -0.09 31.838 0.09 7.32 3.15 13.97
2/22/2021 6:00:00 AM -0.09 31.838 0.09 7.32 2.96 13.95
2/22/2021 6:15:00 AM -0.09 31.838 0.09 7.28 2.98 13.96
2/22/2021 6:30:00 AM -0.09 31.838 0.09 7.31 2.96 13.95
2/22/2021 6:45:00 AM -0.09 31.838 0.091 7.32 2.94 13.94
2/22/2021 7:00:00 AM -0.09 31.838 0.091 7.28 2.98 13.94
2/22/2021 7:15:00 AM -0.1 31.82 0.091 7.3 2.98 13.93
2/22/2021 7:30:00 AM -0.09 31.838 0.091 7.31 2.95 13.93
2/22/2021 7:45:00 AM -0.1 31.82 0.091 7.32 3 13.94
2/22/2021 8:00:00 AM -0.09 31.838 0.091 7.32 2.93 13.94
2/22/2021 8:15:00 AM -0.1 31.82 0.091 7.32 2.96 13.96
2/22/2021 8:30:00 AM -0.09 31.838 0.091 7.31 2.94 13.97
2/22/2021 8:45:00 AM -0.09 31.838 0.091 7.33 3 14.02
2/22/2021 9:00:00 AM -0.09 31.838 0.091 7.33 2.97 14.02
2/22/2021 9:15:00 AM -0.09 31.838 0.091 7.3 2.94 14.03
2/22/2021 9:30:00 AM -0.09 31.838 0.09 7.34 2.99 14.09
2/22/2021 9:45:00 AM -0.1 31.82 0.09 7.35 3 14.12
2/22/2021 10:00:00 AM -0.1 31.82 0.09 7.35 3.01 14.14
2/22/2021 10:15:00 AM -0.1 31.82 0.09 7.35 2.95 14.19
2/22/2021 10:30:00 AM -0.1 31.82 0.09 7.36 2.96 14.2
2/22/2021 10:45:00 AM -0.1 31.82 0.09 7.36 2.95 14.21
2/22/2021 11:00:00 AM -0.1 31.82 0.09 7.38 3.03 14.22
2/22/2021 11:15:00 AM -0.09 31.838 0.09 7.35 2.97 14.21
2/22/2021 11:30:00 AM -0.1 31.82 0.09 7.37 2.99 14.23
2/22/2021 11:45:00 AM -0.09 31.838 0.09 7.4 3.01 14.26
2/22/2021 12:00:00 PM -0.09 31.838 0.089 7.39 3.01 14.27
2/22/2021 12:15:00 PM -0.09 31.838 0.089 7.4 2.99 14.27
2/22/2021 12:30:00 PM -0.09 31.838 0.089 7.37 3 14.26
2/22/2021 12:45:00 PM -0.09 31.838 0.089 7.39 3.02 14.26
2/22/2021 1:00:00 PM -0.09 31.838 0.089 7.4 3.14 14.26
2/22/2021 1:15:00 PM -0.09 31.838 0.089 7.41 3.05 14.27
2/22/2021 1:30:00 PM -0.09 31.838 0.089 7.41 3 14.28
2/22/2021 1:45:00 PM -0.09 31.838 0.089 7.38 2.99 14.29
2/22/2021 2:00:00 PM -0.09 31.838 0.089 7.41 2.98 14.3
2/22/2021 2:15:00 PM -0.09 31.838 0.088 7.42 2.96 14.28
2/22/2021 2:30:00 PM -0.09 31.838 0.088 7.39 2.97 14.29
2/22/2021 2:45:00 PM -0.09 31.838 0.088 7.42 2.99 14.28
2/22/2021 3:00:00 PM -0.09 31.838 0.088 7.43 2.99 14.28
2/22/2021 3:15:00 PM -0.09 31.838 0.088 7.43 2.98 14.27
2/22/2021 3:30:00 PM -0.09 31.838 0.088 7.43 3.01 14.27
2/22/2021 3:45:00 PM -0.09 31.838 0.087 7.43 2.97 14.27
2/22/2021 4:00:00 PM -0.09 31.838 0.087 7.39 2.96 14.26
2/22/2021 4:15:00 PM -0.09 31.838 0.087 7.43 2.96 14.25
2/22/2021 4:30:00 PM -0.09 31.838 0.087 7.42 3.04 14.22
2/22/2021 4:45:00 PM -0.09 31.838 0.088 7.41 3 14.18
2/22/2021 5:00:00 PM -0.09 31.838 0.088 7.4 3.26 14.16
2/22/2021 5:15:00 PM -0.09 31.838 0.088 7.41 2.98 14.14
2/22/2021 5:30:00 PM -0.09 31.838 0.088 7.4 3.03 14.11
2/22/2021 5:45:00 PM -0.09 31.838 0.088 7.39 3.01 14.08
2/22/2021 6:00:00 PM -0.09 31.838 0.088 7.38 2.99 14.03
2/22/2021 6:15:00 PM -0.09 31.838 0.088 7.37 2.95 14.01
2/22/2021 6:30:00 PM -0.09 31.838 0.088 7.37 2.98 13.99
2/22/2021 6:45:00 PM -0.09 31.838 0.088 7.36 3 13.97
2/22/2021 7:00:00 PM -0.09 31.838 0.088 7.35 3.01 13.93
2/22/2021 7:15:00 PM -0.09 31.838 0.088 7.32 2.99 13.91
2/22/2021 7:30:00 PM -0.09 31.838 0.088 7.34 2.99 13.9
2/22/2021 7:45:00 PM -0.09 31.838 0.088 7.33 2.97 13.89
2/22/2021 8:00:00 PM -0.09 31.838 0.088 7.33 2.99 13.89
2/22/2021 8:15:00 PM -0.09 31.838 0.088 7.32 3.05 13.85
2/22/2021 8:30:00 PM -0.09 31.838 0.088 7.28 2.96 13.88
2/22/2021 8:45:00 PM -0.09 31.838 0.088 7.32 2.97 13.87
2/22/2021 9:00:00 PM -0.09 31.838 0.088 7.32 3.02 13.84
2/22/2021 9:15:00 PM -0.09 31.838 0.088 7.31 3.01 13.85
2/22/2021 9:30:00 PM -0.09 31.838 0.088 7.31 2.94 13.85
2/22/2021 9:45:00 PM -0.09 31.838 0.088 7.29 3 13.83
2/22/2021 10:00:00 PM -0.09 31.838 0.088 7.31 2.97 13.82
2/22/2021 10:15:00 PM -0.09 31.838 0.088 7.27 3 13.85
2/22/2021 10:30:00 PM -0.09 31.838 0.088 7.31 2.97 13.82
2/22/2021 10:45:00 PM -0.09 31.838 0.088 7.3 3.02 13.82
2/22/2021 11:00:00 PM -0.09 31.838 0.087 7.3 3 13.82
2/22/2021 11:15:00 PM -0.09 31.838 0.087 7.29 3.02 13.81
2/22/2021 11:30:00 PM -0.09 31.838 0.087 7.29 2.99 13.8
2/22/2021 11:45:00 PM -0.09 31.838 0.087 7.29 2.97 13.82
2/23/2021 12:00:00 AM -0.09 31.838 0.087 7.29 2.99 13.81
2/23/2021 12:15:00 AM -0.09 31.838 0.087 7.29 2.95 13.81
2/23/2021 12:30:00 AM -0.09 31.838 0.087 7.29 3 13.77
2/23/2021 12:45:00 AM -0.09 31.838 0.087 7.29 3.01 13.81
2/23/2021 1:00:00 AM -0.09 31.838 0.087 7.24 2.96 13.82
2/23/2021 1:15:00 AM -0.09 31.838 0.087 7.29 2.97 13.81
2/23/2021 1:30:00 AM -0.09 31.838 0.087 7.29 2.96 13.82
2/23/2021 1:45:00 AM -0.09 31.838 0.087 7.28 3 13.79
2/23/2021 2:00:00 AM -0.09 31.838 0.087 7.28 3.05 13.8
2/23/2021 2:15:00 AM -0.09 31.838 0.087 7.28 2.96 13.79
2/23/2021 2:30:00 AM -0.09 31.838 0.087 7.28 2.95 13.79
2/23/2021 2:45:00 AM -0.09 31.838 0.087 7.28 2.98 13.77
2/23/2021 3:00:00 AM -0.09 31.838 0.088 7.28 2.97 13.8
2/23/2021 3:15:00 AM -0.1 31.82 0.088 7.27 2.96 13.79
2/23/2021 3:30:00 AM -0.1 31.82 0.088 7.28 2.97 13.79
2/23/2021 3:45:00 AM -0.1 31.82 0.088 7.23 2.94 13.79
2/23/2021 4:00:00 AM -0.1 31.82 0.088 7.26 3 13.79
2/23/2021 4:15:00 AM -0.1 31.82 0.088 7.28 2.99 13.79
2/23/2021 4:30:00 AM -0.1 31.82 0.088 7.27 3.01 13.79
2/23/2021 4:45:00 AM -0.1 31.82 0.088 7.26 2.99 13.79
2/23/2021 5:00:00 AM -0.1 31.82 0.088 7.27 2.97 13.79
2/23/2021 5:15:00 AM -0.1 31.82 0.088 7.27 2.95 13.79
2/23/2021 5:30:00 AM -0.1 31.82 0.088 7.25 3.05 13.79
2/23/2021 5:45:00 AM -0.1 31.82 0.088 7.27 2.99 13.76
2/23/2021 6:00:00 AM -0.1 31.82 0.088 7.27 3.01 13.78
2/23/2021 6:15:00 AM -0.1 31.82 0.088 7.24 2.98 13.76
2/23/2021 6:30:00 AM -0.1 31.82 0.088 7.27 2.94 13.77
2/23/2021 6:45:00 AM -0.1 31.82 0.088 7.27 2.9 13.77
2/23/2021 7:00:00 AM -0.1 31.82 0.088 7.24 2.94 13.77
2/23/2021 7:15:00 AM -0.09 31.838 0.088 7.25 2.94 13.76
2/23/2021 7:30:00 AM -0.09 31.838 0.088 7.27 2.96 13.78
2/23/2021 7:45:00 AM -0.09 31.838 0.087 7.28 2.93 13.79
2/23/2021 8:00:00 AM -0.09 31.838 0.087 7.28 2.95 13.8
2/23/2021 8:15:00 AM -0.1 31.82 0.087 7.28 3 13.83
2/23/2021 8:30:00 AM -0.09 31.838 0.087 7.26 2.94 13.88
2/23/2021 8:45:00 AM -0.09 31.838 0.087 7.3 2.95 13.89
2/23/2021 9:00:00 AM -0.09 31.838 0.087 7.3 2.93 13.9
2/23/2021 9:15:00 AM -0.09 31.838 0.087 7.26 2.88 13.9
2/23/2021 9:30:00 AM -0.09 31.838 0.087 7.29 2.95 13.89
2/23/2021 9:45:00 AM -0.09 31.838 0.087 7.29 2.91 13.89
2/23/2021 10:00:00 AM -0.09 31.838 0.087 7.3 2.89 13.89
2/23/2021 10:15:00 AM -0.09 31.838 0.086 7.31 2.88 13.93
2/23/2021 10:30:00 AM -0.09 31.838 0.086 7.29 2.91 13.95
2/23/2021 10:45:00 AM -0.09 31.838 0.086 7.32 2.9 13.97
2/23/2021 11:00:00 AM -0.09 31.838 0.086 7.32 2.92 14.02
2/23/2021 11:15:00 AM -0.08 31.856 0.086 7.32 2.94 14
2/23/2021 11:30:00 AM -0.08 31.856 0.086 7.33 2.93 14.01
2/23/2021 11:45:00 AM -0.09 31.838 0.086 7.3 2.88 14.08
2/23/2021 12:00:00 PM -0.09 31.838 0.086 7.35 2.98 14.07
2/23/2021 12:15:00 PM -0.09 31.838 0.086 7.31 3.17 14.08
2/23/2021 12:30:00 PM -0.09 31.838 0.086 7.35 3.15 14.1
2/23/2021 12:45:00 PM -0.09 31.838 0.086 7.36 3.17 14.11
2/23/2021 1:00:00 PM -0.09 31.838 0.086 7.37 3.22 14.12
2/23/2021 1:15:00 PM -0.09 31.838 0.086 7.33 3.23 14.13
2/23/2021 1:30:00 PM -0.09 31.838 0.086 7.37 3.19 14.16
2/23/2021 1:45:00 PM -0.09 31.838 0.086 7.39 3.23 14.17
2/23/2021 2:00:00 PM -0.08 31.856 0.086 7.39 3.14 14.16
2/23/2021 2:15:00 PM -0.08 31.856 0.086 7.38 3.17 14.18
2/23/2021 2:30:00 PM -0.08 31.856 0.086 7.38 3.26 14.19
2/23/2021 2:45:00 PM -0.08 31.856 0.086 7.4 3.1 14.2
2/23/2021 3:00:00 PM -0.08 31.856 0.086 7.4 3.05 14.22
2/23/2021 3:15:00 PM -0.08 31.856 0.086 7.38 3.1 14.24
2/23/2021 3:30:00 PM -0.08 31.856 0.086 7.41 3.09 14.24
2/23/2021 3:45:00 PM -0.08 31.856 0.087 7.42 3.08 14.25
2/23/2021 4:00:00 PM -0.08 31.856 0.087 7.42 3.06 14.25
2/23/2021 4:15:00 PM -0.08 31.856 0.087 7.41 3.09 14.24
2/23/2021 4:30:00 PM -0.09 31.838 0.087 7.41 3.08 14.23
2/23/2021 4:45:00 PM -0.09 31.838 0.087 7.4 3.09 14.23
2/23/2021 5:00:00 PM -0.09 31.838 0.087 7.41 3.05 14.19
2/23/2021 5:15:00 PM -0.09 31.838 0.087 7.39 3.08 14.18
2/23/2021 5:30:00 PM -0.09 31.838 0.087 7.38 3.02 14.15
2/23/2021 5:45:00 PM -0.09 31.838 0.087 7.39 3.06 14.13
2/23/2021 6:00:00 PM -0.09 31.838 0.086 7.38 3.01 14.11
2/23/2021 6:15:00 PM -0.09 31.838 0.086 7.37 4.12 14.08
2/23/2021 6:30:00 PM -0.09 31.838 0.086 7.36 2.94 14.05
2/23/2021 6:45:00 PM -0.09 31.838 0.086 7.36 2.96 14.04
2/23/2021 7:00:00 PM -0.09 31.838 0.087 7.35 3.01 14.03
2/23/2021 7:15:00 PM -0.09 31.838 0.087 7.3 4.37 14
2/23/2021 7:30:00 PM -0.09 31.838 0.087 7.34 3.08 14.01
2/23/2021 7:45:00 PM -0.09 31.838 0.087 7.3 2.97 13.99
2/23/2021 8:00:00 PM -0.09 31.838 0.087 7.33 2.98 13.98
2/23/2021 8:15:00 PM -0.09 31.838 0.087 7.33 2.99 13.97
2/23/2021 8:30:00 PM -0.09 31.838 0.087 7.31 2.97 13.96
2/23/2021 8:45:00 PM -0.09 31.838 0.087 7.32 2.93 13.96
2/23/2021 9:00:00 PM -0.09 31.838 0.087 7.32 2.98 13.95
2/23/2021 9:15:00 PM -0.09 31.838 0.087 7.3 2.96 13.94
2/23/2021 9:30:00 PM -0.09 31.838 0.087 7.3 2.95 13.96
2/23/2021 9:45:00 PM -0.09 31.838 0.087 7.31 2.95 13.96
2/23/2021 10:00:00 PM -0.09 31.838 0.087 7.3 2.96 13.93
2/23/2021 10:15:00 PM -0.09 31.838 0.087 7.29 2.93 13.94
2/23/2021 10:30:00 PM -0.09 31.838 0.087 7.29 2.97 13.95
2/23/2021 10:45:00 PM -0.09 31.838 0.087 7.29 2.93 13.95
2/23/2021 11:00:00 PM -0.09 31.838 0.087 7.29 2.94 13.96
2/23/2021 11:15:00 PM -0.09 31.838 0.087 7.29 2.97 13.95
2/23/2021 11:30:00 PM -0.09 31.838 0.087 7.29 2.94 13.95
2/23/2021 11:45:00 PM -0.09 31.838 0.087 7.25 2.9 13.94
2/24/2021 12:00:00 AM -0.1 31.82 0.087 7.28 2.94 13.94
2/24/2021 12:15:00 AM -0.1 31.82 0.087 7.29 2.92 13.96
2/24/2021 12:30:00 AM -0.1 31.82 0.087 7.26 2.96 13.95
2/24/2021 12:45:00 AM -0.1 31.82 0.087 7.29 2.93 13.95
2/24/2021 1:00:00 AM -0.1 31.82 0.087 7.29 2.95 13.97
2/24/2021 1:15:00 AM -0.1 31.82 0.087 7.24 2.92 13.96
2/24/2021 1:30:00 AM -0.1 31.82 0.087 7.28 2.92 13.96
2/24/2021 1:45:00 AM -0.1 31.82 0.087 7.28 2.94 13.95
2/24/2021 2:00:00 AM -0.1 31.82 0.087 7.28 2.92 13.97
2/24/2021 2:15:00 AM -0.1 31.82 0.087 7.27 2.94 13.97
2/24/2021 2:30:00 AM -0.1 31.82 0.087 7.28 2.99 13.97
2/24/2021 2:45:00 AM -0.1 31.82 0.087 7.28 2.94 13.95
2/24/2021 3:00:00 AM -0.1 31.82 0.087 7.24 2.93 13.97
2/24/2021 3:15:00 AM -0.1 31.82 0.087 7.28 2.92 13.97
2/24/2021 3:30:00 AM -0.1 31.82 0.087 7.24 2.96 13.96
2/24/2021 3:45:00 AM -0.1 31.82 0.087 7.28 2.96 13.98
2/24/2021 4:00:00 AM -0.1 31.82 0.087 7.27 2.94 13.96
2/24/2021 4:15:00 AM -0.1 31.82 0.087 7.26 2.99 13.97
2/24/2021 4:30:00 AM -0.1 31.82 0.087 7.28 2.92 13.98
2/24/2021 4:45:00 AM -0.1 31.82 0.087 7.26 2.96 13.98
2/24/2021 5:00:00 AM -0.11 31.802 0.087 7.26 2.92 13.98
2/24/2021 5:15:00 AM -0.1 31.82 0.088 7.27 2.92 13.97
2/24/2021 5:30:00 AM -0.1 31.82 0.088 7.27 2.92 13.97
2/24/2021 5:45:00 AM -0.1 31.82 0.088 7.24 2.98 13.97
2/24/2021 6:00:00 AM -0.1 31.82 0.088 7.27 2.9 13.97
2/24/2021 6:15:00 AM -0.1 31.82 0.088 7.27 2.91 13.97
2/24/2021 6:30:00 AM -0.1 31.82 0.088 7.26 2.96 13.96
2/24/2021 6:45:00 AM -0.1 31.82 0.088 7.23 2.96 13.97
2/24/2021 7:00:00 AM -0.1 31.82 0.088 7.26 2.94 13.96
2/24/2021 7:15:00 AM -0.1 31.82 0.088 7.25 2.98 13.97
2/24/2021 7:30:00 AM -0.1 31.82 0.088 7.26 2.95 13.98
2/24/2021 7:45:00 AM -0.1 31.82 0.088 7.27 2.95 14.01
2/24/2021 8:00:00 AM -0.1 31.82 0.088 7.28 2.89 14.07
2/24/2021 8:15:00 AM -0.1 31.82 0.088 7.29 2.91 14.11
2/24/2021 8:30:00 AM -0.1 31.82 0.088 7.29 2.88 14.17
2/24/2021 8:45:00 AM -0.09 31.838 0.088 7.3 2.94 14.21
2/24/2021 9:00:00 AM -0.09 31.838 0.087 7.32 2.87 14.26
2/24/2021 9:15:00 AM -0.09 31.838 0.087 7.33 2.92 14.31
2/24/2021 9:30:00 AM -0.08 31.856 0.087 7.31 2.9 14.35
2/24/2021 9:45:00 AM -0.08 31.856 0.087 7.36 2.92 14.43
2/24/2021 10:00:00 AM -0.07 31.874 0.087 7.38 2.93 14.48
2/24/2021 10:15:00 AM -0.07 31.874 0.087 7.39 2.9 14.51
2/24/2021 10:30:00 AM -0.06 31.892 0.087 7.37 2.89 14.56
2/24/2021 10:45:00 AM -0.05 31.91 0.087 7.43 2.9 14.59
2/24/2021 11:00:00 AM -0.05 31.91 0.087 7.45 2.93 14.63
2/24/2021 11:15:00 AM -0.04 31.928 0.087 7.47 2.91 14.66
2/24/2021 11:30:00 AM -0.03 31.946 0.087 7.48 2.88 14.66
2/24/2021 11:45:00 AM -0.02 31.964 0.087 7.49 2.9 14.69
2/24/2021 12:00:00 PM -0.02 31.964 0.087 7.49 2.94 14.71
2/24/2021 12:15:00 PM -0.01 31.982 0.087 7.51 2.98 14.73
2/24/2021 12:30:00 PM 0 32 0.089 7.54 3.01 14.76
2/24/2021 12:45:00 PM 0 32 0.09 7.54 3.02 14.78
2/24/2021 1:00:00 PM 0 32 0.091 7.59 3.1 14.79
2/24/2021 1:15:00 PM 0.01 32.018 0.092 7.61 3.26 14.81
2/24/2021 1:30:00 PM 0.02 32.036 0.093 7.62 3.62 14.82
2/24/2021 1:45:00 PM -0.01 31.982 0.095 7.71 4.26 14.8
2/24/2021 2:00:00 PM -0.03 31.946 0.096 7.74 4.69 14.78
2/24/2021 2:15:00 PM -0.04 31.928 0.097 7.77 4.72 14.75
2/24/2021 2:30:00 PM -0.05 31.91 0.097 7.76 4.49 14.73
2/24/2021 2:45:00 PM -0.05 31.91 0.096 7.75 4.42 14.77
2/24/2021 3:00:00 PM -0.05 31.91 0.095 7.74 4.04 14.77
2/24/2021 3:15:00 PM -0.05 31.91 0.093 7.73 3.77 14.78
2/24/2021 3:30:00 PM -0.06 31.892 0.092 7.7 3.52 14.74
2/24/2021 3:45:00 PM -0.06 31.892 0.092 7.64 3.4 14.71
2/24/2021 4:00:00 PM -0.06 31.892 0.092 7.68 3.3 14.73
2/24/2021 4:15:00 PM -0.07 31.874 0.092 7.66 3.38 14.7
2/24/2021 4:30:00 PM -0.07 31.874 0.093 7.64 3.43 14.63
2/24/2021 4:45:00 PM -0.07 31.874 0.094 7.6 3.46 14.61
2/24/2021 5:00:00 PM -0.07 31.874 0.095 7.61 3.73 14.56
2/24/2021 5:15:00 PM -0.08 31.856 0.097 7.57 3.73 14.51
2/24/2021 5:30:00 PM -0.08 31.856 0.098 7.56 3.82 14.45
2/24/2021 5:45:00 PM -0.08 31.856 0.1 7.54 13.78 14.4
2/24/2021 6:00:00 PM -0.08 31.856 0.102 7.52 3.93 14.37
2/24/2021 6:15:00 PM -0.09 31.838 0.102 7.5 3.87 14.3
2/24/2021 6:30:00 PM -0.09 31.838 0.103 7.48 4.03 14.25
2/24/2021 6:45:00 PM -0.09 31.838 0.104 7.46 3.81 14.21
2/24/2021 7:00:00 PM -0.08 31.856 0.104 7.43 3.84 14.15
2/24/2021 7:15:00 PM -0.09 31.838 0.104 7.42 3.81 14.12
2/24/2021 7:30:00 PM -0.09 31.838 0.105 7.4 3.61 14.09
2/24/2021 7:45:00 PM -0.09 31.838 0.106 7.39 3.81 14.05
2/24/2021 8:00:00 PM -0.09 31.838 0.106 7.39 3.6 14.03
2/24/2021 8:15:00 PM -0.09 31.838 0.107 7.36 3.68 14
2/24/2021 8:30:00 PM -0.09 31.838 0.107 7.36 3.67 13.97
2/24/2021 8:45:00 PM -0.09 31.838 0.107 7.36 3.69 13.96
2/24/2021 9:00:00 PM -0.09 31.838 0.106 7.35 3.64 13.92
2/24/2021 9:15:00 PM -0.09 31.838 0.105 7.34 3.69 13.89
2/24/2021 9:30:00 PM -0.09 31.838 0.104 7.34 3.64 13.87
2/24/2021 9:45:00 PM -0.09 31.838 0.103 7.33 3.66 13.85
2/24/2021 10:00:00 PM -0.09 31.838 0.103 7.31 3.66 13.85
2/24/2021 10:15:00 PM -0.09 31.838 0.102 7.32 3.74 13.84
2/24/2021 10:30:00 PM -0.09 31.838 0.101 7.31 3.68 13.82
2/24/2021 10:45:00 PM -0.09 31.838 0.1 7.3 3.7 13.82
2/24/2021 11:00:00 PM -0.09 31.838 0.099 7.3 3.64 13.8
2/24/2021 11:15:00 PM -0.09 31.838 0.098 7.29 3.67 13.8
2/24/2021 11:30:00 PM -0.09 31.838 0.097 7.29 3.55 13.79
2/24/2021 11:45:00 PM -0.09 31.838 0.097 7.29 3.59 13.78
2/25/2021 12:00:00 AM -0.09 31.838 0.097 7.27 3.59 13.79
2/25/2021 12:15:00 AM -0.09 31.838 0.097 7.27 3.65 13.8
2/25/2021 12:30:00 AM -0.09 31.838 0.097 7.28 3.67 13.79
2/25/2021 12:45:00 AM -0.1 31.82 0.097 7.28 3.63 13.79
2/25/2021 1:00:00 AM -0.1 31.82 0.098 7.28 3.75 13.79
2/25/2021 1:15:00 AM -0.1 31.82 0.098 7.27 3.82 13.81
2/25/2021 1:30:00 AM -0.1 31.82 0.098 7.27 3.77 13.81
2/25/2021 1:45:00 AM -0.1 31.82 0.098 7.27 3.93 13.81
2/25/2021 2:00:00 AM -0.1 31.82 0.098 7.26 3.82 13.84
2/25/2021 2:15:00 AM -0.1 31.82 0.098 7.27 3.98 13.85
2/25/2021 2:30:00 AM -0.1 31.82 0.098 7.25 4.07 13.85
2/25/2021 2:45:00 AM -0.1 31.82 0.098 7.27 4.09 13.88
2/25/2021 3:00:00 AM -0.1 31.82 0.098 7.27 4.12 13.87
2/25/2021 3:15:00 AM -0.1 31.82 0.098 7.26 4.04 13.88
2/25/2021 3:30:00 AM -0.1 31.82 0.098 7.27 4.09 13.9
2/25/2021 3:45:00 AM -0.1 31.82 0.098 7.27 4.09 13.91
2/25/2021 4:00:00 AM -0.11 31.802 0.098 7.27 4.16 13.93
2/25/2021 4:15:00 AM -0.11 31.802 0.098 7.27 4.24 13.94
2/25/2021 4:30:00 AM -0.11 31.802 0.097 7.26 4.33 13.96
2/25/2021 4:45:00 AM -0.11 31.802 0.097 7.27 4.29 13.98
2/25/2021 5:00:00 AM -0.11 31.802 0.097 7.27 4.45 14
2/25/2021 5:15:00 AM -0.11 31.802 0.097 7.26 4.5 14.02
2/25/2021 5:30:00 AM -0.11 31.802 0.097 7.28 4.43 14.03
2/25/2021 5:45:00 AM -0.11 31.802 0.096 7.28 4.51 14.04
2/25/2021 6:00:00 AM -0.11 31.802 0.096 7.28 4.6 14.05
2/25/2021 6:15:00 AM -0.11 31.802 0.095 7.28 4.51 14.07
2/25/2021 6:30:00 AM -0.11 31.802 0.095 7.27 4.66 14.08
2/25/2021 6:45:00 AM -0.11 31.802 0.094 7.28 4.68 14.09
2/25/2021 7:00:00 AM -0.11 31.802 0.094 7.28 4.56 14.1
2/25/2021 7:15:00 AM -0.11 31.802 0.093 7.26 4.78 14.14
2/25/2021 7:30:00 AM -0.11 31.802 0.092 7.29 4.76 14.2
2/25/2021 7:45:00 AM -0.11 31.802 0.092 7.31 4.78 14.26
2/25/2021 8:00:00 AM -0.11 31.802 0.091 7.3 4.58 14.34
2/25/2021 8:15:00 AM -0.1 31.82 0.091 7.34 4.63 14.42
2/25/2021 8:30:00 AM -0.1 31.82 0.09 7.36 4.73 14.5
2/25/2021 8:45:00 AM -0.1 31.82 0.09 7.38 4.96 14.58
2/25/2021 9:00:00 AM -0.1 31.82 0.089 7.38 4.66 14.65
2/25/2021 9:15:00 AM -0.09 31.838 0.089 7.42 4.84 14.7
2/25/2021 9:30:00 AM -0.09 31.838 0.088 7.44 4.81 14.76
2/25/2021 9:45:00 AM -0.08 31.856 0.087 7.45 4.75 14.8
2/25/2021 10:00:00 AM -0.08 31.856 0.087 7.47 4.78 14.83
2/25/2021 10:15:00 AM -0.08 31.856 0.086 7.48 5.06 14.87
2/25/2021 10:30:00 AM -0.07 31.874 0.086 7.49 5.13 14.89
2/25/2021 10:45:00 AM -0.07 31.874 0.085 7.47 5.29 14.89
2/25/2021 11:00:00 AM -0.07 31.874 0.085 7.51 5.06 14.9
2/25/2021 11:15:00 AM -0.06 31.892 0.084 7.51 4.9 14.9
2/25/2021 11:30:00 AM -0.06 31.892 0.084 7.52 5.44 14.9
2/25/2021 11:45:00 AM -0.05 31.91 0.083 7.52 5.23 14.88
2/25/2021 12:00:00 PM -0.05 31.91 0.083 7.51 5.29 14.88
2/25/2021 12:15:00 PM -0.05 31.91 0.083 7.53 5.63 14.86
2/25/2021 12:30:00 PM -0.06 31.892 0.082 7.5 5.76 14.83
2/25/2021 12:45:00 PM -0.06 31.892 0.082 7.53 5.59 14.82
2/25/2021 1:00:00 PM -0.06 31.892 0.082 7.53 6.07 14.79
2/25/2021 1:15:00 PM -0.07 31.874 0.082 7.52 6.93 14.76
2/25/2021 1:30:00 PM -0.06 31.892 0.082 7.52 6.55 14.75
2/25/2021 1:45:00 PM -0.06 31.892 0.081 7.52 5.84 14.74
2/25/2021 2:00:00 PM -0.06 31.892 0.081 7.52 6.21 14.73
2/25/2021 2:15:00 PM -0.1 31.82 0.081 7.46 13.71 14.67
2/25/2021 2:30:00 PM -0.1 31.82 0.081 7.49 9.73 14.67
2/25/2021 2:45:00 PM -0.07 31.874 0.081 7.48 8.76 14.66
2/25/2021 3:00:00 PM 0.05 32.09 0.081 7.47 7.98 14.67
2/25/2021 3:15:00 PM 0.07 32.126 0.081 7.47 7.03 14.67
2/25/2021 3:30:00 PM 0.05 32.09 0.081 7.44 6.1 14.67
2/25/2021 3:45:00 PM 0.03 32.054 0.081 7.45 6.76 14.67
2/25/2021 4:00:00 PM 0 32 0.081 7.45 5.88 14.67
2/25/2021 4:15:00 PM -0.04 31.928 0.081 7.45 6.62 14.67
2/25/2021 4:30:00 PM -0.07 31.874 0.081 7.45 6.18 14.68
2/25/2021 4:45:00 PM -0.09 31.838 0.081 7.44 5.91 14.67
2/25/2021 5:00:00 PM -0.1 31.82 0.081 7.42 6.16 14.64
2/25/2021 5:15:00 PM -0.11 31.802 0.08 7.43 8.3 14.63
2/25/2021 5:30:00 PM -0.12 31.784 0.08 7.42 6.74 14.61
2/25/2021 5:45:00 PM -0.12 31.784 0.079 7.41 6.3 14.6
2/25/2021 6:00:00 PM -0.12 31.784 0.079 7.36 6.2 14.57
2/25/2021 6:15:00 PM -0.13 31.766 0.079 7.38 5.97 14.54
2/25/2021 6:30:00 PM -0.12 31.784 0.079 7.35 5.63 14.5
2/25/2021 6:45:00 PM -0.12 31.784 0.079 7.35 5.79 14.48
2/25/2021 7:00:00 PM -0.12 31.784 0.079 7.34 5.53 14.46
2/25/2021 7:15:00 PM -0.12 31.784 0.079 7.34 5.58 14.44
2/25/2021 7:30:00 PM -0.12 31.784 0.079 7.33 5.59 14.42
2/25/2021 7:45:00 PM -0.12 31.784 0.079 7.32 5.55 14.39
2/25/2021 8:00:00 PM -0.12 31.784 0.08 7.27 5.48 14.38
2/25/2021 8:15:00 PM -0.12 31.784 0.08 7.3 5.67 14.37
2/25/2021 8:30:00 PM -0.12 31.784 0.08 7.3 5.58 14.38
2/25/2021 8:45:00 PM -0.12 31.784 0.08 7.29 5.53 14.38
2/25/2021 9:00:00 PM -0.12 31.784 0.08 7.25 5.32 14.37
2/25/2021 9:15:00 PM -0.12 31.784 0.08 7.28 5.34 14.36
2/25/2021 9:30:00 PM -0.12 31.784 0.08 7.29 5.27 14.37
2/25/2021 9:45:00 PM -0.12 31.784 0.081 7.28 5.39 14.37
2/25/2021 10:00:00 PM -0.12 31.784 0.081 7.28 5.33 14.38
2/25/2021 10:15:00 PM -0.12 31.784 0.081 7.24 5.06 14.38
2/25/2021 10:30:00 PM -0.12 31.784 0.081 7.27 5.1 14.37
2/25/2021 10:45:00 PM -0.11 31.802 0.081 7.27 5.08 14.37
2/25/2021 11:00:00 PM -0.12 31.784 0.081 7.27 5.1 14.37
2/25/2021 11:15:00 PM -0.12 31.784 0.081 7.26 5.16 14.37
2/25/2021 11:30:00 PM -0.12 31.784 0.081 7.24 5.08 14.38
2/25/2021 11:45:00 PM -0.12 31.784 0.081 7.27 5.15 14.39
2/26/2021 12:00:00 AM -0.12 31.784 0.081 7.24 4.9 14.39
2/26/2021 12:15:00 AM -0.12 31.784 0.081 7.25 5.19 14.38
2/26/2021 12:30:00 AM -0.12 31.784 0.081 7.26 5.05 14.4
2/26/2021 12:45:00 AM -0.12 31.784 0.081 7.25 4.66 14.38
2/26/2021 1:00:00 AM -0.12 31.784 0.081 7.26 4.48 14.39
2/26/2021 1:15:00 AM -0.12 31.784 0.081 7.21 4.69 14.38
2/26/2021 1:30:00 AM -0.12 31.784 0.081 7.24 4.75 14.39
2/26/2021 1:45:00 AM -0.12 31.784 0.081 7.26 4.88 14.4
2/26/2021 2:00:00 AM -0.12 31.784 0.081 7.25 4.67 14.39
2/26/2021 2:15:00 AM -0.12 31.784 0.081 7.23 4.52 14.4
2/26/2021 2:30:00 AM -0.12 31.784 0.081 7.24 4.77 14.4
2/26/2021 2:45:00 AM -0.11 31.802 0.081 7.25 4.62 14.38
2/26/2021 3:00:00 AM -0.12 31.784 0.081 7.25 4.37 14.4
2/26/2021 3:15:00 AM -0.11 31.802 0.081 7.25 4.63 14.39
2/26/2021 3:30:00 AM -0.12 31.784 0.081 7.2 4.4 14.39
2/26/2021 3:45:00 AM -0.12 31.784 0.081 7.25 4.38 14.38
2/26/2021 4:00:00 AM -0.12 31.784 0.081 7.23 4.58 14.4
2/26/2021 4:15:00 AM -0.12 31.784 0.081 7.25 4.41 14.4
2/26/2021 4:30:00 AM -0.11 31.802 0.081 7.24 4.38 14.4
2/26/2021 4:45:00 AM -0.11 31.802 0.081 7.25 4.2 14.4
2/26/2021 5:00:00 AM -0.11 31.802 0.081 7.24 4.35 14.38
2/26/2021 5:15:00 AM -0.12 31.784 0.081 7.22 4.17 14.39
2/26/2021 5:30:00 AM -0.12 31.784 0.081 7.23 4.23 14.4
2/26/2021 5:45:00 AM -0.11 31.802 0.081 7.24 4.19 14.4
2/26/2021 6:00:00 AM -0.12 31.784 0.081 7.24 4.13 14.42
2/26/2021 6:15:00 AM -0.11 31.802 0.081 7.24 4.27 14.42
2/26/2021 6:30:00 AM -0.12 31.784 0.081 7.23 4.15 14.42
2/26/2021 6:45:00 AM -0.11 31.802 0.081 7.24 4.2 14.44
2/26/2021 7:00:00 AM -0.11 31.802 0.081 7.23 4.19 14.42
2/26/2021 7:15:00 AM -0.11 31.802 0.081 7.24 4.12 14.45
2/26/2021 7:30:00 AM -0.11 31.802 0.081 7.24 4.06 14.46
2/26/2021 7:45:00 AM -0.11 31.802 0.081 7.25 4.09 14.48
2/26/2021 8:00:00 AM -0.11 31.802 0.08 7.21 4.03 14.51
2/26/2021 8:15:00 AM -0.11 31.802 0.08 7.26 4.04 14.54
2/26/2021 8:30:00 AM -0.11 31.802 0.08 7.26 4 14.58
2/26/2021 8:45:00 AM -0.11 31.802 0.08 7.25 3.87 14.61
2/26/2021 9:00:00 AM -0.11 31.802 0.08 7.28 4.03 14.63
2/26/2021 9:15:00 AM -0.11 31.802 0.08 7.29 3.95 14.65
2/26/2021 9:30:00 AM -0.11 31.802 0.08 7.3 4.01 14.68
2/26/2021 9:45:00 AM -0.1 31.82 0.08 7.31 3.99 14.69
2/26/2021 10:00:00 AM -0.1 31.82 0.08 7.3 3.91 14.69
2/26/2021 10:15:00 AM -0.1 31.82 0.079 7.32 4.08 14.68
2/26/2021 10:30:00 AM -0.1 31.82 0.079 7.33 4.04 14.69
2/26/2021 10:45:00 AM -0.1 31.82 0.079 7.34 4.09 14.68
2/26/2021 11:00:00 AM -0.09 31.838 0.079 7.34 4.05 14.7
2/26/2021 11:15:00 AM -0.09 31.838 0.079 7.34 4.12 14.72
2/26/2021 11:30:00 AM -0.07 31.874 0.079 7.38 4.17 14.74
2/26/2021 11:45:00 AM -0.05 31.91 0.079 7.36 4.04 14.72
2/26/2021 12:00:00 PM -0.03 31.946 0.079 7.37 4.09 14.7
2/26/2021 12:15:00 PM -0.02 31.964 0.078 7.37 4.02 14.67
2/26/2021 12:30:00 PM 0.02 32.036 0.078 7.38 4.24 14.68
2/26/2021 12:45:00 PM 0.1 32.18 0.078 7.39 3.93 14.7
2/26/2021 1:00:00 PM 0.12 32.216 0.078 7.39 4.04 14.69
2/26/2021 1:15:00 PM 0.12 32.216 0.078 7.39 4.03 14.69
2/26/2021 1:30:00 PM 0.1 32.18 0.077 7.39 4.07 14.68
2/26/2021 1:45:00 PM 0.09 32.162 0.077 7.4 4.21 14.72
2/26/2021 2:00:00 PM 0.08 32.144 0.077 7.41 4.32 14.72
2/26/2021 2:15:00 PM 0.11 32.198 0.077 7.41 4.22 14.71
2/26/2021 2:30:00 PM 0.11 32.198 0.077 7.41 3.91 14.72
2/26/2021 2:45:00 PM 0.1 32.18 0.076 7.39 3.9 14.71
2/26/2021 3:00:00 PM 0.09 32.162 0.076 7.39 4.04 14.72
2/26/2021 3:15:00 PM 0.08 32.144 0.076 7.41 4.07 14.71
2/26/2021 3:30:00 PM 0.06 32.108 0.076 7.41 4.04 14.71
2/26/2021 3:45:00 PM 0.05 32.09 0.076 7.42 4.03 14.72
2/26/2021 4:00:00 PM 0.04 32.072 0.075 7.37 4.12 14.7
2/26/2021 4:15:00 PM 0.02 32.036 0.075 7.41 3.87 14.7
2/26/2021 4:30:00 PM 0 32 0.075 7.42 4.16 14.7
2/26/2021 4:45:00 PM -0.01 31.982 0.075 7.41 4.24 14.69
2/26/2021 5:00:00 PM -0.02 31.964 0.075 7.41 4.12 14.68
2/26/2021 5:15:00 PM -0.03 31.946 0.075 7.36 3.91 14.66
2/26/2021 5:30:00 PM -0.04 31.928 0.075 7.39 4.07 14.65
2/26/2021 5:45:00 PM -0.05 31.91 0.075 7.38 4.15 14.6
2/26/2021 6:00:00 PM -0.07 31.874 0.075 7.37 4.31 14.56
2/26/2021 6:15:00 PM -0.08 31.856 0.075 7.37 4.24 14.53
2/26/2021 6:30:00 PM -0.08 31.856 0.075 7.34 4.17 14.49
2/26/2021 6:45:00 PM -0.09 31.838 0.075 7.33 4.05 14.46
2/26/2021 7:00:00 PM -0.09 31.838 0.075 7.33 4.12 14.43
2/26/2021 7:15:00 PM -0.09 31.838 0.075 7.33 4.08 14.42
2/26/2021 7:30:00 PM -0.1 31.82 0.076 7.32 4.05 14.38
2/26/2021 7:45:00 PM -0.1 31.82 0.076 7.31 3.76 14.36
2/26/2021 8:00:00 PM -0.1 31.82 0.076 7.3 3.83 14.34
2/26/2021 8:15:00 PM -0.11 31.802 0.076 7.25 3.9 14.33
2/26/2021 8:30:00 PM -0.11 31.802 0.076 7.29 3.94 14.32
2/26/2021 8:45:00 PM -0.1 31.82 0.076 7.29 4.01 14.31
2/26/2021 9:00:00 PM -0.1 31.82 0.076 7.28 3.81 14.31
2/26/2021 9:15:00 PM -0.09 31.838 0.076 7.26 3.95 14.29
2/26/2021 9:30:00 PM -0.08 31.856 0.076 7.28 3.76 14.27
2/26/2021 9:45:00 PM -0.07 31.874 0.077 7.28 3.9 14.27
2/26/2021 10:00:00 PM -0.07 31.874 0.077 7.23 3.71 14.26
2/26/2021 10:15:00 PM -0.06 31.892 0.077 7.28 3.59 14.26
2/26/2021 10:30:00 PM -0.06 31.892 0.077 7.27 3.89 14.24
2/26/2021 10:45:00 PM -0.05 31.91 0.077 7.27 3.73 14.24
2/26/2021 11:00:00 PM -0.04 31.928 0.077 7.27 3.75 14.23
2/26/2021 11:15:00 PM -0.04 31.928 0.077 7.26 3.65 14.23
2/26/2021 11:30:00 PM -0.03 31.946 0.077 7.24 3.65 14.22
2/26/2021 11:45:00 PM -0.03 31.946 0.077 7.26 3.7 14.21
2/27/2021 12:00:00 AM -0.02 31.964 0.077 7.27 3.66 14.22
2/27/2021 12:15:00 AM -0.02 31.964 0.077 7.26 3.65 14.21
2/27/2021 12:30:00 AM -0.01 31.982 0.077 7.26 3.58 14.2
2/27/2021 12:45:00 AM -0.01 31.982 0.077 7.22 3.58 14.19
2/27/2021 1:00:00 AM -0.01 31.982 0.077 7.26 3.6 14.2
2/27/2021 1:15:00 AM -0.01 31.982 0.077 7.26 3.71 14.19
2/27/2021 1:30:00 AM 0 32 0.077 7.22 3.5 14.19
2/27/2021 1:45:00 AM 0 32 0.077 7.26 3.47 14.19
2/27/2021 2:00:00 AM 0 32 0.077 7.26 3.48 14.19
2/27/2021 2:15:00 AM 0 32 0.077 7.27 3.51 14.18
2/27/2021 2:30:00 AM 0 32 0.077 7.26 3.41 14.17
2/27/2021 2:45:00 AM 0.01 32.018 0.077 7.24 3.37 14.17
2/27/2021 3:00:00 AM 0 32 0.077 7.26 3.46 14.17
2/27/2021 3:15:00 AM 0.01 32.018 0.077 7.26 3.46 14.16
2/27/2021 3:30:00 AM 0.01 32.018 0.077 7.26 3.52 14.15
2/27/2021 3:45:00 AM 0.01 32.018 0.077 7.26 3.48 14.15
2/27/2021 4:00:00 AM 0.01 32.018 0.077 7.26 3.53 14.14
2/27/2021 4:15:00 AM 0.02 32.036 0.077 7.21 3.43 14.12
2/27/2021 4:30:00 AM 0.02 32.036 0.077 7.24 3.34 14.13
2/27/2021 4:45:00 AM 0.02 32.036 0.077 7.26 3.38 14.13
2/27/2021 5:00:00 AM 0.03 32.054 0.077 7.26 3.54 14.13
2/27/2021 5:15:00 AM 0.03 32.054 0.077 7.25 3.37 14.12
2/27/2021 5:30:00 AM 0.03 32.054 0.077 7.26 3.44 14.13
2/27/2021 5:45:00 AM 0.04 32.072 0.077 7.26 3.34 14.11
2/27/2021 6:00:00 AM 0.04 32.072 0.077 7.21 3.51 14.1
2/27/2021 6:15:00 AM 0.04 32.072 0.077 7.25 3.52 14.11
2/27/2021 6:30:00 AM 0.04 32.072 0.077 7.26 3.59 14.11
2/27/2021 6:45:00 AM 0.04 32.072 0.077 7.26 3.47 14.1
2/27/2021 7:00:00 AM 0.05 32.09 0.077 7.22 3.45 14.1
2/27/2021 7:15:00 AM 0.06 32.108 0.077 7.26 3.44 14.1
2/27/2021 7:30:00 AM 0.06 32.108 0.077 7.24 3.47 14.12
2/27/2021 7:45:00 AM 0.06 32.108 0.077 7.27 3.62 14.15
2/27/2021 8:00:00 AM 0.08 32.144 0.077 7.24 3.49 14.18
2/27/2021 8:15:00 AM 0.09 32.162 0.077 7.28 3.5 14.2
2/27/2021 8:30:00 AM 0.1 32.18 0.077 7.29 3.48 14.23
2/27/2021 8:45:00 AM 0.12 32.216 0.077 7.3 3.52 14.26
2/27/2021 9:00:00 AM 0.13 32.234 0.077 7.31 3.41 14.28
2/27/2021 9:15:00 AM 0.13 32.234 0.077 7.31 3.62 14.31
2/27/2021 9:30:00 AM 0.13 32.234 0.076 7.29 3.58 14.32
2/27/2021 9:45:00 AM 0.15 32.27 0.076 7.33 3.56 14.34
2/27/2021 10:00:00 AM 0.17 32.306 0.076 7.34 3.46 14.36
2/27/2021 10:15:00 AM 0.17 32.306 0.076 7.34 3.45 14.37
2/27/2021 10:30:00 AM 0.16 32.288 0.076 7.35 3.5 14.38
2/27/2021 10:45:00 AM 0.16 32.288 0.076 7.32 3.5 14.39
2/27/2021 11:00:00 AM 0.17 32.306 0.076 7.35 3.54 14.43
2/27/2021 11:15:00 AM 0.18 32.324 0.076 7.36 3.66 14.44
2/27/2021 11:30:00 AM 0.2 32.36 0.076 7.37 3.49 14.46
2/27/2021 11:45:00 AM 0.23 32.414 0.076 7.37 3.6 14.49
2/27/2021 12:00:00 PM 0.28 32.504 0.076 7.39 3.4 14.5
2/27/2021 12:15:00 PM 0.33 32.594 0.076 7.39 3.34 14.49
2/27/2021 12:30:00 PM 0.37 32.666 0.076 7.35 3.39 14.5
2/27/2021 12:45:00 PM 0.37 32.666 0.076 7.41 3.6 14.5
2/27/2021 1:00:00 PM 0.35 32.63 0.076 7.38 3.47 14.48
2/27/2021 1:15:00 PM 0.34 32.612 0.076 7.4 3.35 14.5
2/27/2021 1:30:00 PM 0.35 32.63 0.076 7.4 3.52 14.5
2/27/2021 1:45:00 PM 0.37 32.666 0.076 7.41 3.53 14.51
2/27/2021 2:00:00 PM 0.38 32.684 0.076 7.42 3.59 14.51
2/27/2021 2:15:00 PM 0.38 32.684 0.075 7.42 3.47 14.5
2/27/2021 2:30:00 PM 0.41 32.738 0.075 7.39 3.53 14.51
2/27/2021 2:45:00 PM 0.45 32.81 0.075 7.43 3.55 14.5
2/27/2021 3:00:00 PM 0.45 32.81 0.075 7.43 3.65 14.49
2/27/2021 3:15:00 PM 0.46 32.828 0.075 7.43 3.54 14.49
2/27/2021 3:30:00 PM 0.48 32.864 0.075 7.4 3.5 14.5
2/27/2021 3:45:00 PM 0.48 32.864 0.075 7.43 3.82 14.48
2/27/2021 4:00:00 PM 0.45 32.81 0.075 7.43 3.53 14.48
2/27/2021 4:15:00 PM 0.44 32.792 0.075 7.43 4.1 14.49
2/27/2021 4:30:00 PM 0.43 32.774 0.075 7.4 3.83 14.47
2/27/2021 4:45:00 PM 0.37 32.666 0.075 7.42 3.7 14.47
2/27/2021 5:00:00 PM 0.31 32.558 0.075 7.38 3.59 14.45
2/27/2021 5:15:00 PM 0.26 32.468 0.075 7.41 3.65 14.43
2/27/2021 5:30:00 PM 0.23 32.414 0.076 7.4 3.61 14.41
2/27/2021 5:45:00 PM 0.21 32.378 0.076 7.39 3.77 14.39
2/27/2021 6:00:00 PM 0.17 32.306 0.076 7.34 3.89 14.37
2/27/2021 6:15:00 PM 0.14 32.252 0.076 7.37 3.95 14.33
2/27/2021 6:30:00 PM 0.12 32.216 0.076 7.36 3.79 14.3
2/27/2021 6:45:00 PM 0.1 32.18 0.076 7.34 3.7 14.28
2/27/2021 7:00:00 PM 0.09 32.162 0.076 7.33 3.83 14.26
2/27/2021 7:15:00 PM 0.08 32.144 0.077 7.28 3.65 14.23
2/27/2021 7:30:00 PM 0.07 32.126 0.077 7.31 4.29 14.22
2/27/2021 7:45:00 PM 0.07 32.126 0.077 7.3 3.64 14.21
2/27/2021 8:00:00 PM 0.06 32.108 0.077 7.3 3.81 14.2
2/27/2021 8:15:00 PM 0.05 32.09 0.078 7.3 3.67 14.18
2/27/2021 8:30:00 PM 0.04 32.072 0.078 7.29 3.64 14.19
2/27/2021 8:45:00 PM 0.03 32.054 0.078 7.28 3.75 14.18
2/27/2021 9:00:00 PM 0.02 32.036 0.078 7.28 3.71 14.18
2/27/2021 9:15:00 PM 0.01 32.018 0.078 7.24 3.74 14.18
2/27/2021 9:30:00 PM 0 32 0.078 7.28 3.76 14.19
2/27/2021 9:45:00 PM 0 32 0.078 7.27 3.65 14.18
2/27/2021 10:00:00 PM 0 32 0.079 7.27 3.77 14.18
2/27/2021 10:15:00 PM -0.01 31.982 0.079 7.26 3.78 14.18
2/27/2021 10:30:00 PM -0.02 31.964 0.079 7.26 3.77 14.19
2/27/2021 10:45:00 PM -0.02 31.964 0.079 7.26 3.81 14.18
2/27/2021 11:00:00 PM -0.02 31.964 0.079 7.26 3.87 14.19
2/27/2021 11:15:00 PM -0.02 31.964 0.079 7.26 3.72 14.19
2/27/2021 11:30:00 PM -0.03 31.946 0.079 7.26 4.01 14.21
2/27/2021 11:45:00 PM -0.02 31.964 0.079 7.25 3.69 14.21
2/28/2021 12:00:00 AM -0.02 31.964 0.08 7.26 3.84 14.21
2/28/2021 12:15:00 AM -0.03 31.946 0.08 7.25 3.68 14.21
2/28/2021 12:30:00 AM -0.02 31.964 0.08 7.26 3.56 14.21
2/28/2021 12:45:00 AM -0.02 31.964 0.08 7.23 3.55 14.22
2/28/2021 1:00:00 AM -0.02 31.964 0.08 7.26 3.72 14.22
2/28/2021 1:15:00 AM -0.02 31.964 0.08 7.22 3.58 14.22
2/28/2021 1:30:00 AM -0.01 31.982 0.08 7.25 3.53 14.22
2/28/2021 1:45:00 AM -0.01 31.982 0.08 7.23 3.59 14.23
2/28/2021 2:00:00 AM 0 32 0.081 7.25 3.6 14.22
2/28/2021 2:15:00 AM 0 32 0.081 7.25 3.58 14.22
2/28/2021 2:30:00 AM 0 32 0.081 7.24 3.68 14.2
2/28/2021 2:45:00 AM 0 32 0.081 7.21 3.47 14.21
2/28/2021 3:00:00 AM 0 32 0.081 7.24 3.57 14.21
2/28/2021 3:15:00 AM -0.01 31.982 0.081 7.24 3.61 14.22
2/28/2021 3:30:00 AM -0.01 31.982 0.081 7.25 3.43 14.21
2/28/2021 3:45:00 AM -0.01 31.982 0.081 7.25 3.4 14.21
2/28/2021 4:00:00 AM 0 32 0.082 7.25 3.45 14.21
2/28/2021 4:15:00 AM 0 32 0.082 7.21 3.55 14.21
2/28/2021 4:30:00 AM 0 32 0.082 7.25 3.49 14.2
2/28/2021 4:45:00 AM 0 32 0.082 7.21 3.48 14.19
2/28/2021 5:00:00 AM 0 32 0.082 7.24 3.45 14.21
2/28/2021 5:15:00 AM 0 32 0.082 7.24 3.44 14.2
2/28/2021 5:30:00 AM 0 32 0.082 7.25 3.56 14.21
2/28/2021 5:45:00 AM 0.01 32.018 0.082 7.25 3.36 14.2
2/28/2021 6:00:00 AM 0.01 32.018 0.082 7.25 3.42 14.2
2/28/2021 6:15:00 AM 0.01 32.018 0.082 7.21 3.43 14.2
2/28/2021 6:30:00 AM 0.01 32.018 0.082 7.24 3.56 14.2
2/28/2021 6:45:00 AM 0.02 32.036 0.082 7.24 3.38 14.2
2/28/2021 7:00:00 AM 0.03 32.054 0.082 7.25 3.45 14.2
2/28/2021 7:15:00 AM 0.04 32.072 0.082 7.26 3.42 14.2
2/28/2021 7:30:00 AM 0.06 32.108 0.082 7.26 3.45 14.22
2/28/2021 7:45:00 AM 0.07 32.126 0.082 7.21 3.6 14.23
2/28/2021 8:00:00 AM 0.08 32.144 0.082 7.27 3.43 14.26
2/28/2021 8:15:00 AM 0.1 32.18 0.082 7.28 3.42 14.27
2/28/2021 8:30:00 AM 0.11 32.198 0.082 7.28 3.41 14.3
2/28/2021 8:45:00 AM 0.12 32.216 0.081 7.26 3.77 14.33
2/28/2021 9:00:00 AM 0.14 32.252 0.081 7.29 3.36 14.34
2/28/2021 9:15:00 AM 0.15 32.27 0.081 7.3 3.4 14.37
2/28/2021 9:30:00 AM 0.17 32.306 0.081 7.29 3.46 14.4
2/28/2021 9:45:00 AM 0.18 32.324 0.081 7.32 3.43 14.41
2/28/2021 10:00:00 AM 0.21 32.378 0.081